Darstellungsparameter: Aktuell verwendete Einstellungen:
Skalierung der Graphiken ... ?
xyx+y,   Skalierungsfaktor:      Skalierung: Modus: x, Faktor: 1
Darstellungszeitraum ... ?
Vom - - bis: - -   Zeitraum: 17.05.2011 - 28.02.2021
Min/Max/Avg-Anzeige ... ?
Zeige MMA aktuell
Zeige MMA Monat
Zeige MMA alles
Zeige --A aktuell
Zeige --A Monat
Zeige --A alles
Keine MMA-Anzeige
MMA:
Minimum Maximum Average (ber die Originaldaten)
MMA-Basis: 23.02.2003 - 17.05.2020
Quicknavigation für Darstellung... ?
Tage:      1T, 2T, 3T, 5T -1T -2T -3T -5T +1T +2T +3T +5T
Wochen: 1W, 2W, 3W -1W -2W -3W +1W +2W +3W
Monate: 1M, 3M, 6M -1M -3M -6M +1M +3M +6M
Jahre:    1J, 3J, 5J, 10J -1J -3J -5J -10J +1J +3J +5J +10J
Nutze für die Darstellung ... ?
Originaldaten oder Mittelwerte auf ...
Stundenbasis Tagesbasis Wochenbasis
Monatsbasis Jahresbasis      Datenbasis: Original-Daten
Darstellen als:
Statistik (Auto) Statistik J:M      Darstellung:
Zur Graphik,    zurück zur Übersicht aller Sensoren.
 
Tabellarische Datenbersicht: ?
 
Sensor: Nr:Datum:Temp:Abs-Feuchte:Windchill:Wind:
Aussen-T/F 1 17-05-2011 00:03:03 13.1 C 7.76 g/m*3 13.1 C 0 km/h
2 17-05-2011 00:15:03 13.2 C 7.81 g/m*3 13.2 C 0 km/h
3 17-05-2011 00:27:03 13.3 C 7.74 g/m*3 13.3 C 0 km/h
4 17-05-2011 00:39:03 12.4 C 7.76 g/m*3 12.4 C 0 km/h
5 17-05-2011 00:51:03 12.7 C 7.9 g/m*3 12.7 C 0 km/h
6 17-05-2011 01:03:03 13.4 C 7.79 g/m*3 13.4 C 0 km/h
7 17-05-2011 01:15:03 12.7 C 7.68 g/m*3 12.7 C 0 km/h
8 17-05-2011 01:27:03 12.8 C 7.84 g/m*3 12.8 C 0 km/h
9 17-05-2011 01:39:03 12.4 C 7.87 g/m*3 12.4 C 0 km/h
10 17-05-2011 01:51:03 12.4 C 7.98 g/m*3 12.4 C 0 km/h
11 17-05-2011 02:03:03 12.5 C 7.92 g/m*3 12.5 C 0 km/h
12 17-05-2011 02:15:03 12.6 C 8.08 g/m*3 12.6 C 0 km/h
13 17-05-2011 02:27:03 12.7 C 8.01 g/m*3 12.7 C 0 km/h
14 17-05-2011 02:39:03 12.8 C 8.06 g/m*3 12.8 C 0 km/h
15 17-05-2011 02:51:03 12.9 C 8.11 g/m*3 12.9 C 0 km/h
16 17-05-2011 03:03:03 13 C 7.83 g/m*3 13 C 0 km/h
17 17-05-2011 03:15:03 13 C 7.83 g/m*3 13 C 0 km/h
18 17-05-2011 03:27:03 12.8 C 7.95 g/m*3 12.8 C 0 km/h
19 17-05-2011 03:39:03 12.9 C 8 g/m*3 12.9 C 0 km/h
20 17-05-2011 03:51:03 12.8 C 7.95 g/m*3 12.8 C 0 km/h
21 17-05-2011 04:03:04 12.8 C 8.18 g/m*3 12.8 C 0 km/h
22 17-05-2011 04:15:04 12.8 C 8.06 g/m*3 12.8 C 0 km/h
23 17-05-2011 04:27:04 12.9 C 8 g/m*3 12.9 C 0 km/h
24 17-05-2011 04:39:04 12.5 C 8.03 g/m*3 12.5 C 0 km/h
25 17-05-2011 04:51:04 12.7 C 8.01 g/m*3 12.7 C 0 km/h
Sensor: Nr:Datum:Temp:Abs-Feuchte:Windchill:Wind:
Aussen-T/F 26 17-05-2011 05:03:04 12.7 C 8.01 g/m*3 12.7 C 0 km/h
27 17-05-2011 05:15:04 12.5 C 8.03 g/m*3 12.5 C 0 km/h
28 17-05-2011 05:27:04 12.6 C 7.97 g/m*3 12.6 C 0 km/h
29 17-05-2011 05:39:04 12.8 C 7.95 g/m*3 12.8 C 0 km/h
30 17-05-2011 05:51:04 12.8 C 7.84 g/m*3 12.8 C 0 km/h
31 17-05-2011 06:03:04 13 C 7.83 g/m*3 13 C 0 km/h
32 17-05-2011 06:15:04 13.1 C 7.87 g/m*3 13.1 C 0 km/h
33 17-05-2011 06:27:04 13.1 C 7.76 g/m*3 13.1 C 0 km/h
34 17-05-2011 06:39:04 13.2 C 7.69 g/m*3 13.2 C 0 km/h
35 17-05-2011 06:51:04 13.1 C 7.65 g/m*3 13.1 C 0 km/h
36 17-05-2011 07:03:03 13.4 C 7.67 g/m*3 13.4 C 0 km/h
37 17-05-2011 07:15:02 13.5 C 7.6 g/m*3 13.5 C 0 km/h
38 17-05-2011 07:27:02 13.6 C 7.65 g/m*3 13.6 C 0 km/h
39 17-05-2011 07:39:02 13.7 C 7.7 g/m*3 13.7 C 0 km/h
40 17-05-2011 07:51:02 13.7 C 7.58 g/m*3 13.7 C 0 km/h
41 17-05-2011 08:03:02 13.3 C 7.63 g/m*3 13.3 C 0 km/h
42 17-05-2011 08:15:02 13.3 C 7.86 g/m*3 13.3 C 0 km/h
43 17-05-2011 08:27:02 12.6 C 7.97 g/m*3 12.6 C 0 km/h
44 17-05-2011 08:39:02 13 C 8.17 g/m*3 13 C 0 km/h
45 17-05-2011 08:51:02 13.3 C 8.09 g/m*3 13.3 C 0 km/h
46 17-05-2011 09:03:02 13.5 C 8.07 g/m*3 13.5 C 0 km/h
47 17-05-2011 09:15:01 14 C 7.84 g/m*3 14 C 0 km/h
48 17-05-2011 09:27:01 14.4 C 7.79 g/m*3 14.4 C 0 km/h
49 17-05-2011 09:39:02 14.3 C 7.62 g/m*3 14.3 C 0 km/h
50 17-05-2011 09:51:02 14.5 C 7.84 g/m*3 14.5 C 0 km/h
Sensor: Nr:Datum:Temp:Abs-Feuchte:Windchill:Wind:
Aussen-T/F 51 17-05-2011 10:03:01 14.7 C 7.81 g/m*3 14.7 C 0 km/h
52 17-05-2011 10:15:02 15.2 C 7.79 g/m*3 15.2 C 0 km/h
53 17-05-2011 10:27:02 15.3 C 7.7 g/m*3 15.3 C 0 km/h
54 17-05-2011 10:39:02 15 C 7.82 g/m*3 15 C 0 km/h
55 17-05-2011 10:51:02 15.2 C 7.79 g/m*3 15.2 C 0 km/h
56 17-05-2011 11:03:02 15.3 C 7.7 g/m*3 15.3 C 0 km/h
57 17-05-2011 11:15:02 15.7 C 8.03 g/m*3 15.7 C 0 km/h
58 17-05-2011 11:27:02 16.2 C 7.58 g/m*3 16.2 C 0 km/h
59 17-05-2011 11:39:01 17.1 C 7.13 g/m*3 17.1 C 0 km/h
60 17-05-2011 11:51:02 16.8 C 7.15 g/m*3 16.8 C 0 km/h
61 17-05-2011 12:03:01 17.4 C 7.26 g/m*3 17.4 C 0 km/h
62 17-05-2011 12:15:02 18.2 C 7.15 g/m*3 18.2 C 0 km/h
63 17-05-2011 12:27:02 18 C 7.07 g/m*3 18 C 0 km/h
64 17-05-2011 12:39:01 18.6 C 7.16 g/m*3 18.6 C 0 km/h
65 17-05-2011 12:51:02 18.7 C 6.72 g/m*3 18.7 C 0 km/h
66 17-05-2011 13:03:02 19.3 C 6.8 g/m*3 19.3 C 0 km/h
67 17-05-2011 13:15:02 19.4 C 6.67 g/m*3 19.4 C 0 km/h
68 17-05-2011 13:27:02 20.6 C 6.98 g/m*3 20.6 C 0 km/h
69 17-05-2011 13:39:02 22.1 C 6.64 g/m*3 22.1 C 0 km/h
70 17-05-2011 13:51:02 20.6 C 6.98 g/m*3 20.6 C 0 km/h
71 17-05-2011 14:03:01 23.7 C 6.84 g/m*3 23.7 C 0 km/h
72 17-05-2011 14:15:01 22 C 5.82 g/m*3 22 C 0 km/h
73 17-05-2011 14:27:01 22.4 C 5.96 g/m*3 22.4 C 0 km/h
74 17-05-2011 14:39:01 24.1 C 5.69 g/m*3 24.1 C 0 km/h
75 17-05-2011 14:51:02 23.6 C 6.38 g/m*3 23.6 C 0 km/h
Sensor: Nr:Datum:Temp:Abs-Feuchte:Windchill:Wind:
Aussen-T/F 76 17-05-2011 15:03:02 22.1 C 5.86 g/m*3 22.1 C 0 km/h
77 17-05-2011 15:15:02 22.2 C 6.28 g/m*3 22.2 C 0 km/h
78 17-05-2011 15:27:02 23.5 C 6.13 g/m*3 23.5 C 0 km/h
79 17-05-2011 15:39:02 25.2 C 6.52 g/m*3 25.2 C 0 km/h
80 17-05-2011 15:51:02 27.4 C 5.53 g/m*3 27.4 C 0 km/h
81 17-05-2011 16:03:02 26.5 C 5.01 g/m*3 26.5 C 0 km/h
82 17-05-2011 16:15:02 27.4 C 5.26 g/m*3 27.4 C 0 km/h
83 17-05-2011 16:27:02 25.9 C 4.84 g/m*3 25.9 C 0 km/h
84 17-05-2011 16:39:02 27.2 C 5.2 g/m*3 27.2 C 0 km/h
85 17-05-2011 16:51:02 27 C 5.15 g/m*3 27 C 0 km/h
86 17-05-2011 17:03:02 28.2 C 5.5 g/m*3 28.2 C 0 km/h
87 17-05-2011 17:15:01 27.5 C 5.29 g/m*3 27.5 C 0 km/h
88 17-05-2011 17:27:01 26.5 C 5.01 g/m*3 26.5 C 0 km/h
89 17-05-2011 17:39:02 27.9 C 5.41 g/m*3 27.9 C 0 km/h
90 17-05-2011 17:51:02 26.7 C 5.06 g/m*3 26.7 C 0 km/h
91 17-05-2011 18:03:02 28.1 C 5.47 g/m*3 28.1 C 0 km/h
92 17-05-2011 18:15:02 23.1 C 4.55 g/m*3 23.1 C 0 km/h
93 17-05-2011 18:27:02 24.7 C 4.98 g/m*3 24.7 C 0 km/h
94 17-05-2011 18:39:02 24.9 C 4.58 g/m*3 24.9 C 0 km/h
95 17-05-2011 18:51:03 23.4 C 4.21 g/m*3 23.4 C 0 km/h
96 17-05-2011 19:03:02 24.4 C 4.45 g/m*3 24.4 C 0 km/h
97 17-05-2011 19:15:03 22.5 C 4.39 g/m*3 22.5 C 0 km/h
98 17-05-2011 19:27:03 22.8 C 5.28 g/m*3 22.8 C 0 km/h
99 17-05-2011 19:39:02 22.1 C 5.08 g/m*3 22.1 C 0 km/h
100 17-05-2011 19:51:02 21.2 C 5.19 g/m*3 21.2 C 0 km/h
Sensor: Nr:Datum:Temp:Abs-Feuchte:Windchill:Wind:
Aussen-T/F 101 17-05-2011 20:03:02 20.9 C 5.65 g/m*3 20.9 C 0 km/h
102 17-05-2011 20:15:02 20.4 C 5.84 g/m*3 20.4 C 0 km/h
103 17-05-2011 20:27:02 19.9 C 5.84 g/m*3 19.9 C 0 km/h
104 17-05-2011 20:39:02 18.9 C 6.16 g/m*3 18.9 C 0 km/h
105 17-05-2011 20:51:02 17.7 C 6.64 g/m*3 17.7 C 0 km/h
106 17-05-2011 21:03:02 16 C 6.68 g/m*3 16 C 0 km/h
107 17-05-2011 21:15:01 15.7 C 6.42 g/m*3 15.7 C 0 km/h
108 17-05-2011 21:27:01 15.2 C 6.49 g/m*3 15.2 C 0 km/h
109 17-05-2011 21:39:02 14.5 C 6.47 g/m*3 14.5 C 0 km/h
110 17-05-2011 21:51:02 14 C 6.51 g/m*3 14 C 0 km/h
111 17-05-2011 22:04:03 13.8 C 6.55 g/m*3 13.8 C 0 km/h
112 17-05-2011 22:16:03 13.6 C 6.47 g/m*3 13.6 C 0 km/h
113 17-05-2011 22:28:03 13.6 C 6.47 g/m*3 13.6 C 0 km/h
114 17-05-2011 22:40:03 13.1 C 6.5 g/m*3 13.1 C 0 km/h
115 17-05-2011 22:52:03 12.7 C 6.57 g/m*3 12.7 C 0 km/h
116 17-05-2011 23:04:03 12.2 C 6.69 g/m*3 12.2 C 0 km/h
117 17-05-2011 23:16:03 11.7 C 6.8 g/m*3 11.7 C 0 km/h
118 17-05-2011 23:28:03 11.9 C 7.1 g/m*3 11.9 C 0 km/h
119 17-05-2011 23:40:03 11.5 C 6.71 g/m*3 11.5 C 0 km/h
120 17-05-2011 23:52:03 10.9 C 6.66 g/m*3 10.9 C 0 km/h
121 18-05-2011 00:04:03 10.4 C 6.55 g/m*3 10.4 C 0 km/h
122 18-05-2011 00:16:03 10.2 C 6.66 g/m*3 10.2 C 0 km/h
123 18-05-2011 00:28:03 10.3 C 6.9 g/m*3 10.3 C 0 km/h
124 18-05-2011 00:40:03 10.4 C 7.04 g/m*3 10.4 C 0 km/h
125 18-05-2011 00:52:03 9.9 C 6.91 g/m*3 9.9 C 0 km/h
Sensor: Nr:Datum:Temp:Abs-Feuchte:Windchill:Wind:
Aussen-T/F 126 18-05-2011 01:04:03 9.6 C 6.78 g/m*3 9.6 C 0 km/h
127 18-05-2011 01:16:03 9.6 C 6.87 g/m*3 9.6 C 0 km/h
128 18-05-2011 01:28:04 9.5 C 6.92 g/m*3 9.5 C 0 km/h
129 18-05-2011 01:40:04 9.5 C 7.01 g/m*3 9.5 C 0 km/h
130 18-05-2011 01:52:04 9.2 C 6.88 g/m*3 9.2 C 0 km/h
131 18-05-2011 02:04:04 8.8 C 6.88 g/m*3 8.8 C 0 km/h
132 18-05-2011 02:16:04 8.6 C 6.87 g/m*3 8.6 C 0 km/h
133 18-05-2011 02:28:04 8.6 C 6.96 g/m*3 8.6 C 0 km/h
134 18-05-2011 02:40:04 8.4 C 6.96 g/m*3 8.4 C 0 km/h
135 18-05-2011 02:52:04 8.3 C 7 g/m*3 8.3 C 0 km/h
136 18-05-2011 03:04:04 8 C 6.86 g/m*3 8 C 0 km/h
137 18-05-2011 03:16:04 8 C 6.94 g/m*3 8 C 0 km/h
138 18-05-2011 03:28:04 7.8 C 6.94 g/m*3 7.8 C 0 km/h
139 18-05-2011 03:40:04 7.6 C 6.93 g/m*3 7.6 C 0 km/h
140 18-05-2011 03:52:04 7.4 C 6.84 g/m*3 7.4 C 0 km/h
141 18-05-2011 04:04:04 7.3 C 6.79 g/m*3 7.3 C 0 km/h
142 18-05-2011 04:16:04 7.1 C 6.71 g/m*3 7.1 C 0 km/h
143 18-05-2011 04:28:04 7 C 6.74 g/m*3 7 C 0 km/h
144 18-05-2011 04:40:04 7 C 6.74 g/m*3 7 C 0 km/h
145 18-05-2011 04:52:04 6.9 C 6.77 g/m*3 6.9 C 0 km/h
146 18-05-2011 05:04:04 6.7 C 6.69 g/m*3 6.7 C 0 km/h
147 18-05-2011 05:16:04 6.6 C 6.64 g/m*3 6.6 C 0 km/h
148 18-05-2011 05:28:04 6.8 C 6.81 g/m*3 6.8 C 0 km/h
149 18-05-2011 05:40:05 6.5 C 6.67 g/m*3 6.5 C 0 km/h
150 18-05-2011 05:52:05 6.5 C 6.67 g/m*3 6.5 C 0 km/h
Sensor: Nr:Datum:Temp:Abs-Feuchte:Windchill:Wind:
Aussen-T/F 151 18-05-2011 06:04:05 6.4 C 6.63 g/m*3 6.4 C 0 km/h
152 18-05-2011 06:16:05 6.5 C 6.67 g/m*3 6.5 C 0 km/h
153 18-05-2011 06:28:05 6.7 C 6.76 g/m*3 6.7 C 0 km/h
154 18-05-2011 06:40:03 7 C 6.9 g/m*3 7 C 0 km/h
155 18-05-2011 06:52:02 7.1 C 6.94 g/m*3 7.1 C 0 km/h
156 18-05-2011 07:04:01 7.4 C 7.08 g/m*3 7.4 C 0 km/h
157 18-05-2011 07:16:02 7.5 C 7.12 g/m*3 7.5 C 0 km/h
158 18-05-2011 07:28:02 8 C 7.28 g/m*3 8 C 0 km/h
159 18-05-2011 07:40:01 8.3 C 7.33 g/m*3 8.3 C 0 km/h
160 18-05-2011 07:52:02 8.4 C 7.38 g/m*3 8.4 C 0 km/h
161 18-05-2011 08:04:02 8.8 C 7.49 g/m*3 8.8 C 0 km/h
162 18-05-2011 08:16:01 9 C 7.49 g/m*3 9 C 0 km/h
163 18-05-2011 08:28:01 9.6 C 7.69 g/m*3 9.6 C 0 km/h
164 18-05-2011 08:40:02 10.1 C 7.85 g/m*3 10.1 C 0 km/h
165 18-05-2011 08:52:02 10.8 C 8.01 g/m*3 10.8 C 0 km/h
166 18-05-2011 09:04:01 11.3 C 8.16 g/m*3 11.3 C 0 km/h
167 18-05-2011 09:16:02 11.8 C 8.31 g/m*3 11.8 C 0 km/h
168 18-05-2011 09:28:02 12.4 C 8.19 g/m*3 12.4 C 0 km/h
169 18-05-2011 09:40:01 14.1 C 7.16 g/m*3 14.1 C 0 km/h
170 18-05-2011 09:52:02 15 C 7.05 g/m*3 15 C 0 km/h
171 18-05-2011 10:04:02 15.8 C 7 g/m*3 15.8 C 0 km/h
172 18-05-2011 10:16:01 16.7 C 6.96 g/m*3 16.7 C 0 km/h
173 18-05-2011 10:28:01 17.2 C 6.59 g/m*3 17.2 C 0 km/h
174 18-05-2011 10:40:02 17.8 C 6.22 g/m*3 17.8 C 0 km/h
175 18-05-2011 10:52:02 18.3 C 5.94 g/m*3 18.3 C 0 km/h
Sensor: Nr:Datum:Temp:Abs-Feuchte:Windchill:Wind:
Aussen-T/F 176 18-05-2011 11:04:02 18.7 C 5.92 g/m*3 18.7 C 0 km/h
177 18-05-2011 11:16:02 19 C 6.19 g/m*3 19 C 0 km/h
178 18-05-2011 11:28:02 19.2 C 6.1 g/m*3 19.2 C 0 km/h
179 18-05-2011 11:40:01 19.2 C 6.27 g/m*3 19.2 C 0 km/h
180 18-05-2011 11:52:02 19.6 C 6.25 g/m*3 19.6 C 0 km/h
181 18-05-2011 12:04:02 19.8 C 6.32 g/m*3 19.8 C 0 km/h
182 18-05-2011 12:16:02 20.1 C 6.26 g/m*3 20.1 C 0 km/h
183 18-05-2011 12:28:02 21.1 C 6.45 g/m*3 21.1 C 0 km/h
184 18-05-2011 12:40:01 20.7 C 6.48 g/m*3 20.7 C 0 km/h
185 18-05-2011 12:52:01 21.4 C 6.37 g/m*3 21.4 C 0 km/h
186 18-05-2011 13:04:02 22 C 6.4 g/m*3 22 C 0 km/h
187 18-05-2011 13:16:01 22.4 C 6.36 g/m*3 22.4 C 0 km/h
188 18-05-2011 13:28:01 22.6 C 6.23 g/m*3 22.6 C 0 km/h
189 18-05-2011 13:40:02 26.6 C 6.29 g/m*3 26.6 C 0 km/h
190 18-05-2011 13:52:03 27.8 C 5.65 g/m*3 27.8 C 0 km/h
191 18-05-2011 14:04:03 26.9 C 5.37 g/m*3 26.9 C 0 km/h
192 18-05-2011 14:16:02 28.4 C 5.84 g/m*3 28.4 C 0 km/h
193 18-05-2011 14:28:02 27.8 C 5.92 g/m*3 27.8 C 0 km/h
194 18-05-2011 14:40:03 26.9 C 5.12 g/m*3 26.9 C 0 km/h
195 18-05-2011 14:52:02 29.9 C 6.03 g/m*3 29.9 C 0 km/h
196 18-05-2011 15:04:02 30.4 C 6.2 g/m*3 30.4 C 0 km/h
197 18-05-2011 15:16:02 29.8 C 6 g/m*3 29.8 C 0 km/h
198 18-05-2011 15:28:02 27.7 C 5.35 g/m*3 27.7 C 0 km/h
199 18-05-2011 15:40:02 29.1 C 5.78 g/m*3 29.1 C 0 km/h
200 18-05-2011 15:52:02 27.9 C 5.41 g/m*3 27.9 C 0 km/h
Sensor: Nr:Datum:Temp:Abs-Feuchte:Windchill:Wind:
Aussen-T/F 201 18-05-2011 16:04:02 29.2 C 5.81 g/m*3 29.2 C 0 km/h
202 18-05-2011 16:16:02 28.4 C 5.56 g/m*3 28.4 C 0 km/h
203 18-05-2011 16:28:02 29.8 C 6 g/m*3 29.8 C 0 km/h
204 18-05-2011 16:40:02 29.2 C 5.81 g/m*3 29.2 C 0 km/h
205 18-05-2011 16:52:02 27.8 C 5.38 g/m*3 27.8 C 0 km/h
206 18-05-2011 17:04:02 28.2 C 5.5 g/m*3 28.2 C 0 km/h
207 18-05-2011 17:16:02 26.2 C 4.92 g/m*3 26.2 C 0 km/h
208 18-05-2011 17:28:02 29.1 C 5.78 g/m*3 29.1 C 0 km/h
209 18-05-2011 17:40:02 27.9 C 5.41 g/m*3 27.9 C 0 km/h
210 18-05-2011 17:52:01 27.1 C 5.18 g/m*3 27.1 C 0 km/h
211 18-05-2011 18:04:02 27.7 C 5.35 g/m*3 27.7 C 0 km/h
212 18-05-2011 18:16:02 29.7 C 5.97 g/m*3 29.7 C 0 km/h
213 18-05-2011 18:28:02 27.7 C 5.35 g/m*3 27.7 C 0 km/h
214 18-05-2011 18:40:01 24.9 C 6.87 g/m*3 24.9 C 0 km/h
215 18-05-2011 18:52:01 24.1 C 6.78 g/m*3 24.1 C 0 km/h
216 18-05-2011 19:04:02 22.3 C 6.91 g/m*3 22.3 C 0 km/h
217 18-05-2011 19:16:01 24.7 C 6.79 g/m*3 24.7 C 0 km/h
218 18-05-2011 19:28:01 25.8 C 6.98 g/m*3 25.8 C 0 km/h
219 18-05-2011 19:40:02 23.3 C 7.32 g/m*3 23.3 C 0 km/h
220 18-05-2011 19:52:01 22.2 C 7.66 g/m*3 22.2 C 0 km/h
221 18-05-2011 20:04:02 21.1 C 7.92 g/m*3 21.1 C 0 km/h
222 18-05-2011 20:16:02 20.7 C 8.1 g/m*3 20.7 C 0 km/h
223 18-05-2011 20:28:02 19.8 C 8.03 g/m*3 19.8 C 0 km/h
224 18-05-2011 20:40:01 19.2 C 7.91 g/m*3 19.2 C 0 km/h
225 18-05-2011 20:52:01 18.5 C 7.75 g/m*3 18.5 C 0 km/h
Sensor: Nr:Datum:Temp:Abs-Feuchte:Windchill:Wind:
Aussen-T/F 226 18-05-2011 21:04:02 18.2 C 7.15 g/m*3 18.2 C 0 km/h
227 18-05-2011 21:16:02 17.9 C 7.33 g/m*3 17.9 C 0 km/h
228 18-05-2011 21:28:03 17.4 C 7.41 g/m*3 17.4 C 0 km/h
229 18-05-2011 21:40:02 16.9 C 7.34 g/m*3 16.9 C 0 km/h
230 18-05-2011 21:52:02 17 C 7.38 g/m*3 17 C 0 km/h
231 18-05-2011 22:04:02 16.9 C 7.91 g/m*3 16.9 C 0 km/h
232 18-05-2011 22:16:02 16.1 C 7.68 g/m*3 16.1 C 0 km/h
233 18-05-2011 22:28:02 15.3 C 7.7 g/m*3 15.3 C 0 km/h
234 18-05-2011 22:40:02 14.7 C 7.81 g/m*3 14.7 C 0 km/h
235 18-05-2011 22:53:03 14.5 C 7.59 g/m*3 14.5 C 0 km/h
236 18-05-2011 23:05:03 14.1 C 7.65 g/m*3 14.1 C 0 km/h
237 18-05-2011 23:17:03 13.9 C 7.79 g/m*3 13.9 C 0 km/h
238 18-05-2011 23:29:03 13.5 C 7.6 g/m*3 13.5 C 0 km/h
239 18-05-2011 23:41:03 13.2 C 7.58 g/m*3 13.2 C 0 km/h
240 18-05-2011 23:53:03 13 C 7.6 g/m*3 13 C 0 km/h
241 19-05-2011 00:05:03 12.7 C 7.57 g/m*3 12.7 C 0 km/h
242 19-05-2011 00:17:03 12.4 C 7.65 g/m*3 12.4 C 0 km/h
243 19-05-2011 00:29:03 12 C 7.46 g/m*3 12 C 0 km/h
244 19-05-2011 00:41:03 11.8 C 7.58 g/m*3 11.8 C 0 km/h
245 19-05-2011 00:53:03 11.8 C 7.68 g/m*3 11.8 C 0 km/h
246 19-05-2011 01:05:04 12 C 7.89 g/m*3 12 C 0 km/h
247 19-05-2011 01:17:04 12.3 C 8.04 g/m*3 12.3 C 0 km/h
248 19-05-2011 01:29:04 11.7 C 7.74 g/m*3 11.7 C 0 km/h
249 19-05-2011 01:41:04 11.2 C 7.5 g/m*3 11.2 C 0 km/h
250 19-05-2011 01:53:04 11.3 C 7.85 g/m*3 11.3 C 0 km/h
Sensor: Nr:Datum:Temp:Abs-Feuchte:Windchill:Wind:
Aussen-T/F 251 19-05-2011 02:05:04 11 C 7.71 g/m*3 11 C 0 km/h
252 19-05-2011 02:17:04 11.1 C 7.86 g/m*3 11.1 C 0 km/h
253 19-05-2011 02:29:04 10.9 C 7.86 g/m*3 10.9 C 0 km/h
254 19-05-2011 02:41:04 10.5 C 7.76 g/m*3 10.5 C 0 km/h
255 19-05-2011 02:53:04 10.3 C 7.76 g/m*3 10.3 C 0 km/h
256 19-05-2011 03:05:04 10.3 C 7.76 g/m*3 10.3 C 0 km/h
257 19-05-2011 03:17:04 10.1 C 7.75 g/m*3 10.1 C 0 km/h
258 19-05-2011 03:29:04 10.2 C 7.9 g/m*3 10.2 C 0 km/h
259 19-05-2011 03:41:04 10.1 C 7.85 g/m*3 10.1 C 0 km/h
260 19-05-2011 03:53:04 10.1 C 7.94 g/m*3 10.1 C 0 km/h
261 19-05-2011 04:05:04 10 C 7.89 g/m*3 10 C 0 km/h
262 19-05-2011 04:17:04 10.3 C 8.04 g/m*3 10.3 C 0 km/h
263 19-05-2011 04:29:04 10.6 C 8.2 g/m*3 10.6 C 0 km/h
264 19-05-2011 04:41:04 10.7 C 8.15 g/m*3 10.7 C 0 km/h
265 19-05-2011 04:53:04 10.4 C 8 g/m*3 10.4 C 0 km/h
266 19-05-2011 05:05:04 10.2 C 7.9 g/m*3 10.2 C 0 km/h
267 19-05-2011 05:17:05 10.4 C 8 g/m*3 10.4 C 0 km/h
268 19-05-2011 05:29:05 10.5 C 8.05 g/m*3 10.5 C 0 km/h
269 19-05-2011 05:41:05 10.5 C 8.05 g/m*3 10.5 C 0 km/h
270 19-05-2011 05:53:05 10.5 C 8.05 g/m*3 10.5 C 0 km/h
271 19-05-2011 06:05:05 10.6 C 8.1 g/m*3 10.6 C 0 km/h
272 19-05-2011 06:17:05 10.8 C 8.2 g/m*3 10.8 C 0 km/h
273 19-05-2011 06:29:05 11.1 C 8.26 g/m*3 11.1 C 0 km/h
274 19-05-2011 06:41:05 11.4 C 8.31 g/m*3 11.4 C 0 km/h
275 19-05-2011 06:53:05 11.7 C 8.26 g/m*3 11.7 C 0 km/h
Sensor: Nr:Datum:Temp:Abs-Feuchte:Windchill:Wind:
Aussen-T/F 276 19-05-2011 07:05:02 12.1 C 8.15 g/m*3 12.1 C 0 km/h
277 19-05-2011 07:17:02 12.5 C 8.14 g/m*3 12.5 C 0 km/h
278 19-05-2011 07:29:02 12.8 C 8.06 g/m*3 12.8 C 0 km/h
279 19-05-2011 07:41:02 13.2 C 7.92 g/m*3 13.2 C 0 km/h
280 19-05-2011 07:53:02 13.8 C 7.86 g/m*3 13.8 C 0 km/h
281 19-05-2011 08:05:02 14.3 C 7.86 g/m*3 14.3 C 0 km/h
282 19-05-2011 08:17:02 14.7 C 7.81 g/m*3 14.7 C 0 km/h
283 19-05-2011 08:29:02 15.1 C 7.87 g/m*3 15.1 C 0 km/h
284 19-05-2011 08:41:02 15.6 C 7.98 g/m*3 15.6 C 0 km/h
285 19-05-2011 08:53:02 15.8 C 8.08 g/m*3 15.8 C 0 km/h
286 19-05-2011 09:05:02 16.4 C 8.23 g/m*3 16.4 C 0 km/h
287 19-05-2011 09:17:02 16.9 C 8.05 g/m*3 16.9 C 0 km/h
288 19-05-2011 09:29:02 17.8 C 8.35 g/m*3 17.8 C 0 km/h
289 19-05-2011 09:41:02 18.4 C 8.02 g/m*3 18.4 C 0 km/h
290 19-05-2011 09:53:02 18.8 C 7.89 g/m*3 18.8 C 0 km/h
291 19-05-2011 10:05:02 19.3 C 7.96 g/m*3 19.3 C 0 km/h
292 19-05-2011 10:17:02 19.4 C 8.01 g/m*3 19.4 C 0 km/h
293 19-05-2011 10:29:02 20.2 C 8.04 g/m*3 20.2 C 0 km/h
294 19-05-2011 10:41:03 20.8 C 8.15 g/m*3 20.8 C 0 km/h
295 19-05-2011 10:53:02 20.6 C 7.7 g/m*3 20.6 C 0 km/h
296 19-05-2011 11:05:02 21.8 C 8.06 g/m*3 21.8 C 0 km/h
297 19-05-2011 11:17:02 22.1 C 7.81 g/m*3 22.1 C 0 km/h
298 19-05-2011 11:29:02 22.3 C 7.9 g/m*3 22.3 C 0 km/h
299 19-05-2011 11:41:02 22.2 C 7.66 g/m*3 22.2 C 0 km/h
300 19-05-2011 11:53:02 22.2 C 7.66 g/m*3 22.2 C 0 km/h
Sensor: Nr:Datum:Temp:Abs-Feuchte:Windchill:Wind:
Aussen-T/F 301 19-05-2011 12:05:03 22.9 C 7.77 g/m*3 22.9 C 0 km/h
302 19-05-2011 12:17:02 22.9 C 7.56 g/m*3 22.9 C 0 km/h
303 19-05-2011 12:29:02 23.3 C 7.74 g/m*3 23.3 C 0 km/h
304 19-05-2011 12:41:02 23.8 C 7.74 g/m*3 23.8 C 0 km/h
305 19-05-2011 12:53:02 24.4 C 7.57 g/m*3 24.4 C 0 km/h
306 19-05-2011 13:05:03 24.8 C 7.28 g/m*3 24.8 C 0 km/h
307 19-05-2011 13:17:02 25.4 C 6.83 g/m*3 25.4 C 0 km/h
308 19-05-2011 13:29:02 26.1 C 6.61 g/m*3 26.1 C 0 km/h
309 19-05-2011 13:41:02 27 C 6.43 g/m*3 27 C 0 km/h
310 19-05-2011 13:53:02 28.2 C 6.6 g/m*3 28.2 C 0 km/h
311 19-05-2011 14:05:03 27 C 5.92 g/m*3 27 C 0 km/h
312 19-05-2011 14:17:02 27.4 C 6.58 g/m*3 27.4 C 0 km/h
313 19-05-2011 14:29:02 27.6 C 6.65 g/m*3 27.6 C 0 km/h
314 19-05-2011 14:41:02 27.5 C 6.61 g/m*3 27.5 C 0 km/h
315 19-05-2011 14:53:02 26.3 C 6.19 g/m*3 26.3 C 0 km/h
316 19-05-2011 15:05:02 25.7 C 7.66 g/m*3 25.7 C 0 km/h
317 19-05-2011 15:17:02 26.3 C 7.18 g/m*3 26.3 C 0 km/h
318 19-05-2011 15:29:02 24.2 C 6.38 g/m*3 24.2 C 0 km/h
319 19-05-2011 15:41:03 26.3 C 6.19 g/m*3 26.3 C 0 km/h
320 19-05-2011 15:53:02 26.3 C 6.19 g/m*3 26.3 C 0 km/h
321 19-05-2011 16:05:02 27.3 C 6.28 g/m*3 27.3 C 0 km/h
322 19-05-2011 16:17:02 26.9 C 6.4 g/m*3 26.9 C 0 km/h
323 19-05-2011 16:29:02 27.8 C 6.46 g/m*3 27.8 C 0 km/h
324 19-05-2011 16:41:03 26.5 C 6.26 g/m*3 26.5 C 0 km/h
325 19-05-2011 16:53:02 26.1 C 6.61 g/m*3 26.1 C 0 km/h
Sensor: Nr:Datum:Temp:Abs-Feuchte:Windchill:Wind:
Aussen-T/F 326 19-05-2011 17:05:02 26.4 C 7.47 g/m*3 26.4 C 0 km/h
327 19-05-2011 17:17:02 26 C 7.55 g/m*3 26 C 0 km/h
328 19-05-2011 17:29:02 24 C 7.83 g/m*3 24 C 0 km/h
329 19-05-2011 17:41:02 24.3 C 7.08 g/m*3 24.3 C 0 km/h
330 19-05-2011 17:53:02 22.8 C 7.52 g/m*3 22.8 C 0 km/h
331 19-05-2011 18:05:02 22.8 C 7.72 g/m*3 22.8 C 0 km/h
332 19-05-2011 18:17:02 21.7 C 7.82 g/m*3 21.7 C 0 km/h
333 19-05-2011 18:29:02 19.9 C 8.25 g/m*3 19.9 C 0 km/h
334 19-05-2011 18:41:21 17.1 C 9.32 g/m*3 17.1 C 0 km/h
335 19-05-2011 18:53:21 15.8 C 10.5 g/m*3 15.8 C 0 km/h
336 19-05-2011 19:05:21 15.9 C 11.1 g/m*3 15.9 C 0 km/h
337 19-05-2011 19:17:21 16 C 11.31 g/m*3 16 C 0 km/h
338 19-05-2011 19:29:03 16.1 C 11.38 g/m*3 16.1 C 0 km/h
339 19-05-2011 19:41:03 16.4 C 11.58 g/m*3 16.4 C 0 km/h
340 19-05-2011 19:53:02 16.2 C 11.45 g/m*3 16.2 C 0 km/h
341 19-05-2011 20:05:02 16 C 11.31 g/m*3 16 C 0 km/h
342 19-05-2011 20:17:02 15.7 C 11.24 g/m*3 15.7 C 0 km/h
343 19-05-2011 20:29:02 15.3 C 11.1 g/m*3 15.3 C 0 km/h
344 19-05-2011 20:41:02 15.1 C 10.97 g/m*3 15.1 C 0 km/h
345 19-05-2011 20:53:02 14.9 C 11.09 g/m*3 14.9 C 0 km/h
346 19-05-2011 21:05:02 14.8 C 11.02 g/m*3 14.8 C 0 km/h
347 19-05-2011 21:17:01 14.8 C 11.15 g/m*3 14.8 C 0 km/h
348 19-05-2011 21:29:01 14.2 C 10.75 g/m*3 14.2 C 0 km/h
349 19-05-2011 21:41:02 13.8 C 10.48 g/m*3 13.8 C 0 km/h
350 19-05-2011 21:53:01 13.7 C 10.42 g/m*3 13.7 C 0 km/h
Sensor: Nr:Datum:Temp:Abs-Feuchte:Windchill:Wind:
Aussen-T/F 351 19-05-2011 22:06:04 13.8 C 10.6 g/m*3 13.8 C 0 km/h
352 19-05-2011 22:18:04 13.6 C 10.47 g/m*3 13.6 C 0 km/h
353 19-05-2011 22:30:04 13.6 C 10.47 g/m*3 13.6 C 0 km/h
354 19-05-2011 22:42:04 13.2 C 10.22 g/m*3 13.2 C 0 km/h
355 19-05-2011 22:54:04 13.2 C 10.22 g/m*3 13.2 C 0 km/h
356 19-05-2011 23:06:04 13.2 C 10.22 g/m*3 13.2 C 0 km/h
357 19-05-2011 23:18:04 12.8 C 10.08 g/m*3 12.8 C 0 km/h
358 19-05-2011 23:30:04 13.2 C 10.22 g/m*3 13.2 C 0 km/h
359 19-05-2011 23:42:04 13.2 C 10.33 g/m*3 13.2 C 0 km/h
360 19-05-2011 23:54:04 12.9 C 10.14 g/m*3 12.9 C 0 km/h
361 20-05-2011 00:06:04 12.7 C 10.02 g/m*3 12.7 C 0 km/h
362 20-05-2011 00:18:04 12.9 C 10.26 g/m*3 12.9 C 0 km/h
363 20-05-2011 00:30:04 12.9 C 10.26 g/m*3 12.9 C 0 km/h
364 20-05-2011 00:42:04 12.3 C 9.77 g/m*3 12.3 C 0 km/h
365 20-05-2011 00:54:04 12.5 C 10 g/m*3 12.5 C 0 km/h
366 20-05-2011 01:06:04 12.2 C 9.71 g/m*3 12.2 C 0 km/h
367 20-05-2011 01:18:04 12 C 9.59 g/m*3 12 C 0 km/h
368 20-05-2011 01:30:04 12 C 9.7 g/m*3 12 C 0 km/h
369 20-05-2011 01:42:04 11.9 C 9.64 g/m*3 11.9 C 0 km/h
370 20-05-2011 01:54:05 11.7 C 9.52 g/m*3 11.7 C 0 km/h
371 20-05-2011 02:06:05 11.7 C 9.52 g/m*3 11.7 C 0 km/h
372 20-05-2011 02:18:05 12.2 C 9.82 g/m*3 12.2 C 0 km/h
373 20-05-2011 02:30:05 11.7 C 9.52 g/m*3 11.7 C 0 km/h
374 20-05-2011 02:42:05 11.6 C 9.46 g/m*3 11.6 C 0 km/h
375 20-05-2011 02:54:05 11.7 C 9.52 g/m*3 11.7 C 0 km/h
Sensor: Nr:Datum:Temp:Abs-Feuchte:Windchill:Wind:
Aussen-T/F 376 20-05-2011 03:06:05 11.5 C 9.4 g/m*3 11.5 C 0 km/h
377 20-05-2011 03:18:05 11 C 9.11 g/m*3 11 C 0 km/h
378 20-05-2011 03:30:05 10.8 C 9.09 g/m*3 10.8 C 0 km/h
379 20-05-2011 03:42:05 10.8 C 9.09 g/m*3 10.8 C 0 km/h
380 20-05-2011 03:54:05 11 C 9.11 g/m*3 11 C 0 km/h
381 20-05-2011 04:06:05 11 C 9.11 g/m*3 11 C 0 km/h
382 20-05-2011 04:18:05 10.8 C 9.09 g/m*3 10.8 C 0 km/h
383 20-05-2011 04:30:05 10.8 C 9.09 g/m*3 10.8 C 0 km/h
384 20-05-2011 04:42:05 10.7 C 9.04 g/m*3 10.7 C 0 km/h
385 20-05-2011 04:54:05 10.2 C 8.76 g/m*3 10.2 C 0 km/h
386 20-05-2011 05:06:05 10.5 C 8.92 g/m*3 10.5 C 0 km/h
387 20-05-2011 05:18:05 10.8 C 9.09 g/m*3 10.8 C 0 km/h
388 20-05-2011 05:30:05 11 C 9.21 g/m*3 11 C 0 km/h
389 20-05-2011 05:42:05 11 C 9.21 g/m*3 11 C 0 km/h
390 20-05-2011 05:54:05 10.9 C 9.15 g/m*3 10.9 C 0 km/h
391 20-05-2011 06:06:06 10.9 C 9.15 g/m*3 10.9 C 0 km/h
392 20-05-2011 06:18:03 11 C 9.21 g/m*3 11 C 0 km/h
393 20-05-2011 06:30:03 11.2 C 9.33 g/m*3 11.2 C 0 km/h
394 20-05-2011 06:42:03 11.3 C 9.38 g/m*3 11.3 C 0 km/h
395 20-05-2011 06:54:02 11.2 C 9.33 g/m*3 11.2 C 0 km/h
396 20-05-2011 07:06:02 11.3 C 9.38 g/m*3 11.3 C 0 km/h
397 20-05-2011 07:18:01 11.3 C 9.38 g/m*3 11.3 C 0 km/h
398 20-05-2011 07:30:01 11.4 C 9.44 g/m*3 11.4 C 0 km/h
399 20-05-2011 07:42:02 11.5 C 9.5 g/m*3 11.5 C 0 km/h
400 20-05-2011 07:54:02 11.8 C 9.68 g/m*3 11.8 C 0 km/h
Sensor: Nr:Datum:Temp:Abs-Feuchte:Windchill:Wind:
Aussen-T/F 401 20-05-2011 08:06:02 11.8 C 9.68 g/m*3 11.8 C 0 km/h
402 20-05-2011 08:18:01 12.2 C 9.82 g/m*3 12.2 C 0 km/h
403 20-05-2011 08:30:01 12 C 9.7 g/m*3 12 C 0 km/h
404 20-05-2011 08:42:02 12.4 C 9.94 g/m*3 12.4 C 0 km/h
405 20-05-2011 08:54:02 12.8 C 10.19 g/m*3 12.8 C 0 km/h
406 20-05-2011 09:06:02 13 C 10.09 g/m*3 13 C 0 km/h
407 20-05-2011 09:18:02 13.1 C 10.04 g/m*3 13.1 C 0 km/h
408 20-05-2011 09:30:02 13.4 C 10.11 g/m*3 13.4 C 0 km/h
409 20-05-2011 09:42:02 14.4 C 10.51 g/m*3 14.4 C 0 km/h
410 20-05-2011 09:54:02 14.7 C 10.32 g/m*3 14.7 C 0 km/h
411 20-05-2011 10:06:02 14.8 C 9.88 g/m*3 14.8 C 0 km/h
412 20-05-2011 10:18:02 14.3 C 9.46 g/m*3 14.3 C 0 km/h
413 20-05-2011 10:30:02 14.7 C 9.95 g/m*3 14.7 C 0 km/h
414 20-05-2011 10:42:02 15 C 10.13 g/m*3 15 C 0 km/h
415 20-05-2011 10:54:02 15.4 C 10.38 g/m*3 15.4 C 0 km/h
416 20-05-2011 11:06:01 16.5 C 10.81 g/m*3 16.5 C 0 km/h
417 20-05-2011 11:18:01 16.9 C 11.08 g/m*3 16.9 C 0 km/h
418 20-05-2011 11:30:01 17.5 C 10.59 g/m*3 17.5 C 0 km/h
419 20-05-2011 11:42:02 18 C 10.44 g/m*3 18 C 0 km/h
420 20-05-2011 11:54:02 18.7 C 9.93 g/m*3 18.7 C 0 km/h
421 20-05-2011 12:06:01 19.4 C 9.84 g/m*3 19.4 C 0 km/h
422 20-05-2011 12:18:02 20 C 9.51 g/m*3 20 C 0 km/h
423 20-05-2011 12:30:02 20.4 C 9.55 g/m*3 20.4 C 0 km/h
424 20-05-2011 12:42:01 20.9 C 8.92 g/m*3 20.9 C 0 km/h
425 20-05-2011 12:54:02 21.6 C 8.91 g/m*3 21.6 C 0 km/h
Sensor: Nr:Datum:Temp:Abs-Feuchte:Windchill:Wind:
Aussen-T/F 426 20-05-2011 13:06:02 22 C 8.54 g/m*3 22 C 0 km/h
427 20-05-2011 13:18:02 22.5 C 8.39 g/m*3 22.5 C 0 km/h
428 20-05-2011 13:30:03 26.8 C 7.89 g/m*3 26.8 C 0 km/h
429 20-05-2011 13:42:02 27.9 C 7.3 g/m*3 27.9 C 0 km/h
430 20-05-2011 13:54:02 28.2 C 7.42 g/m*3 28.2 C 0 km/h
431 20-05-2011 14:06:02 29.1 C 6.93 g/m*3 29.1 C 0 km/h
432 20-05-2011 14:18:02 27.9 C 7.57 g/m*3 27.9 C 0 km/h
433 20-05-2011 14:30:02 26.8 C 7.89 g/m*3 26.8 C 0 km/h
434 20-05-2011 14:42:01 29.5 C 7.08 g/m*3 29.5 C 0 km/h
435 20-05-2011 14:54:02 28.3 C 7.19 g/m*3 28.3 C 0 km/h
436 20-05-2011 15:06:01 25.3 C 9.6 g/m*3 25.3 C 0 km/h
437 20-05-2011 15:18:01 26.7 C 8.35 g/m*3 26.7 C 0 km/h
438 20-05-2011 15:30:01 24.8 C 8.19 g/m*3 24.8 C 0 km/h
439 20-05-2011 15:42:01 20.7 C 7.74 g/m*3 20.7 C 0 km/h
440 20-05-2011 15:54:02 23.1 C 7.86 g/m*3 23.1 C 0 km/h
441 20-05-2011 16:06:02 26.6 C 7.3 g/m*3 26.6 C 0 km/h
442 20-05-2011 16:18:02 28.1 C 7.11 g/m*3 28.1 C 0 km/h
443 20-05-2011 16:30:02 26.4 C 7.22 g/m*3 26.4 C 0 km/h
444 20-05-2011 16:42:01 23.5 C 7.61 g/m*3 23.5 C 0 km/h
445 20-05-2011 16:54:02 21.7 C 8.01 g/m*3 21.7 C 0 km/h
446 20-05-2011 17:06:01 21.3 C 7.64 g/m*3 21.3 C 0 km/h
447 20-05-2011 17:18:01 22.1 C 7.81 g/m*3 22.1 C 0 km/h
448 20-05-2011 17:30:01 25.4 C 7.06 g/m*3 25.4 C 0 km/h
449 20-05-2011 17:42:01 27.5 C 7.41 g/m*3 27.5 C 0 km/h
450 20-05-2011 17:54:02 26.3 C 7.18 g/m*3 26.3 C 0 km/h
Sensor: Nr:Datum:Temp:Abs-Feuchte:Windchill:Wind:
Aussen-T/F 451 20-05-2011 18:06:01 25.3 C 7.26 g/m*3 25.3 C 0 km/h
452 20-05-2011 18:18:02 23.5 C 8.25 g/m*3 23.5 C 0 km/h
453 20-05-2011 18:30:02 22.9 C 8.58 g/m*3 22.9 C 0 km/h
454 20-05-2011 18:42:02 22 C 9.7 g/m*3 22 C 0 km/h
455 20-05-2011 18:54:02 21.2 C 8.52 g/m*3 21.2 C 0 km/h
456 20-05-2011 19:06:01 20.3 C 9.15 g/m*3 20.3 C 0 km/h
457 20-05-2011 19:18:01 19.3 C 10.12 g/m*3 19.3 C 0 km/h
458 20-05-2011 19:30:01 18.3 C 10.32 g/m*3 18.3 C 0 km/h
459 20-05-2011 19:42:06 17.3 C 10.46 g/m*3 17.3 C 0 km/h
460 20-05-2011 19:54:06 16.3 C 10.82 g/m*3 16.3 C 0 km/h
461 20-05-2011 20:06:06 15.9 C 11.24 g/m*3 15.9 C 0 km/h
462 20-05-2011 20:18:01 15.6 C 11.17 g/m*3 15.6 C 0 km/h
463 20-05-2011 20:30:01 15.4 C 11.17 g/m*3 15.4 C 0 km/h
464 20-05-2011 20:42:01 15 C 11.03 g/m*3 15 C 0 km/h
465 20-05-2011 20:54:03 14.9 C 11.09 g/m*3 14.9 C 0 km/h
466 20-05-2011 21:06:02 14.7 C 10.95 g/m*3 14.7 C 0 km/h
467 20-05-2011 21:18:02 14.6 C 11.01 g/m*3 14.6 C 0 km/h
468 20-05-2011 21:30:02 14.4 C 10.88 g/m*3 14.4 C 0 km/h
469 20-05-2011 21:42:02 14.4 C 10.88 g/m*3 14.4 C 0 km/h
470 20-05-2011 21:54:01 14.2 C 10.75 g/m*3 14.2 C 0 km/h
471 20-05-2011 22:06:02 14.2 C 10.75 g/m*3 14.2 C 0 km/h
472 20-05-2011 22:18:01 13.8 C 10.6 g/m*3 13.8 C 0 km/h
473 20-05-2011 22:30:01 13.9 C 10.67 g/m*3 13.9 C 0 km/h
474 20-05-2011 22:42:01 13.8 C 10.6 g/m*3 13.8 C 0 km/h
475 20-05-2011 22:55:02 14 C 10.74 g/m*3 14 C 0 km/h
Sensor: Nr:Datum:Temp:Abs-Feuchte:Windchill:Wind:
Aussen-T/F 476 20-05-2011 23:07:02 13.8 C 10.72 g/m*3 13.8 C 0 km/h
477 20-05-2011 23:19:02 13.8 C 10.72 g/m*3 13.8 C 0 km/h
478 20-05-2011 23:31:02 13.8 C 10.72 g/m*3 13.8 C 0 km/h
479 20-05-2011 23:43:02 13.5 C 10.53 g/m*3 13.5 C 0 km/h
480 20-05-2011 23:55:02 13.4 C 10.46 g/m*3 13.4 C 0 km/h
481 21-05-2011 00:07:02 13.5 C 10.53 g/m*3 13.5 C 0 km/h
482 21-05-2011 00:19:02 13.6 C 10.59 g/m*3 13.6 C 0 km/h
483 21-05-2011 00:31:03 13.6 C 10.71 g/m*3 13.6 C 0 km/h
484 21-05-2011 00:43:03 13.4 C 10.58 g/m*3 13.4 C 0 km/h
485 21-05-2011 00:55:03 13.4 C 10.46 g/m*3 13.4 C 0 km/h
486 21-05-2011 01:07:03 13.5 C 10.64 g/m*3 13.5 C 0 km/h
487 21-05-2011 01:19:03 13.4 C 10.58 g/m*3 13.4 C 0 km/h
488 21-05-2011 01:31:03 13.3 C 10.51 g/m*3 13.3 C 0 km/h
489 21-05-2011 01:43:03 13.1 C 10.38 g/m*3 13.1 C 0 km/h
490 21-05-2011 01:55:03 12.9 C 10.26 g/m*3 12.9 C 0 km/h
491 21-05-2011 02:07:03 12.9 C 10.26 g/m*3 12.9 C 0 km/h
492 21-05-2011 02:19:03 12.9 C 10.26 g/m*3 12.9 C 0 km/h
493 21-05-2011 02:31:03 12.5 C 10 g/m*3 12.5 C 0 km/h
494 21-05-2011 02:43:03 12.3 C 9.88 g/m*3 12.3 C 0 km/h
495 21-05-2011 02:55:03 12.2 C 9.82 g/m*3 12.2 C 0 km/h
496 21-05-2011 03:07:03 12.4 C 9.94 g/m*3 12.4 C 0 km/h
497 21-05-2011 03:19:03 11.7 C 9.52 g/m*3 11.7 C 0 km/h
498 21-05-2011 03:31:03 11.7 C 9.62 g/m*3 11.7 C 0 km/h
499 21-05-2011 03:43:03 11.6 C 9.46 g/m*3 11.6 C 0 km/h
500 21-05-2011 03:55:03 11.7 C 9.62 g/m*3 11.7 C 0 km/h
Sensor: Nr:Datum:Temp:Abs-Feuchte:Windchill:Wind:
Aussen-T/F 501 21-05-2011 04:07:03 11.7 C 9.62 g/m*3 11.7 C 0 km/h
502 21-05-2011 04:19:03 11.8 C 9.68 g/m*3 11.8 C 0 km/h
503 21-05-2011 04:31:04 11.6 C 9.56 g/m*3 11.6 C 0 km/h
504 21-05-2011 04:43:04 11.4 C 9.44 g/m*3 11.4 C 0 km/h
505 21-05-2011 04:55:04 11.5 C 9.5 g/m*3 11.5 C 0 km/h
506 21-05-2011 05:07:04 11.6 C 9.56 g/m*3 11.6 C 0 km/h
507 21-05-2011 05:19:04 11.5 C 9.5 g/m*3 11.5 C 0 km/h
508 21-05-2011 05:31:04 11.5 C 9.5 g/m*3 11.5 C 0 km/h
509 21-05-2011 05:43:04 11.3 C 9.38 g/m*3 11.3 C 0 km/h
510 21-05-2011 05:55:04 11.4 C 9.44 g/m*3 11.4 C 0 km/h
511 21-05-2011 06:07:04 11.3 C 9.38 g/m*3 11.3 C 0 km/h
512 21-05-2011 06:19:04 11.4 C 9.44 g/m*3 11.4 C 0 km/h
513 21-05-2011 06:31:04 11.7 C 9.62 g/m*3 11.7 C 0 km/h
514 21-05-2011 06:43:04 11.7 C 9.62 g/m*3 11.7 C 0 km/h
515 21-05-2011 06:55:04 11.9 C 9.74 g/m*3 11.9 C 0 km/h
516 21-05-2011 07:07:04 12 C 9.7 g/m*3 12 C 0 km/h
517 21-05-2011 07:19:04 12.1 C 9.76 g/m*3 12.1 C 0 km/h
518 21-05-2011 07:31:04 12.2 C 9.71 g/m*3 12.2 C 0 km/h
519 21-05-2011 07:43:04 12.8 C 10.08 g/m*3 12.8 C 0 km/h
520 21-05-2011 07:55:04 12.7 C 9.8 g/m*3 12.7 C 0 km/h
521 21-05-2011 08:07:04 12.5 C 9.13 g/m*3 12.5 C 0 km/h
522 21-05-2011 08:19:04 12.5 C 9.02 g/m*3 12.5 C 0 km/h
523 21-05-2011 08:31:05 12.8 C 8.96 g/m*3 12.8 C 0 km/h
524 21-05-2011 08:43:05 13.1 C 8.9 g/m*3 13.1 C 0 km/h
525 21-05-2011 08:55:05 13.7 C 9 g/m*3 13.7 C 0 km/h
Sensor: Nr:Datum:Temp:Abs-Feuchte:Windchill:Wind:
Aussen-T/F 526 21-05-2011 09:07:02 13.8 C 8.82 g/m*3 13.8 C 0 km/h
527 21-05-2011 09:19:03 14.1 C 8.86 g/m*3 14.1 C 0 km/h
528 21-05-2011 09:31:03 14.4 C 9.39 g/m*3 14.4 C 0 km/h
529 21-05-2011 09:43:03 14.6 C 9.39 g/m*3 14.6 C 0 km/h
530 21-05-2011 09:55:01 14.8 C 9.37 g/m*3 14.8 C 0 km/h
531 21-05-2011 10:07:02 15.3 C 8.75 g/m*3 15.3 C 0 km/h
532 21-05-2011 10:19:01 15.7 C 9.1 g/m*3 15.7 C 0 km/h
533 21-05-2011 10:31:01 16 C 8.04 g/m*3 16 C 0 km/h
534 21-05-2011 10:43:01 16.4 C 8.23 g/m*3 16.4 C 0 km/h
535 21-05-2011 10:55:01 17.2 C 8.05 g/m*3 17.2 C 0 km/h
536 21-05-2011 11:07:02 17.8 C 8.2 g/m*3 17.8 C 0 km/h
537 21-05-2011 11:19:02 17.5 C 8.05 g/m*3 17.5 C 0 km/h
538 21-05-2011 11:31:01 17.7 C 8.3 g/m*3 17.7 C 0 km/h
539 21-05-2011 11:43:01 18 C 8.6 g/m*3 18 C 0 km/h
540 21-05-2011 11:55:01 18.3 C 8.29 g/m*3 18.3 C 0 km/h
541 21-05-2011 12:07:01 18.5 C 8.54 g/m*3 18.5 C 0 km/h
542 21-05-2011 12:19:02 19 C 8.47 g/m*3 19 C 0 km/h
543 21-05-2011 12:31:01 19.4 C 8.68 g/m*3 19.4 C 0 km/h
544 21-05-2011 12:43:01 19.8 C 8.37 g/m*3 19.8 C 0 km/h
545 21-05-2011 12:55:03 20.6 C 8.77 g/m*3 20.6 C 0 km/h
546 21-05-2011 13:07:02 21.2 C 8.71 g/m*3 21.2 C 0 km/h
547 21-05-2011 13:19:02 21.9 C 8.68 g/m*3 21.9 C 0 km/h
548 21-05-2011 13:31:02 26.9 C 7.68 g/m*3 26.9 C 0 km/h
549 21-05-2011 13:43:02 27.2 C 8.07 g/m*3 27.2 C 0 km/h
550 21-05-2011 13:55:02 28.3 C 7.74 g/m*3 28.3 C 0 km/h
Sensor: Nr:Datum:Temp:Abs-Feuchte:Windchill:Wind:
Aussen-T/F 551 21-05-2011 14:07:02 29.8 C 7.5 g/m*3 29.8 C 0 km/h
552 21-05-2011 14:19:02 27.4 C 7.1 g/m*3 27.4 C 0 km/h
553 21-05-2011 14:31:02 29.1 C 6.93 g/m*3 29.1 C 0 km/h
554 21-05-2011 14:43:02 30.8 C 6.65 g/m*3 30.8 C 0 km/h
555 21-05-2011 14:55:02 30.3 C 6.78 g/m*3 30.3 C 0 km/h
556 21-05-2011 15:07:02 29.6 C 6.53 g/m*3 29.6 C 0 km/h
557 21-05-2011 15:19:02 30.9 C 6.37 g/m*3 30.9 C 0 km/h
558 21-05-2011 15:31:02 29.3 C 6.42 g/m*3 29.3 C 0 km/h
559 21-05-2011 15:43:02 29.5 C 6.49 g/m*3 29.5 C 0 km/h
560 21-05-2011 15:55:02 31.3 C 6.5 g/m*3 31.3 C 0 km/h
561 21-05-2011 16:07:02 30.2 C 6.74 g/m*3 30.2 C 0 km/h
562 21-05-2011 16:19:02 28.9 C 5.71 g/m*3 28.9 C 0 km/h
563 21-05-2011 16:31:01 30.3 C 6.16 g/m*3 30.3 C 0 km/h
564 21-05-2011 16:43:01 30.7 C 6.3 g/m*3 30.7 C 0 km/h
565 21-05-2011 16:55:02 30.4 C 6.2 g/m*3 30.4 C 0 km/h
566 21-05-2011 17:07:01 30.4 C 6.51 g/m*3 30.4 C 0 km/h
567 21-05-2011 17:19:02 31.7 C 6.64 g/m*3 31.7 C 0 km/h
568 21-05-2011 17:31:02 31.5 C 6.57 g/m*3 31.5 C 0 km/h
569 21-05-2011 17:43:02 31.7 C 6.64 g/m*3 31.7 C 0 km/h
570 21-05-2011 17:55:02 31.5 C 6.57 g/m*3 31.5 C 0 km/h
571 21-05-2011 18:07:02 30.8 C 6.33 g/m*3 30.8 C 0 km/h
572 21-05-2011 18:19:02 31.4 C 6.54 g/m*3 31.4 C 0 km/h
573 21-05-2011 18:31:02 30.4 C 6.2 g/m*3 30.4 C 0 km/h
574 21-05-2011 18:43:02 30.5 C 6.54 g/m*3 30.5 C 0 km/h
575 21-05-2011 18:55:01 30.4 C 6.51 g/m*3 30.4 C 0 km/h
Sensor: Nr:Datum:Temp:Abs-Feuchte:Windchill:Wind:
Aussen-T/F 576 21-05-2011 19:13:42 30.1 C 7.01 g/m*3 30.1 C 0 km/h
577 21-05-2011 19:18:42 29.2 C 7.55 g/m*3 29.2 C 0 km/h
578 21-05-2011 19:23:01 28.7 C 8.48 g/m*3 28.7 C 0 km/h
579 21-05-2011 19:28:01 28.3 C 8.57 g/m*3 28.3 C 0 km/h
580 21-05-2011 19:33:02 27 C 9.01 g/m*3 27 C 0 km/h
581 21-05-2011 19:38:02 26.2 C 9.11 g/m*3 26.2 C 0 km/h
582 21-05-2011 19:43:02 24.5 C 9.4 g/m*3 24.5 C 0 km/h
583 21-05-2011 19:48:02 23.4 C 9.67 g/m*3 23.4 C 0 km/h
584 21-05-2011 19:53:02 23.1 C 9.72 g/m*3 23.1 C 0 km/h
585 21-05-2011 19:58:02 22.6 C 9.64 g/m*3 22.6 C 0 km/h
586 21-05-2011 20:03:02 22 C 9.32 g/m*3 22 C 0 km/h
587 21-05-2011 20:08:02 21.7 C 9.54 g/m*3 21.7 C 0 km/h
588 21-05-2011 20:13:02 21.3 C 9.51 g/m*3 21.3 C 0 km/h
589 21-05-2011 20:18:02 21 C 9.53 g/m*3 21 C 0 km/h
590 21-05-2011 20:23:02 20.9 C 9.65 g/m*3 20.9 C 0 km/h
591 21-05-2011 20:28:02 20.6 C 9.49 g/m*3 20.6 C 0 km/h
592 21-05-2011 20:33:02 20.3 C 9.5 g/m*3 20.3 C 0 km/h
593 21-05-2011 20:38:02 20 C 9.33 g/m*3 20 C 0 km/h
594 21-05-2011 20:43:02 19.8 C 9.39 g/m*3 19.8 C 0 km/h
595 21-05-2011 20:47:02 19.5 C 9.23 g/m*3 19.5 C 0 km/h
596 21-05-2011 20:59:02 18.7 C 9.13 g/m*3 18.7 C 0 km/h
597 21-05-2011 21:11:01 18.3 C 9.22 g/m*3 18.3 C 0 km/h
598 21-05-2011 21:23:01 18 C 9.06 g/m*3 18 C 0 km/h
599 21-05-2011 21:35:02 17.7 C 9.35 g/m*3 17.7 C 0 km/h
600 21-05-2011 21:47:02 17.2 C 9.37 g/m*3 17.2 C 0 km/h
Sensor: Nr:Datum:Temp:Abs-Feuchte:Windchill:Wind:
Aussen-T/F 601 21-05-2011 21:59:02 16.6 C 9.61 g/m*3 16.6 C 0 km/h
602 21-05-2011 22:11:01 16.1 C 9.46 g/m*3 16.1 C 0 km/h
603 21-05-2011 22:23:02 15.7 C 9.23 g/m*3 15.7 C 0 km/h
604 21-05-2011 22:36:02 15.3 C 9.14 g/m*3 15.3 C 0 km/h
605 21-05-2011 22:48:02 15 C 9.23 g/m*3 15 C 0 km/h
606 21-05-2011 23:00:02 15.1 C 9.42 g/m*3 15.1 C 0 km/h
607 21-05-2011 23:12:02 14.9 C 9.56 g/m*3 14.9 C 0 km/h
608 21-05-2011 23:24:02 14.8 C 9.63 g/m*3 14.8 C 0 km/h
609 21-05-2011 23:36:02 14.6 C 9.64 g/m*3 14.6 C 0 km/h
610 21-05-2011 23:48:02 14.2 C 9.28 g/m*3 14.2 C 0 km/h
611 22-05-2011 00:00:02 13.8 C 9.17 g/m*3 13.8 C 0 km/h
612 22-05-2011 00:12:02 13.7 C 9 g/m*3 13.7 C 0 km/h
613 22-05-2011 00:24:03 13.4 C 8.83 g/m*3 13.4 C 0 km/h
614 22-05-2011 00:36:03 12.9 C 8.68 g/m*3 12.9 C 0 km/h
615 22-05-2011 00:48:03 12.8 C 8.62 g/m*3 12.8 C 0 km/h
616 22-05-2011 01:00:03 12.5 C 8.58 g/m*3 12.5 C 0 km/h
617 22-05-2011 01:12:03 12.4 C 8.52 g/m*3 12.4 C 0 km/h
618 22-05-2011 01:24:03 12.2 C 8.63 g/m*3 12.2 C 0 km/h
619 22-05-2011 01:36:03 12 C 8.53 g/m*3 12 C 0 km/h
620 22-05-2011 01:48:03 11.9 C 8.58 g/m*3 11.9 C 0 km/h
621 22-05-2011 02:00:03 11.6 C 8.52 g/m*3 11.6 C 0 km/h
622 22-05-2011 02:12:03 11.4 C 8.42 g/m*3 11.4 C 0 km/h
623 22-05-2011 02:24:03 11.4 C 8.52 g/m*3 11.4 C 0 km/h
624 22-05-2011 02:36:03 11 C 8.31 g/m*3 11 C 0 km/h
625 22-05-2011 02:48:03 10.8 C 8.3 g/m*3 10.8 C 0 km/h
Sensor: Nr:Datum:Temp:Abs-Feuchte:Windchill:Wind:
Aussen-T/F 626 22-05-2011 03:00:03 10.7 C 8.35 g/m*3 10.7 C 0 km/h
627 22-05-2011 03:12:03 10.5 C 8.24 g/m*3 10.5 C 0 km/h
628 22-05-2011 03:24:03 10.3 C 8.14 g/m*3 10.3 C 0 km/h
629 22-05-2011 03:36:03 10.4 C 8.19 g/m*3 10.4 C 0 km/h
630 22-05-2011 03:48:03 10.2 C 8.09 g/m*3 10.2 C 0 km/h
631 22-05-2011 04:00:03 10.2 C 8.09 g/m*3 10.2 C 0 km/h
632 22-05-2011 04:12:03 10 C 8.08 g/m*3 10 C 0 km/h
633 22-05-2011 04:24:03 9.7 C 8.02 g/m*3 9.7 C 0 km/h
634 22-05-2011 04:36:04 9.6 C 8.06 g/m*3 9.6 C 0 km/h
635 22-05-2011 04:48:04 9.5 C 8.01 g/m*3 9.5 C 0 km/h
636 22-05-2011 05:00:04 9.3 C 7.91 g/m*3 9.3 C 0 km/h
637 22-05-2011 05:12:04 9.4 C 7.96 g/m*3 9.4 C 0 km/h
638 22-05-2011 05:24:04 9.5 C 8.01 g/m*3 9.5 C 0 km/h
639 22-05-2011 05:36:04 9.2 C 7.86 g/m*3 9.2 C 0 km/h
640 22-05-2011 05:48:04 9.2 C 7.86 g/m*3 9.2 C 0 km/h
641 22-05-2011 06:00:04 9.2 C 7.95 g/m*3 9.2 C 0 km/h
642 22-05-2011 06:12:04 9.5 C 8.1 g/m*3 9.5 C 0 km/h
643 22-05-2011 06:24:04 9.4 C 8.05 g/m*3 9.4 C 0 km/h
644 22-05-2011 06:36:04 9.4 C 8.05 g/m*3 9.4 C 0 km/h
645 22-05-2011 06:48:04 9.6 C 8.15 g/m*3 9.6 C 0 km/h
646 22-05-2011 07:00:04 9.5 C 8.1 g/m*3 9.5 C 0 km/h
647 22-05-2011 07:12:04 9.7 C 8.2 g/m*3 9.7 C 0 km/h
648 22-05-2011 07:24:04 9.9 C 8.31 g/m*3 9.9 C 0 km/h
649 22-05-2011 07:36:04 10.2 C 8.37 g/m*3 10.2 C 0 km/h
650 22-05-2011 07:48:04 10.7 C 8.74 g/m*3 10.7 C 0 km/h
Sensor: Nr:Datum:Temp:Abs-Feuchte:Windchill:Wind:
Aussen-T/F 651 22-05-2011 08:00:04 11.1 C 8.86 g/m*3 11.1 C 0 km/h
652 22-05-2011 08:12:04 12.3 C 9.34 g/m*3 12.3 C 0 km/h
653 22-05-2011 08:24:04 12.7 C 9.02 g/m*3 12.7 C 0 km/h
654 22-05-2011 08:36:02 13.5 C 8.89 g/m*3 13.5 C 0 km/h
655 22-05-2011 08:48:02 14.4 C 8.78 g/m*3 14.4 C 0 km/h
656 22-05-2011 09:00:02 14.5 C 8.71 g/m*3 14.5 C 0 km/h
657 22-05-2011 09:12:02 14.5 C 8.83 g/m*3 14.5 C 0 km/h
658 22-05-2011 09:24:02 14.7 C 9.07 g/m*3 14.7 C 0 km/h
659 22-05-2011 09:36:02 15.2 C 9.22 g/m*3 15.2 C 0 km/h
660 22-05-2011 09:48:02 16.1 C 9.32 g/m*3 16.1 C 0 km/h
661 22-05-2011 10:00:02 17 C 9.12 g/m*3 17 C 0 km/h
662 22-05-2011 10:12:03 18.9 C 9.07 g/m*3 18.9 C 0 km/h
663 22-05-2011 10:24:02 20.5 C 9.61 g/m*3 20.5 C 0 km/h
664 22-05-2011 10:36:02 22.2 C 7.46 g/m*3 22.2 C 0 km/h
665 22-05-2011 10:48:02 22.4 C 7.75 g/m*3 22.4 C 0 km/h
666 22-05-2011 11:00:02 21.6 C 7.59 g/m*3 21.6 C 0 km/h
667 22-05-2011 11:12:02 20.9 C 7.65 g/m*3 20.9 C 0 km/h
668 22-05-2011 11:24:01 19.8 C 8.2 g/m*3 19.8 C 0 km/h
669 22-05-2011 11:36:02 19.7 C 8.49 g/m*3 19.7 C 0 km/h
670 22-05-2011 11:48:02 20.1 C 8.34 g/m*3 20.1 C 0 km/h
671 22-05-2011 12:00:03 21.6 C 8.16 g/m*3 21.6 C 0 km/h
672 22-05-2011 12:12:01 22.1 C 8 g/m*3 22.1 C 0 km/h
673 22-05-2011 12:24:02 22 C 7.76 g/m*3 22 C 0 km/h
674 22-05-2011 12:36:02 23.3 C 8.36 g/m*3 23.3 C 0 km/h
675 22-05-2011 12:48:02 23.7 C 7.91 g/m*3 23.7 C 0 km/h
Sensor: Nr:Datum:Temp:Abs-Feuchte:Windchill:Wind:
Aussen-T/F 676 22-05-2011 13:00:02 23.8 C 7.96 g/m*3 23.8 C 0 km/h
677 22-05-2011 13:12:01 23.1 C 7.86 g/m*3 23.1 C 0 km/h
678 22-05-2011 13:24:02 24.5 C 7.61 g/m*3 24.5 C 0 km/h
679 22-05-2011 13:43:01 25.8 C 7.22 g/m*3 25.8 C 0 km/h
680 22-05-2011 13:48:03 25.8 C 7.22 g/m*3 25.8 C 0 km/h
681 22-05-2011 13:53:03 25.8 C 7.22 g/m*3 25.8 C 0 km/h
682 22-05-2011 13:58:03 25.8 C 7.22 g/m*3 25.8 C 0 km/h
683 22-05-2011 14:03:02 25.8 C 7.22 g/m*3 25.8 C 0 km/h
684 22-05-2011 14:08:02 25.8 C 7.22 g/m*3 25.8 C 0 km/h
685 22-05-2011 14:13:02 25.8 C 7.22 g/m*3 25.8 C 0 km/h
686 22-05-2011 14:28:03 28 C 6.8 g/m*3 28 C 0 km/h
687 22-05-2011 14:40:02 28.9 C 7.14 g/m*3 28.9 C 0 km/h
688 22-05-2011 14:52:02 29.3 C 7.3 g/m*3 29.3 C 0 km/h
689 22-05-2011 15:04:02 28.2 C 6.87 g/m*3 28.2 C 0 km/h
690 22-05-2011 15:16:02 27.6 C 6.92 g/m*3 27.6 C 0 km/h
691 22-05-2011 15:28:02 28.5 C 6.99 g/m*3 28.5 C 0 km/h
692 22-05-2011 15:40:02 25.3 C 7.26 g/m*3 25.3 C 0 km/h
693 22-05-2011 15:52:02 26.6 C 7.3 g/m*3 26.6 C 0 km/h
694 22-05-2011 16:04:02 26.2 C 7.14 g/m*3 26.2 C 0 km/h
695 22-05-2011 16:16:55 23.6 C 7.44 g/m*3 23.6 C 0 km/h
696 22-05-2011 16:28:02 17.3 C 10.16 g/m*3 17.3 C 0 km/h
697 22-05-2011 16:40:02 17.3 C 11.79 g/m*3 17.3 C 0 km/h
698 22-05-2011 16:52:02 21.3 C 11.93 g/m*3 21.3 C 0 km/h
699 22-05-2011 17:04:02 20.1 C 11.65 g/m*3 20.1 C 0 km/h
700 22-05-2011 17:16:02 19.7 C 11.72 g/m*3 19.7 C 0 km/h
Sensor: Nr:Datum:Temp:Abs-Feuchte:Windchill:Wind:
Aussen-T/F 701 22-05-2011 17:28:02 19.4 C 12.18 g/m*3 19.4 C 0 km/h
702 22-05-2011 17:40:02 18.7 C 12.17 g/m*3 18.7 C 0 km/h
703 22-05-2011 17:52:01 20.3 C 13.01 g/m*3 20.3 C 0 km/h
704 22-05-2011 18:04:02 22.2 C 12.17 g/m*3 22.2 C 0 km/h
705 22-05-2011 18:16:02 19.5 C 11.92 g/m*3 19.5 C 0 km/h
706 22-05-2011 18:28:02 19 C 12.22 g/m*3 19 C 0 km/h
707 22-05-2011 18:40:02 18.8 C 11.6 g/m*3 18.8 C 0 km/h
708 22-05-2011 18:52:02 22.6 C 12.86 g/m*3 22.6 C 0 km/h
709 22-05-2011 19:04:01 24.5 C 9.18 g/m*3 24.5 C 0 km/h
710 22-05-2011 19:16:02 25.2 C 9.54 g/m*3 25.2 C 0 km/h
711 22-05-2011 19:28:03 23.3 C 10.66 g/m*3 23.3 C 0 km/h
712 22-05-2011 19:40:01 19.8 C 11.27 g/m*3 19.8 C 0 km/h
713 22-05-2011 19:52:02 19.6 C 8.95 g/m*3 19.6 C 0 km/h
714 22-05-2011 20:04:01 18.7 C 9.77 g/m*3 18.7 C 0 km/h
715 22-05-2011 20:16:01 18.3 C 8.76 g/m*3 18.3 C 0 km/h
716 22-05-2011 20:28:01 18.4 C 8.34 g/m*3 18.4 C 0 km/h
717 22-05-2011 20:40:02 17.7 C 9.51 g/m*3 17.7 C 0 km/h
718 22-05-2011 20:52:02 18.3 C 7.35 g/m*3 18.3 C 0 km/h
719 22-05-2011 21:04:01 17.2 C 7.03 g/m*3 17.2 C 0 km/h
720 22-05-2011 21:16:02 16.6 C 6.92 g/m*3 16.6 C 0 km/h
721 22-05-2011 21:28:02 14.9 C 7.77 g/m*3 14.9 C 0 km/h
722 22-05-2011 21:40:02 14.4 C 8.03 g/m*3 14.4 C 0 km/h
723 22-05-2011 21:52:01 13.5 C 7.25 g/m*3 13.5 C 0 km/h
724 22-05-2011 22:04:02 12.8 C 7.62 g/m*3 12.8 C 0 km/h
725 22-05-2011 22:17:03 13.9 C 5.87 g/m*3 13.9 C 0 km/h
Sensor: Nr:Datum:Temp:Abs-Feuchte:Windchill:Wind:
Aussen-T/F 726 22-05-2011 22:29:03 13 C 6.01 g/m*3 13 C 0 km/h
727 22-05-2011 22:41:03 12.7 C 5.01 g/m*3 12.7 C 0 km/h
728 22-05-2011 22:53:03 12.3 C 6.08 g/m*3 12.3 C 0 km/h
729 22-05-2011 23:05:03 11.7 C 6.07 g/m*3 11.7 C 0 km/h
730 22-05-2011 23:17:03 11.2 C 6.28 g/m*3 11.2 C 0 km/h
731 22-05-2011 23:29:03 11.9 C 6.04 g/m*3 11.9 C 0 km/h
732 22-05-2011 23:41:03 11.3 C 5.61 g/m*3 11.3 C 0 km/h
733 22-05-2011 23:53:03 10.9 C 6.27 g/m*3 10.9 C 0 km/h
734 23-05-2011 00:05:03 10.7 C 6.09 g/m*3 10.7 C 0 km/h
735 23-05-2011 00:17:03 10.9 C 5.87 g/m*3 10.9 C 0 km/h
736 23-05-2011 00:29:03 11.1 C 5.84 g/m*3 11.1 C 0 km/h
737 23-05-2011 00:41:03 11.2 C 5.78 g/m*3 11.2 C 0 km/h
738 23-05-2011 00:53:03 11.2 C 5.57 g/m*3 11.2 C 0 km/h
739 23-05-2011 01:05:03 11.1 C 5.74 g/m*3 11.1 C 0 km/h
740 23-05-2011 01:17:03 10.2 C 6.09 g/m*3 10.2 C 0 km/h
741 23-05-2011 01:29:03 9.8 C 6.22 g/m*3 9.8 C 0 km/h
742 23-05-2011 01:41:03 9.4 C 6.24 g/m*3 9.4 C 0 km/h
743 23-05-2011 01:53:03 9.3 C 6.38 g/m*3 9.3 C 0 km/h
744 23-05-2011 02:05:03 9.4 C 6.15 g/m*3 9.4 C 0 km/h
745 23-05-2011 02:17:04 9.3 C 6.02 g/m*3 9.3 C 0 km/h
746 23-05-2011 02:29:04 9.1 C 6.03 g/m*3 9.1 C 0 km/h
747 23-05-2011 02:41:04 8.8 C 6.27 g/m*3 8.8 C 0 km/h
748 23-05-2011 02:53:04 7.9 C 6.16 g/m*3 7.9 C 0 km/h
749 23-05-2011 03:05:04 7.4 C 6.04 g/m*3 7.4 C 0 km/h
750 23-05-2011 03:17:04 6.9 C 6 g/m*3 6.9 C 0 km/h
Sensor: Nr:Datum:Temp:Abs-Feuchte:Windchill:Wind:
Aussen-T/F 751 23-05-2011 03:29:04 6.7 C 6 g/m*3 6.7 C 0 km/h
752 23-05-2011 03:41:04 6.9 C 6.24 g/m*3 6.9 C 0 km/h
753 23-05-2011 03:53:04 6.8 C 6.19 g/m*3 6.8 C 0 km/h
754 23-05-2011 04:05:04 7.4 C 6.2 g/m*3 7.4 C 0 km/h
755 23-05-2011 04:17:04 7 C 6.04 g/m*3 7 C 0 km/h
756 23-05-2011 04:29:04 7.2 C 6.2 g/m*3 7.2 C 0 km/h
757 23-05-2011 04:41:04 7.1 C 6.16 g/m*3 7.1 C 0 km/h
758 23-05-2011 04:53:04 6.8 C 6.12 g/m*3 6.8 C 0 km/h
759 23-05-2011 05:05:04 6.3 C 6 g/m*3 6.3 C 0 km/h
760 23-05-2011 05:17:04 6.2 C 6.03 g/m*3 6.2 C 0 km/h
761 23-05-2011 05:29:04 5.9 C 6.06 g/m*3 5.9 C 0 km/h
762 23-05-2011 05:41:04 5.8 C 6.02 g/m*3 5.8 C 0 km/h
763 23-05-2011 05:53:04 5.9 C 6.13 g/m*3 5.9 C 0 km/h
764 23-05-2011 06:05:04 6 C 6.17 g/m*3 6 C 0 km/h
765 23-05-2011 06:17:04 6.3 C 6.29 g/m*3 6.3 C 0 km/h
766 23-05-2011 06:29:05 6.3 C 6.29 g/m*3 6.3 C 0 km/h
767 23-05-2011 06:41:05 6.7 C 6.46 g/m*3 6.7 C 0 km/h
768 23-05-2011 06:53:05 6.9 C 6.54 g/m*3 6.9 C 0 km/h
769 23-05-2011 07:05:05 7.3 C 6.56 g/m*3 7.3 C 0 km/h
770 23-05-2011 07:17:05 7.3 C 6.48 g/m*3 7.3 C 0 km/h
771 23-05-2011 07:29:05 7.5 C 6.56 g/m*3 7.5 C 0 km/h
772 23-05-2011 07:41:02 7.6 C 6.61 g/m*3 7.6 C 0 km/h
773 23-05-2011 07:53:01 7.9 C 6.74 g/m*3 7.9 C 0 km/h
774 23-05-2011 08:05:02 7.9 C 6.74 g/m*3 7.9 C 0 km/h
775 23-05-2011 08:17:02 8.3 C 6.91 g/m*3 8.3 C 0 km/h
Sensor: Nr:Datum:Temp:Abs-Feuchte:Windchill:Wind:
Aussen-T/F 776 23-05-2011 08:29:02 9.2 C 7.14 g/m*3 9.2 C 0 km/h
777 23-05-2011 08:41:01 10.1 C 7 g/m*3 10.1 C 0 km/h
778 23-05-2011 08:53:01 11.3 C 6.83 g/m*3 11.3 C 0 km/h
779 23-05-2011 09:05:02 12.2 C 6.26 g/m*3 12.2 C 0 km/h
780 23-05-2011 09:17:02 12.7 C 6.01 g/m*3 12.7 C 0 km/h
781 23-05-2011 09:29:02 13.2 C 5.51 g/m*3 13.2 C 0 km/h
782 23-05-2011 09:41:01 13.7 C 5.57 g/m*3 13.7 C 0 km/h
783 23-05-2011 09:53:01 14.1 C 5.58 g/m*3 14.1 C 0 km/h
784 23-05-2011 10:05:01 14.4 C 5.44 g/m*3 14.4 C 0 km/h
785 23-05-2011 10:17:02 14.8 C 5.45 g/m*3 14.8 C 0 km/h
786 23-05-2011 10:29:02 15.1 C 5.16 g/m*3 15.1 C 0 km/h
787 23-05-2011 10:41:01 15.4 C 5.26 g/m*3 15.4 C 0 km/h
788 23-05-2011 10:53:01 16 C 5.04 g/m*3 16 C 0 km/h
789 23-05-2011 11:05:01 16.5 C 4.91 g/m*3 16.5 C 0 km/h
790 23-05-2011 11:17:01 16.6 C 4.8 g/m*3 16.6 C 0 km/h
791 23-05-2011 11:29:01 17 C 4.49 g/m*3 17 C 0 km/h
792 23-05-2011 11:41:01 17.2 C 4.1 g/m*3 17.2 C 0 km/h
793 23-05-2011 11:53:01 17.5 C 3.88 g/m*3 17.5 C 0 km/h
794 23-05-2011 12:05:02 17.8 C 4.1 g/m*3 17.8 C 0 km/h
795 23-05-2011 12:17:01 17.9 C 3.82 g/m*3 17.9 C 0 km/h
796 23-05-2011 12:29:01 18.3 C 3.13 g/m*3 18.3 C 0 km/h
797 23-05-2011 12:41:01 18.7 C 3.2 g/m*3 18.7 C 0 km/h
798 23-05-2011 12:53:01 19 C 3.26 g/m*3 19 C 0 km/h
799 23-05-2011 13:05:02 19.5 C 3.36 g/m*3 19.5 C 0 km/h
800 23-05-2011 13:17:01 20.1 C 3.48 g/m*3 20.1 C 0 km/h
Sensor: Nr:Datum:Temp:Abs-Feuchte:Windchill:Wind:
Aussen-T/F 801 23-05-2011 13:29:01 23.1 C 4.13 g/m*3 23.1 C 0 km/h
802 23-05-2011 13:41:02 23.3 C 4.18 g/m*3 23.3 C 0 km/h
803 23-05-2011 13:53:02 24.4 C 4.45 g/m*3 24.4 C 0 km/h
804 23-05-2011 14:05:02 25.1 C 4.63 g/m*3 25.1 C 0 km/h
805 23-05-2011 14:17:02 27.3 C 5.23 g/m*3 27.3 C 0 km/h
806 23-05-2011 14:29:02 24.8 C 4.55 g/m*3 24.8 C 0 km/h
807 23-05-2011 14:41:02 27.2 C 5.2 g/m*3 27.2 C 0 km/h
808 23-05-2011 14:53:02 26.6 C 5.03 g/m*3 26.6 C 0 km/h
809 23-05-2011 15:05:02 26 C 4.87 g/m*3 26 C 0 km/h
810 23-05-2011 15:17:02 27.5 C 5.29 g/m*3 27.5 C 0 km/h
811 23-05-2011 15:29:02 26.3 C 4.95 g/m*3 26.3 C 0 km/h
812 23-05-2011 15:41:02 26.1 C 4.9 g/m*3 26.1 C 0 km/h
813 23-05-2011 15:53:02 28.3 C 5.53 g/m*3 28.3 C 0 km/h
814 23-05-2011 16:05:02 27.5 C 5.29 g/m*3 27.5 C 0 km/h
815 23-05-2011 16:17:01 26.8 C 5.09 g/m*3 26.8 C 0 km/h
816 23-05-2011 16:29:01 26.7 C 5.06 g/m*3 26.7 C 0 km/h
817 23-05-2011 16:41:02 29.3 C 5.84 g/m*3 29.3 C 0 km/h
818 23-05-2011 16:53:02 28.7 C 5.65 g/m*3 28.7 C 0 km/h
819 23-05-2011 17:05:02 29.8 C 6 g/m*3 29.8 C 0 km/h
820 23-05-2011 17:17:02 27.8 C 5.38 g/m*3 27.8 C 0 km/h
821 23-05-2011 17:29:02 28.1 C 5.47 g/m*3 28.1 C 0 km/h
822 23-05-2011 17:41:02 30 C 6.06 g/m*3 30 C 0 km/h
823 23-05-2011 17:53:01 30.1 C 6.1 g/m*3 30.1 C 0 km/h
824 23-05-2011 18:05:02 29 C 5.74 g/m*3 29 C 0 km/h
825 23-05-2011 18:17:01 28.9 C 5.71 g/m*3 28.9 C 0 km/h
Sensor: Nr:Datum:Temp:Abs-Feuchte:Windchill:Wind:
Aussen-T/F 826 23-05-2011 18:29:01 27.5 C 5.29 g/m*3 27.5 C 0 km/h
827 23-05-2011 18:41:01 27.2 C 5.2 g/m*3 27.2 C 0 km/h
828 23-05-2011 18:53:01 28.5 C 5.59 g/m*3 28.5 C 0 km/h
829 23-05-2011 19:05:02 28.9 C 5.71 g/m*3 28.9 C 0 km/h
830 23-05-2011 19:17:02 27.8 C 5.38 g/m*3 27.8 C 0 km/h
831 23-05-2011 19:29:02 27.1 C 5.18 g/m*3 27.1 C 0 km/h
832 23-05-2011 19:41:01 23.5 C 5.71 g/m*3 23.5 C 0 km/h
833 23-05-2011 19:53:01 22 C 6.4 g/m*3 22 C 0 km/h
834 23-05-2011 20:05:01 20.8 C 7.42 g/m*3 20.8 C 0 km/h
835 23-05-2011 20:17:02 19.8 C 7.69 g/m*3 19.8 C 0 km/h
836 23-05-2011 20:29:02 19.2 C 7.42 g/m*3 19.2 C 0 km/h
837 23-05-2011 20:41:01 18.2 C 7.62 g/m*3 18.2 C 0 km/h
838 23-05-2011 20:53:02 17.5 C 7.45 g/m*3 17.5 C 0 km/h
839 23-05-2011 21:05:01 16.9 C 7.34 g/m*3 16.9 C 0 km/h
840 23-05-2011 21:17:02 16.7 C 7.39 g/m*3 16.7 C 0 km/h
841 23-05-2011 21:29:02 16.3 C 7.08 g/m*3 16.3 C 0 km/h
842 23-05-2011 21:41:01 16 C 6.95 g/m*3 16 C 0 km/h
843 23-05-2011 21:53:02 15.5 C 7.01 g/m*3 15.5 C 0 km/h
844 23-05-2011 22:05:02 14.9 C 7.26 g/m*3 14.9 C 0 km/h
845 23-05-2011 22:18:04 14.3 C 7.13 g/m*3 14.3 C 0 km/h
846 23-05-2011 22:30:05 13.8 C 7.15 g/m*3 13.8 C 0 km/h
847 23-05-2011 22:42:05 13.2 C 6.89 g/m*3 13.2 C 0 km/h
848 23-05-2011 22:54:05 12.7 C 7.01 g/m*3 12.7 C 0 km/h
849 23-05-2011 23:06:05 12.4 C 7.1 g/m*3 12.4 C 0 km/h
850 23-05-2011 23:18:05 12 C 7.03 g/m*3 12 C 0 km/h
Sensor: Nr:Datum:Temp:Abs-Feuchte:Windchill:Wind:
Aussen-T/F 851 23-05-2011 23:30:05 11.8 C 7.16 g/m*3 11.8 C 0 km/h
852 23-05-2011 23:42:05 11.6 C 7.17 g/m*3 11.6 C 0 km/h
853 23-05-2011 23:54:05 11.4 C 7.19 g/m*3 11.4 C 0 km/h
854 24-05-2011 00:06:05 11.2 C 7.2 g/m*3 11.2 C 0 km/h
855 24-05-2011 00:18:05 10.8 C 7.12 g/m*3 10.8 C 0 km/h
856 24-05-2011 00:30:05 10.9 C 7.46 g/m*3 10.9 C 0 km/h
857 24-05-2011 00:42:05 10.7 C 7.37 g/m*3 10.7 C 0 km/h
858 24-05-2011 00:54:05 10.6 C 7.22 g/m*3 10.6 C 0 km/h
859 24-05-2011 01:06:05 10.6 C 7.22 g/m*3 10.6 C 0 km/h
860 24-05-2011 01:18:05 10.4 C 7.23 g/m*3 10.4 C 0 km/h
861 24-05-2011 01:30:05 10.2 C 7.14 g/m*3 10.2 C 0 km/h
862 24-05-2011 01:42:05 10 C 7.05 g/m*3 10 C 0 km/h
863 24-05-2011 01:54:05 10 C 7.14 g/m*3 10 C 0 km/h
864 24-05-2011 02:06:05 9.8 C 7.24 g/m*3 9.8 C 0 km/h
865 24-05-2011 02:18:05 9.8 C 7.24 g/m*3 9.8 C 0 km/h
866 24-05-2011 02:30:06 9.6 C 7.24 g/m*3 9.6 C 0 km/h
867 24-05-2011 02:42:06 9.2 C 7.05 g/m*3 9.2 C 0 km/h
868 24-05-2011 02:54:06 9.2 C 7.14 g/m*3 9.2 C 0 km/h
869 24-05-2011 03:06:06 9.1 C 7.1 g/m*3 9.1 C 0 km/h
870 24-05-2011 03:18:06 8.9 C 7.27 g/m*3 8.9 C 0 km/h
871 24-05-2011 03:30:06 9 C 7.23 g/m*3 9 C 0 km/h
872 24-05-2011 03:42:06 9.3 C 7.46 g/m*3 9.3 C 0 km/h
873 24-05-2011 03:54:06 9.2 C 7.41 g/m*3 9.2 C 0 km/h
874 24-05-2011 04:06:06 8.9 C 7.27 g/m*3 8.9 C 0 km/h
875 24-05-2011 04:18:06 8.8 C 7.22 g/m*3 8.8 C 0 km/h
Sensor: Nr:Datum:Temp:Abs-Feuchte:Windchill:Wind:
Aussen-T/F 876 24-05-2011 04:30:06 8.6 C 7.13 g/m*3 8.6 C 0 km/h
877 24-05-2011 04:42:06 8.5 C 7.17 g/m*3 8.5 C 0 km/h
878 24-05-2011 04:54:06 8.4 C 7.21 g/m*3 8.4 C 0 km/h
879 24-05-2011 05:06:06 9.2 C 7.59 g/m*3 9.2 C 0 km/h
880 24-05-2011 05:18:06 9.7 C 7.84 g/m*3 9.7 C 0 km/h
881 24-05-2011 05:30:06 10.3 C 7.85 g/m*3 10.3 C 0 km/h
882 24-05-2011 05:42:06 9.7 C 7.47 g/m*3 9.7 C 0 km/h
883 24-05-2011 05:54:06 9.2 C 7.23 g/m*3 9.2 C 0 km/h
884 24-05-2011 06:06:06 9.2 C 7.32 g/m*3 9.2 C 0 km/h
885 24-05-2011 06:18:06 9.8 C 7.79 g/m*3 9.8 C 0 km/h
886 24-05-2011 06:30:07 11 C 8.21 g/m*3 11 C 0 km/h
887 24-05-2011 06:42:07 11.6 C 7.9 g/m*3 11.6 C 0 km/h
888 24-05-2011 06:54:07 12.1 C 7.4 g/m*3 12.1 C 0 km/h
889 24-05-2011 07:06:07 12.2 C 7.23 g/m*3 12.2 C 0 km/h
890 24-05-2011 07:18:04 12.4 C 7.32 g/m*3 12.4 C 0 km/h
891 24-05-2011 07:30:04 12.9 C 7.44 g/m*3 12.9 C 0 km/h
892 24-05-2011 07:42:04 13.6 C 7.53 g/m*3 13.6 C 0 km/h
893 24-05-2011 07:54:02 14.1 C 7.16 g/m*3 14.1 C 0 km/h
894 24-05-2011 08:06:01 14.2 C 7.2 g/m*3 14.2 C 0 km/h
895 24-05-2011 08:18:02 14.3 C 7.62 g/m*3 14.3 C 0 km/h
896 24-05-2011 08:30:02 13.9 C 7.91 g/m*3 13.9 C 0 km/h
897 24-05-2011 08:42:01 13.3 C 7.97 g/m*3 13.3 C 0 km/h
898 24-05-2011 08:54:02 13.5 C 8.07 g/m*3 13.5 C 0 km/h
899 24-05-2011 09:06:01 14.2 C 7.69 g/m*3 14.2 C 0 km/h
900 24-05-2011 09:18:01 15.2 C 7.66 g/m*3 15.2 C 0 km/h
Sensor: Nr:Datum:Temp:Abs-Feuchte:Windchill:Wind:
Aussen-T/F 901 24-05-2011 09:30:01 16.3 C 7.21 g/m*3 16.3 C 0 km/h
902 24-05-2011 09:42:02 17 C 6.95 g/m*3 17 C 0 km/h
903 24-05-2011 09:54:02 17.4 C 6.82 g/m*3 17.4 C 0 km/h
904 24-05-2011 10:06:02 18.2 C 6.99 g/m*3 18.2 C 0 km/h
905 24-05-2011 10:18:02 18.6 C 7 g/m*3 18.6 C 0 km/h
906 24-05-2011 10:30:02 18.3 C 6.88 g/m*3 18.3 C 0 km/h
907 24-05-2011 10:42:02 17.6 C 7.05 g/m*3 17.6 C 0 km/h
908 24-05-2011 10:54:02 17.9 C 7.02 g/m*3 17.9 C 0 km/h
909 24-05-2011 11:06:01 18 C 6.91 g/m*3 18 C 0 km/h
910 24-05-2011 11:18:02 18.3 C 7.19 g/m*3 18.3 C 0 km/h
911 24-05-2011 11:30:03 19.1 C 6.88 g/m*3 19.1 C 0 km/h
912 24-05-2011 11:42:01 19.8 C 7 g/m*3 19.8 C 0 km/h
913 24-05-2011 11:54:02 19.1 C 6.56 g/m*3 19.1 C 0 km/h
914 24-05-2011 12:06:01 18.5 C 6.33 g/m*3 18.5 C 0 km/h
915 24-05-2011 12:18:02 18.5 C 6.65 g/m*3 18.5 C 0 km/h
916 24-05-2011 12:30:02 18.5 C 6.17 g/m*3 18.5 C 0 km/h
917 24-05-2011 12:42:01 19.3 C 5.97 g/m*3 19.3 C 0 km/h
918 24-05-2011 12:54:03 18.9 C 5.67 g/m*3 18.9 C 0 km/h
919 24-05-2011 13:06:02 19.1 C 5.57 g/m*3 19.1 C 0 km/h
920 24-05-2011 13:18:02 19.9 C 5.84 g/m*3 19.9 C 0 km/h
921 24-05-2011 13:30:02 22.4 C 4.77 g/m*3 22.4 C 0 km/h
922 24-05-2011 13:42:02 23.4 C 4.21 g/m*3 23.4 C 0 km/h
923 24-05-2011 13:54:02 24.2 C 4.4 g/m*3 24.2 C 0 km/h
924 24-05-2011 14:06:02 24.6 C 4.5 g/m*3 24.6 C 0 km/h
925 24-05-2011 14:18:02 24.2 C 4.4 g/m*3 24.2 C 0 km/h
Sensor: Nr:Datum:Temp:Abs-Feuchte:Windchill:Wind:
Aussen-T/F 926 24-05-2011 14:30:02 24.1 C 4.38 g/m*3 24.1 C 0 km/h
927 24-05-2011 14:42:02 25.2 C 4.66 g/m*3 25.2 C 0 km/h
928 24-05-2011 14:54:02 25.7 C 4.79 g/m*3 25.7 C 0 km/h
929 24-05-2011 15:06:02 24.9 C 4.58 g/m*3 24.9 C 0 km/h
930 24-05-2011 15:18:02 24.9 C 4.58 g/m*3 24.9 C 0 km/h
931 24-05-2011 15:30:02 23 C 4.11 g/m*3 23 C 0 km/h
932 24-05-2011 15:42:02 24.1 C 4.38 g/m*3 24.1 C 0 km/h
933 24-05-2011 15:54:01 25 C 4.6 g/m*3 25 C 0 km/h
934 24-05-2011 16:06:01 24.7 C 4.53 g/m*3 24.7 C 0 km/h
935 24-05-2011 16:18:01 25.1 C 4.63 g/m*3 25.1 C 0 km/h
936 24-05-2011 16:30:01 24.4 C 4.45 g/m*3 24.4 C 0 km/h
937 24-05-2011 16:42:01 24.8 C 4.55 g/m*3 24.8 C 0 km/h
938 24-05-2011 16:54:01 23.1 C 4.13 g/m*3 23.1 C 0 km/h
939 24-05-2011 17:06:02 22.8 C 4.06 g/m*3 22.8 C 0 km/h
940 24-05-2011 17:18:01 22.1 C 3.9 g/m*3 22.1 C 0 km/h
941 24-05-2011 17:30:01 23.4 C 4.21 g/m*3 23.4 C 0 km/h
942 24-05-2011 17:42:01 23 C 4.11 g/m*3 23 C 0 km/h
943 24-05-2011 17:54:01 21.2 C 3.71 g/m*3 21.2 C 0 km/h
944 24-05-2011 18:06:01 22.2 C 3.93 g/m*3 22.2 C 0 km/h
945 24-05-2011 18:18:02 22.6 C 4.02 g/m*3 22.6 C 0 km/h
946 24-05-2011 18:30:02 22.3 C 3.95 g/m*3 22.3 C 0 km/h
947 24-05-2011 18:42:01 22.5 C 3.99 g/m*3 22.5 C 0 km/h
948 24-05-2011 18:54:03 22.9 C 4.09 g/m*3 22.9 C 0 km/h
949 24-05-2011 19:06:02 22 C 3.88 g/m*3 22 C 0 km/h
950 24-05-2011 19:18:02 22.1 C 3.9 g/m*3 22.1 C 0 km/h
Sensor: Nr:Datum:Temp:Abs-Feuchte:Windchill:Wind:
Aussen-T/F 951 24-05-2011 19:30:02 20 C 3.46 g/m*3 20 C 0 km/h
952 24-05-2011 19:42:02 19.3 C 3.32 g/m*3 19.3 C 0 km/h
953 24-05-2011 19:54:02 18.2 C 3.26 g/m*3 18.2 C 0 km/h
954 24-05-2011 20:06:01 17.9 C 3.21 g/m*3 17.9 C 0 km/h
955 24-05-2011 20:18:02 17.3 C 2.95 g/m*3 17.3 C 0 km/h
956 24-05-2011 20:30:02 17 C 3.33 g/m*3 17 C 0 km/h
957 24-05-2011 20:42:02 16.5 C 3.51 g/m*3 16.5 C 0 km/h
958 24-05-2011 20:54:02 16.1 C 3.43 g/m*3 16.1 C 0 km/h
959 24-05-2011 21:06:01 15.4 C 3.42 g/m*3 15.4 C 0 km/h
960 24-05-2011 21:18:02 14.6 C 3.75 g/m*3 14.6 C 0 km/h
961 24-05-2011 21:30:02 13.5 C 3.98 g/m*3 13.5 C 0 km/h
962 24-05-2011 21:42:01 13.6 C 4.24 g/m*3 13.6 C 0 km/h
963 24-05-2011 21:54:02 12.8 C 4.37 g/m*3 12.8 C 0 km/h
964 24-05-2011 22:06:02 11.9 C 4.45 g/m*3 11.9 C 0 km/h
965 24-05-2011 22:18:02 11.8 C 4.42 g/m*3 11.8 C 0 km/h
966 24-05-2011 22:30:02 11.5 C 4.54 g/m*3 11.5 C 0 km/h
967 24-05-2011 22:43:03 11.4 C 4.41 g/m*3 11.4 C 0 km/h
968 24-05-2011 22:55:03 11.5 C 4.54 g/m*3 11.5 C 0 km/h
969 24-05-2011 23:07:03 11 C 4.6 g/m*3 11 C 0 km/h
970 24-05-2011 23:19:03 12 C 4.37 g/m*3 12 C 0 km/h
971 24-05-2011 23:31:03 11.8 C 4.53 g/m*3 11.8 C 0 km/h
972 24-05-2011 23:43:03 11 C 4.5 g/m*3 11 C 0 km/h
973 24-05-2011 23:55:03 10.1 C 4.73 g/m*3 10.1 C 0 km/h
974 25-05-2011 00:07:03 10.3 C 4.69 g/m*3 10.3 C 0 km/h
975 25-05-2011 00:19:03 9.8 C 4.73 g/m*3 9.8 C 0 km/h
Sensor: Nr:Datum:Temp:Abs-Feuchte:Windchill:Wind:
Aussen-T/F 976 25-05-2011 00:31:03 9.6 C 4.76 g/m*3 9.6 C 0 km/h
977 25-05-2011 00:43:03 9.4 C 4.61 g/m*3 9.4 C 0 km/h
978 25-05-2011 00:55:03 9.8 C 4.64 g/m*3 9.8 C 0 km/h
979 25-05-2011 01:07:03 9.7 C 4.7 g/m*3 9.7 C 0 km/h
980 25-05-2011 01:19:03 9 C 4.67 g/m*3 9 C 0 km/h
981 25-05-2011 01:31:03 8.5 C 4.7 g/m*3 8.5 C 0 km/h
982 25-05-2011 01:43:04 8.3 C 4.8 g/m*3 8.3 C 0 km/h
983 25-05-2011 01:55:04 8.1 C 4.83 g/m*3 8.1 C 0 km/h
984 25-05-2011 02:07:04 7.8 C 4.82 g/m*3 7.8 C 0 km/h
985 25-05-2011 02:19:04 7.4 C 4.53 g/m*3 7.4 C 0 km/h
986 25-05-2011 02:31:04 7.2 C 4.79 g/m*3 7.2 C 0 km/h
987 25-05-2011 02:43:04 7.1 C 4.84 g/m*3 7.1 C 0 km/h
988 25-05-2011 02:55:04 7.2 C 4.95 g/m*3 7.2 C 0 km/h
989 25-05-2011 03:07:04 6.5 C 4.87 g/m*3 6.5 C 0 km/h
990 25-05-2011 03:19:04 5.8 C 4.8 g/m*3 5.8 C 0 km/h
991 25-05-2011 03:31:04 5.5 C 4.78 g/m*3 5.5 C 0 km/h
992 25-05-2011 03:43:04 5.4 C 4.95 g/m*3 5.4 C 0 km/h
993 25-05-2011 03:55:04 5 C 4.82 g/m*3 5 C 0 km/h
994 25-05-2011 04:07:04 4.9 C 4.93 g/m*3 4.9 C 0 km/h
995 25-05-2011 04:19:04 4.7 C 4.93 g/m*3 4.7 C 0 km/h
996 25-05-2011 04:31:04 4.7 C 5 g/m*3 4.7 C 0 km/h
997 25-05-2011 04:43:04 4.4 C 4.96 g/m*3 4.4 C 0 km/h
998 25-05-2011 04:55:04 4.2 C 4.96 g/m*3 4.2 C 0 km/h
999 25-05-2011 05:07:04 4 C 4.9 g/m*3 4 C 0 km/h
1000 25-05-2011 05:19:04 3.8 C 4.96 g/m*3 3.8 C 0 km/h
Sensor: Nr:Datum:Temp:Abs-Feuchte:Windchill:Wind:
Aussen-T/F 1001 25-05-2011 05:31:04 3.7 C 5.05 g/m*3 3.7 C 0 km/h
1002 25-05-2011 05:43:04 3.6 C 5.01 g/m*3 3.6 C 0 km/h
1003 25-05-2011 05:55:05 3.6 C 5.08 g/m*3 3.6 C 0 km/h
1004 25-05-2011 06:07:05 3.7 C 5.17 g/m*3 3.7 C 0 km/h
1005 25-05-2011 06:19:05 3.8 C 5.27 g/m*3 3.8 C 0 km/h
1006 25-05-2011 06:31:05 3.8 C 5.27 g/m*3 3.8 C 0 km/h
1007 25-05-2011 06:43:05 3.9 C 5.31 g/m*3 3.9 C 0 km/h
1008 25-05-2011 06:55:05 4 C 5.34 g/m*3 4 C 0 km/h
1009 25-05-2011 07:07:05 4.2 C 5.41 g/m*3 4.2 C 0 km/h
1010 25-05-2011 07:19:05 4.1 C 5.38 g/m*3 4.1 C 0 km/h
1011 25-05-2011 07:31:03 4.4 C 5.55 g/m*3 4.4 C 0 km/h
1012 25-05-2011 07:43:03 4.6 C 5.62 g/m*3 4.6 C 0 km/h
1013 25-05-2011 07:55:02 5 C 5.71 g/m*3 5 C 0 km/h
1014 25-05-2011 08:07:02 5.4 C 5.93 g/m*3 5.4 C 0 km/h
1015 25-05-2011 08:19:02 5.7 C 5.98 g/m*3 5.7 C 0 km/h
1016 25-05-2011 08:31:02 6.1 C 6.06 g/m*3 6.1 C 0 km/h
1017 25-05-2011 08:43:02 6.6 C 6.27 g/m*3 6.6 C 0 km/h
1018 25-05-2011 08:55:02 7.3 C 6.4 g/m*3 7.3 C 0 km/h
1019 25-05-2011 09:07:03 7.9 C 6.57 g/m*3 7.9 C 0 km/h
1020 25-05-2011 09:19:02 8.4 C 6.53 g/m*3 8.4 C 0 km/h
1021 25-05-2011 09:31:02 9.3 C 6.47 g/m*3 9.3 C 0 km/h
1022 25-05-2011 09:43:03 10 C 6.3 g/m*3 10 C 0 km/h
1023 25-05-2011 09:55:01 10.7 C 6.58 g/m*3 10.7 C 0 km/h
1024 25-05-2011 10:07:02 11.5 C 6.4 g/m*3 11.5 C 0 km/h
1025 25-05-2011 10:19:01 12.9 C 5.86 g/m*3 12.9 C 0 km/h
Sensor: Nr:Datum:Temp:Abs-Feuchte:Windchill:Wind:
Aussen-T/F 1026 25-05-2011 10:31:01 14.5 C 4.85 g/m*3 14.5 C 0 km/h
1027 25-05-2011 10:43:01 14.8 C 4.18 g/m*3 14.8 C 0 km/h
1028 25-05-2011 10:55:01 15.5 C 3.7 g/m*3 15.5 C 0 km/h
1029 25-05-2011 11:07:02 16.1 C 3.56 g/m*3 16.1 C 0 km/h
1030 25-05-2011 11:19:02 16.5 C 3.09 g/m*3 16.5 C 0 km/h
1031 25-05-2011 11:31:01 16.7 C 3.27 g/m*3 16.7 C 0 km/h
1032 25-05-2011 11:43:01 16.6 C 3.25 g/m*3 16.6 C 0 km/h
1033 25-05-2011 11:55:01 17 C 2.89 g/m*3 17 C 0 km/h
1034 25-05-2011 12:07:02 17 C 2.89 g/m*3 17 C 0 km/h
1035 25-05-2011 12:19:01 17.6 C 3.15 g/m*3 17.6 C 0 km/h
1036 25-05-2011 12:31:01 17.6 C 3 g/m*3 17.6 C 0 km/h
1037 25-05-2011 12:43:01 17.8 C 3.04 g/m*3 17.8 C 0 km/h
1038 25-05-2011 12:55:01 18.3 C 3.13 g/m*3 18.3 C 0 km/h
1039 25-05-2011 13:07:01 18.6 C 3.18 g/m*3 18.6 C 0 km/h
1040 25-05-2011 13:19:02 19.2 C 3.3 g/m*3 19.2 C 0 km/h
1041 25-05-2011 13:31:01 26.1 C 4.9 g/m*3 26.1 C 0 km/h
1042 25-05-2011 13:43:01 26.9 C 5.12 g/m*3 26.9 C 0 km/h
1043 25-05-2011 13:55:01 27.8 C 5.38 g/m*3 27.8 C 0 km/h
1044 25-05-2011 14:07:01 28.4 C 5.56 g/m*3 28.4 C 0 km/h
1045 25-05-2011 14:19:02 28.3 C 5.53 g/m*3 28.3 C 0 km/h
1046 25-05-2011 14:31:01 29 C 5.74 g/m*3 29 C 0 km/h
1047 25-05-2011 14:43:01 30.3 C 6.16 g/m*3 30.3 C 0 km/h
1048 25-05-2011 14:55:02 30.3 C 6.16 g/m*3 30.3 C 0 km/h
1049 25-05-2011 15:07:02 30.6 C 6.26 g/m*3 30.6 C 0 km/h
1050 25-05-2011 15:19:02 31.4 C 6.54 g/m*3 31.4 C 0 km/h
Sensor: Nr:Datum:Temp:Abs-Feuchte:Windchill:Wind:
Aussen-T/F 1051 25-05-2011 15:31:02 30.7 C 6.3 g/m*3 30.7 C 0 km/h
1052 25-05-2011 15:43:02 29.4 C 5.87 g/m*3 29.4 C 0 km/h
1053 25-05-2011 15:55:01 31 C 6.4 g/m*3 31 C 0 km/h
1054 25-05-2011 16:07:02 30.6 C 6.26 g/m*3 30.6 C 0 km/h
1055 25-05-2011 16:19:02 30.7 C 6.3 g/m*3 30.7 C 0 km/h
1056 25-05-2011 16:31:02 31 C 6.4 g/m*3 31 C 0 km/h
1057 25-05-2011 16:43:02 30.3 C 6.16 g/m*3 30.3 C 0 km/h
1058 25-05-2011 16:55:02 30.9 C 6.37 g/m*3 30.9 C 0 km/h
1059 25-05-2011 17:07:02 30.9 C 6.37 g/m*3 30.9 C 0 km/h
1060 25-05-2011 17:19:02 30.1 C 6.1 g/m*3 30.1 C 0 km/h
1061 25-05-2011 17:31:03 29.7 C 5.97 g/m*3 29.7 C 0 km/h
1062 25-05-2011 17:43:03 27.5 C 5.29 g/m*3 27.5 C 0 km/h
1063 25-05-2011 17:55:02 30.2 C 6.13 g/m*3 30.2 C 0 km/h
1064 25-05-2011 18:07:01 30 C 6.06 g/m*3 30 C 0 km/h
1065 25-05-2011 18:19:02 29 C 5.74 g/m*3 29 C 0 km/h
1066 25-05-2011 18:31:02 30.6 C 6.26 g/m*3 30.6 C 0 km/h
1067 25-05-2011 18:43:02 29.9 C 6.03 g/m*3 29.9 C 0 km/h
1068 25-05-2011 18:55:02 27.5 C 5.29 g/m*3 27.5 C 0 km/h
1069 25-05-2011 19:07:03 29.2 C 5.81 g/m*3 29.2 C 0 km/h
1070 25-05-2011 19:19:02 28.9 C 5.71 g/m*3 28.9 C 0 km/h
1071 25-05-2011 19:31:02 27.8 C 5.38 g/m*3 27.8 C 0 km/h
1072 25-05-2011 19:43:03 24.5 C 4.48 g/m*3 24.5 C 0 km/h
1073 25-05-2011 19:55:01 21.5 C 3.77 g/m*3 21.5 C 0 km/h
1074 25-05-2011 20:07:02 20.1 C 3.82 g/m*3 20.1 C 0 km/h
1075 25-05-2011 20:19:01 19.1 C 4.26 g/m*3 19.1 C 0 km/h
Sensor: Nr:Datum:Temp:Abs-Feuchte:Windchill:Wind:
Aussen-T/F 1076 25-05-2011 20:31:02 18.1 C 4.17 g/m*3 18.1 C 0 km/h
1077 25-05-2011 20:43:02 17.5 C 4.03 g/m*3 17.5 C 0 km/h
1078 25-05-2011 20:55:01 16.7 C 4.26 g/m*3 16.7 C 0 km/h
1079 25-05-2011 21:07:02 16 C 3.68 g/m*3 16 C 0 km/h
1080 25-05-2011 21:19:02 15.4 C 3.55 g/m*3 15.4 C 0 km/h
1081 25-05-2011 21:31:01 14.9 C 3.44 g/m*3 14.9 C 0 km/h
1082 25-05-2011 21:43:01 14.8 C 3.42 g/m*3 14.8 C 0 km/h
1083 25-05-2011 21:55:01 14 C 3.62 g/m*3 14 C 0 km/h
1084 25-05-2011 22:07:02 13.3 C 3.7 g/m*3 13.3 C 0 km/h
1085 25-05-2011 22:19:01 12.6 C 3.87 g/m*3 12.6 C 0 km/h
1086 25-05-2011 22:31:02 12.1 C 3.86 g/m*3 12.1 C 0 km/h
1087 25-05-2011 22:43:02 11.7 C 4.18 g/m*3 11.7 C 0 km/h
1088 25-05-2011 22:56:03 11.2 C 3.85 g/m*3 11.2 C 0 km/h
1089 25-05-2011 23:08:04 10.8 C 4.15 g/m*3 10.8 C 0 km/h
1090 25-05-2011 23:20:04 10.4 C 4.05 g/m*3 10.4 C 0 km/h
1091 25-05-2011 23:32:04 10.1 C 3.97 g/m*3 10.1 C 0 km/h
1092 25-05-2011 23:44:04 9.8 C 4.18 g/m*3 9.8 C 0 km/h
1093 25-05-2011 23:56:04 9.5 C 4.1 g/m*3 9.5 C 0 km/h
1094 26-05-2011 00:08:04 9.3 C 4.31 g/m*3 9.3 C 0 km/h
1095 26-05-2011 00:20:04 9.2 C 4.38 g/m*3 9.2 C 0 km/h
1096 26-05-2011 00:32:04 8.9 C 4.56 g/m*3 8.9 C 0 km/h
1097 26-05-2011 00:44:04 8.6 C 4.47 g/m*3 8.6 C 0 km/h
1098 26-05-2011 00:56:04 8.4 C 4.67 g/m*3 8.4 C 0 km/h
1099 26-05-2011 01:08:04 8.1 C 4.66 g/m*3 8.1 C 0 km/h
1100 26-05-2011 01:20:04 8 C 4.55 g/m*3 8 C 0 km/h
Sensor: Nr:Datum:Temp:Abs-Feuchte:Windchill:Wind:
Aussen-T/F 1101 26-05-2011 01:32:04 7.8 C 4.65 g/m*3 7.8 C 0 km/h
1102 26-05-2011 01:44:04 7.7 C 4.7 g/m*3 7.7 C 0 km/h
1103 26-05-2011 01:56:04 7.5 C 4.88 g/m*3 7.5 C 0 km/h
1104 26-05-2011 02:08:04 7.5 C 5.04 g/m*3 7.5 C 0 km/h
1105 26-05-2011 02:20:04 7.4 C 4.85 g/m*3 7.4 C 0 km/h
1106 26-05-2011 02:32:04 7.1 C 4.76 g/m*3 7.1 C 0 km/h
1107 26-05-2011 02:44:04 7.1 C 4.91 g/m*3 7.1 C 0 km/h
1108 26-05-2011 02:56:04 7 C 4.88 g/m*3 7 C 0 km/h
1109 26-05-2011 03:08:04 7 C 5.11 g/m*3 7 C 0 km/h
1110 26-05-2011 03:20:05 6.9 C 5.16 g/m*3 6.9 C 0 km/h
1111 26-05-2011 03:32:05 6.9 C 5.08 g/m*3 6.9 C 0 km/h
1112 26-05-2011 03:44:05 6.6 C 5.13 g/m*3 6.6 C 0 km/h
1113 26-05-2011 03:56:05 6.6 C 5.13 g/m*3 6.6 C 0 km/h
1114 26-05-2011 04:08:05 6.5 C 5.17 g/m*3 6.5 C 0 km/h
1115 26-05-2011 04:20:05 6.2 C 5.15 g/m*3 6.2 C 0 km/h
1116 26-05-2011 04:32:05 6.2 C 5.22 g/m*3 6.2 C 0 km/h
1117 26-05-2011 04:44:05 5.9 C 5.19 g/m*3 5.9 C 0 km/h
1118 26-05-2011 04:56:05 5.9 C 5.26 g/m*3 5.9 C 0 km/h
1119 26-05-2011 05:08:05 5.8 C 5.23 g/m*3 5.8 C 0 km/h
1120 26-05-2011 05:20:05 5.9 C 5.34 g/m*3 5.9 C 0 km/h
1121 26-05-2011 05:32:05 5.8 C 5.23 g/m*3 5.8 C 0 km/h
1122 26-05-2011 05:44:05 5.8 C 5.3 g/m*3 5.8 C 0 km/h
1123 26-05-2011 05:56:05 5.7 C 5.27 g/m*3 5.7 C 0 km/h
1124 26-05-2011 06:08:05 5.8 C 5.23 g/m*3 5.8 C 0 km/h
1125 26-05-2011 06:20:05 5.9 C 5.34 g/m*3 5.9 C 0 km/h
Sensor: Nr:Datum:Temp:Abs-Feuchte:Windchill:Wind:
Aussen-T/F 1126 26-05-2011 06:32:05 6 C 5.3 g/m*3 6 C 0 km/h
1127 26-05-2011 06:44:05 6.3 C 5.55 g/m*3 6.3 C 0 km/h
1128 26-05-2011 06:56:05 6.5 C 5.7 g/m*3 6.5 C 0 km/h
1129 26-05-2011 07:08:05 6.7 C 5.7 g/m*3 6.7 C 0 km/h
1130 26-05-2011 07:20:05 7 C 5.81 g/m*3 7 C 0 km/h
1131 26-05-2011 07:32:03 7.1 C 5.85 g/m*3 7.1 C 0 km/h
1132 26-05-2011 07:44:03 7.7 C 6.16 g/m*3 7.7 C 0 km/h
1133 26-05-2011 07:56:02 8.1 C 6.16 g/m*3 8.1 C 0 km/h
1134 26-05-2011 08:08:02 8.7 C 6.4 g/m*3 8.7 C 0 km/h
1135 26-05-2011 08:20:02 9.5 C 6.37 g/m*3 9.5 C 0 km/h
1136 26-05-2011 08:32:01 11 C 6.61 g/m*3 11 C 0 km/h
1137 26-05-2011 08:44:01 13.7 C 6.99 g/m*3 13.7 C 0 km/h
1138 26-05-2011 08:56:02 14.9 C 6.12 g/m*3 14.9 C 0 km/h
1139 26-05-2011 09:08:01 15.5 C 6.61 g/m*3 15.5 C 0 km/h
1140 26-05-2011 09:20:02 15.8 C 7.27 g/m*3 15.8 C 0 km/h
1141 26-05-2011 09:32:01 15.6 C 6.92 g/m*3 15.6 C 0 km/h
1142 26-05-2011 09:44:01 15.2 C 7.01 g/m*3 15.2 C 0 km/h
1143 26-05-2011 09:56:03 15.8 C 6.87 g/m*3 15.8 C 0 km/h
1144 26-05-2011 10:08:02 17 C 6.37 g/m*3 17 C 0 km/h
1145 26-05-2011 10:20:02 18.4 C 6.61 g/m*3 18.4 C 0 km/h
1146 26-05-2011 10:32:03 19.1 C 6.56 g/m*3 19.1 C 0 km/h
1147 26-05-2011 10:44:03 20.5 C 7.12 g/m*3 20.5 C 0 km/h
1148 26-05-2011 10:56:02 21.8 C 8.06 g/m*3 21.8 C 0 km/h
1149 26-05-2011 11:08:01 21.4 C 8.06 g/m*3 21.4 C 0 km/h
1150 26-05-2011 11:20:02 21.1 C 7.92 g/m*3 21.1 C 0 km/h
Sensor: Nr:Datum:Temp:Abs-Feuchte:Windchill:Wind:
Aussen-T/F 1151 26-05-2011 11:32:02 20.4 C 7.96 g/m*3 20.4 C 0 km/h
1152 26-05-2011 11:44:02 19.5 C 8.39 g/m*3 19.5 C 0 km/h
1153 26-05-2011 11:56:02 23 C 7.19 g/m*3 23 C 0 km/h
1154 26-05-2011 12:08:02 24.1 C 6.35 g/m*3 24.1 C 0 km/h
1155 26-05-2011 12:20:02 24.9 C 5.49 g/m*3 24.9 C 0 km/h
1156 26-05-2011 12:32:02 23.3 C 5.44 g/m*3 23.3 C 0 km/h
1157 26-05-2011 12:44:02 23.8 C 5.38 g/m*3 23.8 C 0 km/h
1158 26-05-2011 12:56:02 23.9 C 5.84 g/m*3 23.9 C 0 km/h
1159 26-05-2011 13:08:02 24.4 C 5.79 g/m*3 24.4 C 0 km/h
1160 26-05-2011 13:20:02 23.7 C 5.35 g/m*3 23.7 C 0 km/h
1161 26-05-2011 13:32:02 24.6 C 5.18 g/m*3 24.6 C 0 km/h
1162 26-05-2011 13:44:02 25.6 C 5 g/m*3 25.6 C 0 km/h
1163 26-05-2011 13:56:01 27.5 C 5.29 g/m*3 27.5 C 0 km/h
1164 26-05-2011 14:08:01 25.2 C 5.59 g/m*3 25.2 C 0 km/h
1165 26-05-2011 14:20:02 25.5 C 5.21 g/m*3 25.5 C 0 km/h
1166 26-05-2011 14:32:01 26.5 C 5.26 g/m*3 26.5 C 0 km/h
1167 26-05-2011 14:44:01 28.2 C 5.5 g/m*3 28.2 C 0 km/h
1168 26-05-2011 14:56:03 27.2 C 5.2 g/m*3 27.2 C 0 km/h
1169 26-05-2011 15:08:02 27.7 C 5.35 g/m*3 27.7 C 0 km/h
1170 26-05-2011 15:20:02 24.4 C 5.56 g/m*3 24.4 C 0 km/h
1171 26-05-2011 15:32:02 23.3 C 5.44 g/m*3 23.3 C 0 km/h
1172 26-05-2011 15:44:02 23.8 C 5.59 g/m*3 23.8 C 0 km/h
1173 26-05-2011 15:56:02 23 C 4.73 g/m*3 23 C 0 km/h
1174 26-05-2011 16:08:01 24.7 C 4.53 g/m*3 24.7 C 0 km/h
1175 26-05-2011 16:20:02 24.4 C 4.45 g/m*3 24.4 C 0 km/h
Sensor: Nr:Datum:Temp:Abs-Feuchte:Windchill:Wind:
Aussen-T/F 1176 26-05-2011 16:32:02 25.5 C 4.73 g/m*3 25.5 C 0 km/h
1177 26-05-2011 16:44:02 25 C 4.6 g/m*3 25 C 0 km/h
1178 26-05-2011 16:56:02 24.6 C 4.5 g/m*3 24.6 C 0 km/h
1179 26-05-2011 17:08:01 25.5 C 4.73 g/m*3 25.5 C 0 km/h
1180 26-05-2011 17:20:01 26 C 4.87 g/m*3 26 C 0 km/h
1181 26-05-2011 17:32:02 24.6 C 4.5 g/m*3 24.6 C 0 km/h
1182 26-05-2011 17:44:02 24.6 C 4.5 g/m*3 24.6 C 0 km/h
1183 26-05-2011 17:56:02 23.5 C 4.23 g/m*3 23.5 C 0 km/h
1184 26-05-2011 18:08:02 22.8 C 4.06 g/m*3 22.8 C 0 km/h
1185 26-05-2011 18:20:01 23.8 C 4.3 g/m*3 23.8 C 0 km/h
1186 26-05-2011 18:32:02 22.5 C 3.99 g/m*3 22.5 C 0 km/h
1187 26-05-2011 18:44:03 21.2 C 4.08 g/m*3 21.2 C 0 km/h
1188 26-05-2011 18:56:02 20.9 C 4.55 g/m*3 20.9 C 0 km/h
1189 26-05-2011 19:08:02 21.3 C 4.66 g/m*3 21.3 C 0 km/h
1190 26-05-2011 19:20:01 22 C 3.88 g/m*3 22 C 0 km/h
1191 26-05-2011 19:32:02 21.2 C 3.89 g/m*3 21.2 C 0 km/h
1192 26-05-2011 19:44:02 20 C 4.32 g/m*3 20 C 0 km/h
1193 26-05-2011 19:56:02 19.7 C 4.58 g/m*3 19.7 C 0 km/h
1194 26-05-2011 20:08:02 19.8 C 4.44 g/m*3 19.8 C 0 km/h
1195 26-05-2011 20:20:02 19.7 C 4.58 g/m*3 19.7 C 0 km/h
1196 26-05-2011 20:32:02 19.1 C 4.26 g/m*3 19.1 C 0 km/h
1197 26-05-2011 20:44:02 18.9 C 4.54 g/m*3 18.9 C 0 km/h
1198 26-05-2011 20:56:02 18.6 C 4.46 g/m*3 18.6 C 0 km/h
1199 26-05-2011 21:08:02 18.3 C 4.53 g/m*3 18.3 C 0 km/h
1200 26-05-2011 21:20:02 17.9 C 4.28 g/m*3 17.9 C 0 km/h
Sensor: Nr:Datum:Temp:Abs-Feuchte:Windchill:Wind:
Aussen-T/F 1201 26-05-2011 21:32:01 17.3 C 4.42 g/m*3 17.3 C 0 km/h
1202 26-05-2011 21:44:01 17 C 4.05 g/m*3 17 C 0 km/h
1203 26-05-2011 21:56:02 16.8 C 4.15 g/m*3 16.8 C 0 km/h
1204 26-05-2011 22:08:02 16.4 C 4.19 g/m*3 16.4 C 0 km/h
1205 26-05-2011 22:20:01 16.2 C 4.14 g/m*3 16.2 C 0 km/h
1206 26-05-2011 22:33:03 16.1 C 4.25 g/m*3 16.1 C 0 km/h
1207 26-05-2011 22:45:03 15.8 C 4.44 g/m*3 15.8 C 0 km/h
1208 26-05-2011 22:57:03 15.9 C 4.47 g/m*3 15.9 C 0 km/h
1209 26-05-2011 23:09:03 15.8 C 4.58 g/m*3 15.8 C 0 km/h
1210 26-05-2011 23:21:03 15.9 C 4.6 g/m*3 15.9 C 0 km/h
1211 26-05-2011 23:33:03 15.8 C 4.58 g/m*3 15.8 C 0 km/h
1212 26-05-2011 23:45:03 15.9 C 4.47 g/m*3 15.9 C 0 km/h
1213 26-05-2011 23:57:04 15.9 C 4.47 g/m*3 15.9 C 0 km/h
1214 27-05-2011 00:09:04 15.9 C 4.47 g/m*3 15.9 C 0 km/h
1215 27-05-2011 00:21:04 15.6 C 4.65 g/m*3 15.6 C 0 km/h
1216 27-05-2011 00:33:04 15.5 C 4.63 g/m*3 15.5 C 0 km/h
1217 27-05-2011 00:45:04 15.6 C 4.65 g/m*3 15.6 C 0 km/h
1218 27-05-2011 00:57:04 15.7 C 4.68 g/m*3 15.7 C 0 km/h
1219 27-05-2011 01:09:04 15.5 C 4.76 g/m*3 15.5 C 0 km/h
1220 27-05-2011 01:21:04 15.5 C 4.76 g/m*3 15.5 C 0 km/h
1221 27-05-2011 01:33:04 15.3 C 4.7 g/m*3 15.3 C 0 km/h
1222 27-05-2011 01:45:04 15.2 C 4.8 g/m*3 15.2 C 0 km/h
1223 27-05-2011 01:57:04 15.1 C 4.77 g/m*3 15.1 C 0 km/h
1224 27-05-2011 02:09:04 14.2 C 4.88 g/m*3 14.2 C 0 km/h
1225 27-05-2011 02:21:04 13.6 C 5.18 g/m*3 13.6 C 0 km/h
Sensor: Nr:Datum:Temp:Abs-Feuchte:Windchill:Wind:
Aussen-T/F 1226 27-05-2011 02:33:04 13.2 C 5.17 g/m*3 13.2 C 0 km/h
1227 27-05-2011 02:45:04 14.1 C 5.1 g/m*3 14.1 C 0 km/h
1228 27-05-2011 02:57:04 13.2 C 5.17 g/m*3 13.2 C 0 km/h
1229 27-05-2011 03:09:04 12.8 C 5.38 g/m*3 12.8 C 0 km/h
1230 27-05-2011 03:21:04 12.6 C 5.64 g/m*3 12.6 C 0 km/h
1231 27-05-2011 03:33:04 13.2 C 5.28 g/m*3 13.2 C 0 km/h
1232 27-05-2011 03:45:04 13.5 C 5.26 g/m*3 13.5 C 0 km/h
1233 27-05-2011 03:57:05 12.7 C 5.45 g/m*3 12.7 C 0 km/h
1234 27-05-2011 04:09:05 11.8 C 5.68 g/m*3 11.8 C 0 km/h
1235 27-05-2011 04:21:05 12.2 C 5.61 g/m*3 12.2 C 0 km/h
1236 27-05-2011 04:33:05 12.9 C 5.52 g/m*3 12.9 C 0 km/h
1237 27-05-2011 04:45:05 12.7 C 5.45 g/m*3 12.7 C 0 km/h
1238 27-05-2011 04:57:05 12.1 C 5.47 g/m*3 12.1 C 0 km/h
1239 27-05-2011 05:09:05 11.8 C 5.68 g/m*3 11.8 C 0 km/h
1240 27-05-2011 05:21:05 11.3 C 5.71 g/m*3 11.3 C 0 km/h
1241 27-05-2011 05:33:05 12.1 C 5.68 g/m*3 12.1 C 0 km/h
1242 27-05-2011 05:45:05 12.1 C 5.68 g/m*3 12.1 C 0 km/h
1243 27-05-2011 05:57:05 12.2 C 5.72 g/m*3 12.2 C 0 km/h
1244 27-05-2011 06:09:05 12.5 C 5.83 g/m*3 12.5 C 0 km/h
1245 27-05-2011 06:21:05 12.6 C 5.86 g/m*3 12.6 C 0 km/h
1246 27-05-2011 06:33:05 12.8 C 5.82 g/m*3 12.8 C 0 km/h
1247 27-05-2011 06:45:05 12.9 C 5.86 g/m*3 12.9 C 0 km/h
1248 27-05-2011 06:57:05 13 C 5.78 g/m*3 13 C 0 km/h
1249 27-05-2011 07:09:05 13.2 C 5.86 g/m*3 13.2 C 0 km/h
1250 27-05-2011 07:21:02 13.2 C 5.86 g/m*3 13.2 C 0 km/h
Sensor: Nr:Datum:Temp:Abs-Feuchte:Windchill:Wind:
Aussen-T/F 1251 27-05-2011 07:33:02 13.3 C 5.89 g/m*3 13.3 C 0 km/h
1252 27-05-2011 07:45:02 13.6 C 5.88 g/m*3 13.6 C 0 km/h
1253 27-05-2011 07:57:02 13.5 C 5.85 g/m*3 13.5 C 0 km/h
1254 27-05-2011 08:09:02 13.7 C 6.04 g/m*3 13.7 C 0 km/h
1255 27-05-2011 08:21:02 14.1 C 5.95 g/m*3 14.1 C 0 km/h
1256 27-05-2011 08:33:02 14.5 C 5.97 g/m*3 14.5 C 0 km/h
1257 27-05-2011 08:45:02 14.8 C 5.83 g/m*3 14.8 C 0 km/h
1258 27-05-2011 08:57:02 15.1 C 5.93 g/m*3 15.1 C 0 km/h
1259 27-05-2011 09:09:02 14.9 C 5.86 g/m*3 14.9 C 0 km/h
1260 27-05-2011 09:21:02 15 C 5.77 g/m*3 15 C 0 km/h
1261 27-05-2011 09:33:02 14.6 C 5.88 g/m*3 14.6 C 0 km/h
1262 27-05-2011 09:45:01 14.3 C 5.65 g/m*3 14.3 C 0 km/h
1263 27-05-2011 09:57:01 13.9 C 5.87 g/m*3 13.9 C 0 km/h
1264 27-05-2011 10:09:01 13.5 C 5.5 g/m*3 13.5 C 0 km/h
1265 27-05-2011 10:21:01 13.7 C 5.68 g/m*3 13.7 C 0 km/h
1266 27-05-2011 10:33:02 13.7 C 5.57 g/m*3 13.7 C 0 km/h
1267 27-05-2011 10:45:02 14 C 5.67 g/m*3 14 C 0 km/h
1268 27-05-2011 10:57:02 14.2 C 5.62 g/m*3 14.2 C 0 km/h
1269 27-05-2011 11:09:02 14.2 C 5.49 g/m*3 14.2 C 0 km/h
1270 27-05-2011 11:21:01 16.1 C 5.62 g/m*3 16.1 C 0 km/h
1271 27-05-2011 11:33:02 15.6 C 5.59 g/m*3 15.6 C 0 km/h
1272 27-05-2011 11:45:02 14.8 C 5.7 g/m*3 14.8 C 0 km/h
1273 27-05-2011 11:57:02 14.3 C 5.77 g/m*3 14.3 C 0 km/h
1274 27-05-2011 12:09:02 14.6 C 5.88 g/m*3 14.6 C 0 km/h
1275 27-05-2011 12:21:01 14.8 C 5.83 g/m*3 14.8 C 0 km/h
Sensor: Nr:Datum:Temp:Abs-Feuchte:Windchill:Wind:
Aussen-T/F 1276 27-05-2011 12:33:02 15.3 C 6.01 g/m*3 15.3 C 0 km/h
1277 27-05-2011 12:45:01 16.1 C 5.62 g/m*3 16.1 C 0 km/h
1278 27-05-2011 12:57:01 15.8 C 5.25 g/m*3 15.8 C 0 km/h
1279 27-05-2011 13:09:02 15.2 C 5.19 g/m*3 15.2 C 0 km/h
1280 27-05-2011 13:21:02 15.3 C 5.22 g/m*3 15.3 C 0 km/h
1281 27-05-2011 13:33:01 16.4 C 5.16 g/m*3 16.4 C 0 km/h
1282 27-05-2011 13:45:02 17.1 C 4.95 g/m*3 17.1 C 0 km/h
1283 27-05-2011 13:57:02 17.7 C 4.68 g/m*3 17.7 C 0 km/h
1284 27-05-2011 14:09:01 20.6 C 5.19 g/m*3 20.6 C 0 km/h
1285 27-05-2011 14:21:02 20.6 C 4.47 g/m*3 20.6 C 0 km/h
1286 27-05-2011 14:33:01 17.5 C 4.47 g/m*3 17.5 C 0 km/h
1287 27-05-2011 14:45:02 17.2 C 4.69 g/m*3 17.2 C 0 km/h
1288 27-05-2011 14:57:02 16.6 C 4.94 g/m*3 16.6 C 0 km/h
1289 27-05-2011 15:09:02 16.7 C 5.12 g/m*3 16.7 C 0 km/h
1290 27-05-2011 15:21:02 16.1 C 5.35 g/m*3 16.1 C 0 km/h
1291 27-05-2011 15:33:03 16.1 C 5.48 g/m*3 16.1 C 0 km/h
1292 27-05-2011 15:45:02 18 C 5.53 g/m*3 18 C 0 km/h
1293 27-05-2011 15:57:02 18 C 5.38 g/m*3 18 C 0 km/h
1294 27-05-2011 16:09:02 16.8 C 5.15 g/m*3 16.8 C 0 km/h
1295 27-05-2011 16:21:01 16.4 C 5.16 g/m*3 16.4 C 0 km/h
1296 27-05-2011 16:33:02 16.1 C 5.35 g/m*3 16.1 C 0 km/h
1297 27-05-2011 16:45:02 15.9 C 5.42 g/m*3 15.9 C 0 km/h
1298 27-05-2011 16:57:02 15.6 C 5.32 g/m*3 15.6 C 0 km/h
1299 27-05-2011 17:09:02 15.8 C 5.38 g/m*3 15.8 C 0 km/h
1300 27-05-2011 17:21:02 16.6 C 5.51 g/m*3 16.6 C 0 km/h
Sensor: Nr:Datum:Temp:Abs-Feuchte:Windchill:Wind:
Aussen-T/F 1301 27-05-2011 17:33:02 16.2 C 5.38 g/m*3 16.2 C 0 km/h
1302 27-05-2011 17:45:02 15.6 C 5.59 g/m*3 15.6 C 0 km/h
1303 27-05-2011 17:57:02 15.7 C 5.62 g/m*3 15.7 C 0 km/h
1304 27-05-2011 18:09:02 16 C 5.45 g/m*3 16 C 0 km/h
1305 27-05-2011 18:21:02 16.2 C 5.52 g/m*3 16.2 C 0 km/h
1306 27-05-2011 18:33:02 18 C 5.68 g/m*3 18 C 0 km/h
1307 27-05-2011 18:45:02 17.6 C 5.4 g/m*3 17.6 C 0 km/h
1308 27-05-2011 18:57:02 17 C 5.35 g/m*3 17 C 0 km/h
1309 27-05-2011 19:09:02 19.1 C 5.08 g/m*3 19.1 C 0 km/h
1310 27-05-2011 19:21:02 19.4 C 5.01 g/m*3 19.4 C 0 km/h
1311 27-05-2011 19:33:02 17 C 5.06 g/m*3 17 C 0 km/h
1312 27-05-2011 19:45:02 16.6 C 5.23 g/m*3 16.6 C 0 km/h
1313 27-05-2011 19:57:02 16.6 C 5.37 g/m*3 16.6 C 0 km/h
1314 27-05-2011 20:09:02 15.4 C 5.39 g/m*3 15.4 C 0 km/h
1315 27-05-2011 20:21:02 15.4 C 5.52 g/m*3 15.4 C 0 km/h
1316 27-05-2011 20:33:01 15.1 C 5.68 g/m*3 15.1 C 0 km/h
1317 27-05-2011 20:45:02 14.3 C 5.65 g/m*3 14.3 C 0 km/h
1318 27-05-2011 20:57:02 13.3 C 6.24 g/m*3 13.3 C 0 km/h
1319 27-05-2011 21:09:01 12 C 6.18 g/m*3 12 C 0 km/h
1320 27-05-2011 21:21:01 11.7 C 6.38 g/m*3 11.7 C 0 km/h
1321 27-05-2011 21:33:02 11.9 C 6.46 g/m*3 11.9 C 0 km/h
1322 27-05-2011 21:45:02 12.3 C 6.3 g/m*3 12.3 C 0 km/h
1323 27-05-2011 21:57:02 12.5 C 6.27 g/m*3 12.5 C 0 km/h
1324 27-05-2011 22:09:02 12.4 C 6.23 g/m*3 12.4 C 0 km/h
1325 27-05-2011 22:21:02 12.4 C 6.23 g/m*3 12.4 C 0 km/h
Sensor: Nr:Datum:Temp:Abs-Feuchte:Windchill:Wind:
Aussen-T/F 1326 27-05-2011 22:33:02 12.4 C 6.23 g/m*3 12.4 C 0 km/h
1327 27-05-2011 22:45:02 12.5 C 6.16 g/m*3 12.5 C 0 km/h
1328 27-05-2011 22:57:02 12.4 C 6.12 g/m*3 12.4 C 0 km/h
1329 27-05-2011 23:10:03 12.3 C 6.19 g/m*3 12.3 C 0 km/h
1330 27-05-2011 23:22:03 12.2 C 6.15 g/m*3 12.2 C 0 km/h
1331 27-05-2011 23:34:03 11.9 C 6.35 g/m*3 11.9 C 0 km/h
1332 27-05-2011 23:46:03 11.3 C 6.22 g/m*3 11.3 C 0 km/h
1333 27-05-2011 23:58:03 10.8 C 6.23 g/m*3 10.8 C 0 km/h
1334 28-05-2011 00:10:03 10.2 C 6.09 g/m*3 10.2 C 0 km/h
1335 28-05-2011 00:22:03 9.7 C 6.27 g/m*3 9.7 C 0 km/h
1336 28-05-2011 00:34:03 9.1 C 6.03 g/m*3 9.1 C 0 km/h
1337 28-05-2011 00:46:03 8.6 C 6.19 g/m*3 8.6 C 0 km/h
1338 28-05-2011 00:58:03 8.6 C 6.36 g/m*3 8.6 C 0 km/h
1339 28-05-2011 01:10:03 8 C 6.12 g/m*3 8 C 0 km/h
1340 28-05-2011 01:22:03 8.2 C 6.36 g/m*3 8.2 C 0 km/h
1341 28-05-2011 01:34:03 8.1 C 6.32 g/m*3 8.1 C 0 km/h
1342 28-05-2011 01:46:03 7.8 C 6.37 g/m*3 7.8 C 0 km/h
1343 28-05-2011 01:58:03 7.6 C 6.36 g/m*3 7.6 C 0 km/h
1344 28-05-2011 02:10:03 7 C 6.2 g/m*3 7 C 0 km/h
1345 28-05-2011 02:22:03 7 C 6.28 g/m*3 7 C 0 km/h
1346 28-05-2011 02:34:03 7 C 6.35 g/m*3 7 C 0 km/h
1347 28-05-2011 02:46:03 6.8 C 6.42 g/m*3 6.8 C 0 km/h
1348 28-05-2011 02:58:03 6.7 C 6.38 g/m*3 6.7 C 0 km/h
1349 28-05-2011 03:10:03 6.6 C 6.42 g/m*3 6.6 C 0 km/h
1350 28-05-2011 03:22:04 6.2 C 6.18 g/m*3 6.2 C 0 km/h
Sensor: Nr:Datum:Temp:Abs-Feuchte:Windchill:Wind:
Aussen-T/F 1351 28-05-2011 03:34:04 5.9 C 6.2 g/m*3 5.9 C 0 km/h
1352 28-05-2011 03:46:04 6 C 6.24 g/m*3 6 C 0 km/h
1353 28-05-2011 03:58:04 6.2 C 6.4 g/m*3 6.2 C 0 km/h
1354 28-05-2011 04:10:04 7.1 C 6.79 g/m*3 7.1 C 0 km/h
1355 28-05-2011 04:22:04 7.5 C 6.88 g/m*3 7.5 C 0 km/h
1356 28-05-2011 04:34:04 7.9 C 6.98 g/m*3 7.9 C 0 km/h
1357 28-05-2011 04:46:04 8.1 C 6.74 g/m*3 8.1 C 0 km/h
1358 28-05-2011 04:58:04 8 C 6.53 g/m*3 8 C 0 km/h
1359 28-05-2011 05:10:04 8 C 6.45 g/m*3 8 C 0 km/h
1360 28-05-2011 05:22:04 7.8 C 6.45 g/m*3 7.8 C 0 km/h
1361 28-05-2011 05:34:04 8 C 6.45 g/m*3 8 C 0 km/h
1362 28-05-2011 05:46:04 8.1 C 6.49 g/m*3 8.1 C 0 km/h
1363 28-05-2011 05:58:04 8 C 6.45 g/m*3 8 C 0 km/h
1364 28-05-2011 06:10:04 8.2 C 6.53 g/m*3 8.2 C 0 km/h
1365 28-05-2011 06:22:04 8.2 C 6.53 g/m*3 8.2 C 0 km/h
1366 28-05-2011 06:34:04 8.5 C 6.66 g/m*3 8.5 C 0 km/h
1367 28-05-2011 06:46:04 8.8 C 6.61 g/m*3 8.8 C 0 km/h
1368 28-05-2011 06:58:04 8.9 C 6.48 g/m*3 8.9 C 0 km/h
1369 28-05-2011 07:10:04 9.3 C 6.56 g/m*3 9.3 C 0 km/h
1370 28-05-2011 07:22:05 9.7 C 6.55 g/m*3 9.7 C 0 km/h
1371 28-05-2011 07:34:05 9.9 C 6.44 g/m*3 9.9 C 0 km/h
1372 28-05-2011 07:46:05 9.5 C 6.28 g/m*3 9.5 C 0 km/h
1373 28-05-2011 07:58:05 9 C 6.26 g/m*3 9 C 0 km/h
1374 28-05-2011 08:10:05 9 C 6.52 g/m*3 9 C 0 km/h
1375 28-05-2011 08:22:05 9.4 C 6.87 g/m*3 9.4 C 0 km/h
Sensor: Nr:Datum:Temp:Abs-Feuchte:Windchill:Wind:
Aussen-T/F 1376 28-05-2011 08:34:03 9.8 C 7.05 g/m*3 9.8 C 0 km/h
1377 28-05-2011 08:46:02 10.3 C 7.09 g/m*3 10.3 C 0 km/h
1378 28-05-2011 08:58:02 11.2 C 7.1 g/m*3 11.2 C 0 km/h
1379 28-05-2011 09:10:02 12.4 C 6.99 g/m*3 12.4 C 0 km/h
1380 28-05-2011 09:22:02 12.8 C 6.61 g/m*3 12.8 C 0 km/h
1381 28-05-2011 09:34:02 13.9 C 6.35 g/m*3 13.9 C 0 km/h
1382 28-05-2011 09:46:01 14.6 C 6.01 g/m*3 14.6 C 0 km/h
1383 28-05-2011 09:58:01 14.8 C 5.7 g/m*3 14.8 C 0 km/h
1384 28-05-2011 10:10:02 15.3 C 5.75 g/m*3 15.3 C 0 km/h
1385 28-05-2011 10:22:02 15.4 C 5.39 g/m*3 15.4 C 0 km/h
1386 28-05-2011 10:34:02 15.6 C 5.45 g/m*3 15.6 C 0 km/h
1387 28-05-2011 10:46:02 15.7 C 5.08 g/m*3 15.7 C 0 km/h
1388 28-05-2011 10:58:02 16.5 C 5.34 g/m*3 16.5 C 0 km/h
1389 28-05-2011 11:10:02 16.6 C 5.09 g/m*3 16.6 C 0 km/h
1390 28-05-2011 11:22:02 16.9 C 5.18 g/m*3 16.9 C 0 km/h
1391 28-05-2011 11:34:01 17.2 C 5.27 g/m*3 17.2 C 0 km/h
1392 28-05-2011 11:46:02 18 C 5.53 g/m*3 18 C 0 km/h
1393 28-05-2011 11:58:02 19.1 C 5.41 g/m*3 19.1 C 0 km/h
1394 28-05-2011 12:10:01 18.5 C 5.38 g/m*3 18.5 C 0 km/h
1395 28-05-2011 12:22:01 18.6 C 5.25 g/m*3 18.6 C 0 km/h
1396 28-05-2011 12:34:02 19.2 C 5.11 g/m*3 19.2 C 0 km/h
1397 28-05-2011 12:46:02 19.4 C 5.17 g/m*3 19.4 C 0 km/h
1398 28-05-2011 12:58:02 19.7 C 5.09 g/m*3 19.7 C 0 km/h
1399 28-05-2011 13:10:02 19.5 C 5.03 g/m*3 19.5 C 0 km/h
1400 28-05-2011 13:22:02 20.5 C 4.98 g/m*3 20.5 C 0 km/h
Sensor: Nr:Datum:Temp:Abs-Feuchte:Windchill:Wind:
Aussen-T/F 1401 28-05-2011 13:34:02 21.9 C 4.82 g/m*3 21.9 C 0 km/h
1402 28-05-2011 13:46:02 23.6 C 4.25 g/m*3 23.6 C 0 km/h
1403 28-05-2011 13:58:02 23.1 C 4.13 g/m*3 23.1 C 0 km/h
1404 28-05-2011 14:10:02 24.9 C 4.58 g/m*3 24.9 C 0 km/h
1405 28-05-2011 14:22:02 23.5 C 4.44 g/m*3 23.5 C 0 km/h
1406 28-05-2011 14:34:02 24.2 C 4.4 g/m*3 24.2 C 0 km/h
1407 28-05-2011 14:46:02 24.3 C 4.43 g/m*3 24.3 C 0 km/h
1408 28-05-2011 14:58:02 25.2 C 4.66 g/m*3 25.2 C 0 km/h
1409 28-05-2011 15:10:02 22.4 C 3.97 g/m*3 22.4 C 0 km/h
1410 28-05-2011 15:22:02 22.7 C 4.04 g/m*3 22.7 C 0 km/h
1411 28-05-2011 15:34:02 21.7 C 3.82 g/m*3 21.7 C 0 km/h
1412 28-05-2011 15:46:02 26.4 C 4.98 g/m*3 26.4 C 0 km/h
1413 28-05-2011 15:58:02 22.7 C 4.24 g/m*3 22.7 C 0 km/h
1414 28-05-2011 16:10:02 24 C 4.35 g/m*3 24 C 0 km/h
1415 28-05-2011 16:22:03 23.9 C 4.33 g/m*3 23.9 C 0 km/h
1416 28-05-2011 16:34:02 24.5 C 4.48 g/m*3 24.5 C 0 km/h
1417 28-05-2011 16:46:02 26.2 C 4.92 g/m*3 26.2 C 0 km/h
1418 28-05-2011 16:58:02 25 C 4.6 g/m*3 25 C 0 km/h
1419 28-05-2011 17:10:02 24.6 C 4.5 g/m*3 24.6 C 0 km/h
1420 28-05-2011 17:22:02 22.9 C 4.09 g/m*3 22.9 C 0 km/h
1421 28-05-2011 17:34:02 25.4 C 4.71 g/m*3 25.4 C 0 km/h
1422 28-05-2011 17:46:02 25.5 C 4.73 g/m*3 25.5 C 0 km/h
1423 28-05-2011 17:58:02 24 C 4.35 g/m*3 24 C 0 km/h
1424 28-05-2011 18:10:02 23.2 C 4.16 g/m*3 23.2 C 0 km/h
1425 28-05-2011 18:22:02 23.8 C 4.3 g/m*3 23.8 C 0 km/h
Sensor: Nr:Datum:Temp:Abs-Feuchte:Windchill:Wind:
Aussen-T/F 1426 28-05-2011 18:34:02 23.4 C 4.21 g/m*3 23.4 C 0 km/h
1427 28-05-2011 18:46:01 22.4 C 4.17 g/m*3 22.4 C 0 km/h
1428 28-05-2011 18:58:01 20.7 C 4.32 g/m*3 20.7 C 0 km/h
1429 28-05-2011 19:10:02 21 C 4.58 g/m*3 21 C 0 km/h
1430 28-05-2011 19:22:01 23.3 C 4.18 g/m*3 23.3 C 0 km/h
1431 28-05-2011 19:34:02 20.6 C 4.3 g/m*3 20.6 C 0 km/h
1432 28-05-2011 19:46:02 20 C 4.67 g/m*3 20 C 0 km/h
1433 28-05-2011 19:58:02 20.3 C 4.57 g/m*3 20.3 C 0 km/h
1434 28-05-2011 20:10:02 19.2 C 4.95 g/m*3 19.2 C 0 km/h
1435 28-05-2011 20:22:02 19.2 C 4.62 g/m*3 19.2 C 0 km/h
1436 28-05-2011 20:34:02 18.9 C 4.7 g/m*3 18.9 C 0 km/h
1437 28-05-2011 20:46:02 18.5 C 4.75 g/m*3 18.5 C 0 km/h
1438 28-05-2011 20:58:02 18.1 C 4.64 g/m*3 18.1 C 0 km/h
1439 28-05-2011 21:10:01 17.8 C 4.86 g/m*3 17.8 C 0 km/h
1440 28-05-2011 21:22:01 17.6 C 4.95 g/m*3 17.6 C 0 km/h
1441 28-05-2011 21:34:02 17.5 C 4.92 g/m*3 17.5 C 0 km/h
1442 28-05-2011 21:46:02 16.7 C 5.12 g/m*3 16.7 C 0 km/h
1443 28-05-2011 21:58:02 15.7 C 5.35 g/m*3 15.7 C 0 km/h
1444 28-05-2011 22:11:03 14.9 C 5.61 g/m*3 14.9 C 0 km/h
1445 28-05-2011 22:23:03 14.6 C 5.63 g/m*3 14.6 C 0 km/h
1446 28-05-2011 22:35:03 14.6 C 5.76 g/m*3 14.6 C 0 km/h
1447 28-05-2011 22:47:03 14.8 C 5.83 g/m*3 14.8 C 0 km/h
1448 28-05-2011 22:59:03 14.7 C 5.67 g/m*3 14.7 C 0 km/h
1449 28-05-2011 23:11:03 14.4 C 5.81 g/m*3 14.4 C 0 km/h
1450 28-05-2011 23:23:03 14.1 C 5.95 g/m*3 14.1 C 0 km/h
Sensor: Nr:Datum:Temp:Abs-Feuchte:Windchill:Wind:
Aussen-T/F 1451 28-05-2011 23:35:03 14.3 C 5.77 g/m*3 14.3 C 0 km/h
1452 28-05-2011 23:47:03 14 C 5.79 g/m*3 14 C 0 km/h
1453 28-05-2011 23:59:03 13.9 C 6.11 g/m*3 13.9 C 0 km/h
1454 29-05-2011 00:11:03 13.8 C 5.96 g/m*3 13.8 C 0 km/h
1455 29-05-2011 00:23:03 13.6 C 6.12 g/m*3 13.6 C 0 km/h
1456 29-05-2011 00:35:03 13 C 5.9 g/m*3 13 C 0 km/h
1457 29-05-2011 00:47:03 12.7 C 6.23 g/m*3 12.7 C 0 km/h
1458 29-05-2011 00:59:03 12.7 C 6.23 g/m*3 12.7 C 0 km/h
1459 29-05-2011 01:11:03 12.6 C 6.08 g/m*3 12.6 C 0 km/h
1460 29-05-2011 01:23:04 12.9 C 6.42 g/m*3 12.9 C 0 km/h
1461 29-05-2011 01:35:04 13 C 6.12 g/m*3 13 C 0 km/h
1462 29-05-2011 01:47:04 13 C 6.12 g/m*3 13 C 0 km/h
1463 29-05-2011 01:59:04 12.9 C 6.31 g/m*3 12.9 C 0 km/h
1464 29-05-2011 02:11:04 13.1 C 6.16 g/m*3 13.1 C 0 km/h
1465 29-05-2011 02:23:04 13.2 C 6.32 g/m*3 13.2 C 0 km/h
1466 29-05-2011 02:35:04 13.2 C 6.32 g/m*3 13.2 C 0 km/h
1467 29-05-2011 02:47:04 13.2 C 6.43 g/m*3 13.2 C 0 km/h
1468 29-05-2011 02:59:04 13.1 C 6.28 g/m*3 13.1 C 0 km/h
1469 29-05-2011 03:11:04 12.7 C 6.35 g/m*3 12.7 C 0 km/h
1470 29-05-2011 03:23:04 12.4 C 6.34 g/m*3 12.4 C 0 km/h
1471 29-05-2011 03:35:04 12.9 C 6.31 g/m*3 12.9 C 0 km/h
1472 29-05-2011 03:47:04 13.2 C 6.2 g/m*3 13.2 C 0 km/h
1473 29-05-2011 03:59:04 13.4 C 6.04 g/m*3 13.4 C 0 km/h
1474 29-05-2011 04:11:04 13.3 C 6.01 g/m*3 13.3 C 0 km/h
1475 29-05-2011 04:23:04 13.4 C 6.04 g/m*3 13.4 C 0 km/h
Sensor: Nr:Datum:Temp:Abs-Feuchte:Windchill:Wind:
Aussen-T/F 1476 29-05-2011 04:35:04 13.2 C 5.97 g/m*3 13.2 C 0 km/h
1477 29-05-2011 04:47:04 13.2 C 6.09 g/m*3 13.2 C 0 km/h
1478 29-05-2011 04:59:04 13.1 C 6.05 g/m*3 13.1 C 0 km/h
1479 29-05-2011 05:11:04 12.8 C 6.05 g/m*3 12.8 C 0 km/h
1480 29-05-2011 05:23:05 12.2 C 6.15 g/m*3 12.2 C 0 km/h
1481 29-05-2011 05:35:05 11.7 C 6.38 g/m*3 11.7 C 0 km/h
1482 29-05-2011 05:47:05 11.6 C 6.44 g/m*3 11.6 C 0 km/h
1483 29-05-2011 05:59:05 11.7 C 6.59 g/m*3 11.7 C 0 km/h
1484 29-05-2011 06:11:05 11.8 C 6.53 g/m*3 11.8 C 0 km/h
1485 29-05-2011 06:23:05 12.1 C 6.43 g/m*3 12.1 C 0 km/h
1486 29-05-2011 06:35:05 12 C 6.61 g/m*3 12 C 0 km/h
1487 29-05-2011 06:47:05 12.2 C 6.69 g/m*3 12.2 C 0 km/h
1488 29-05-2011 06:59:05 12.3 C 6.84 g/m*3 12.3 C 0 km/h
1489 29-05-2011 07:11:05 12.5 C 7.04 g/m*3 12.5 C 0 km/h
1490 29-05-2011 07:23:05 12.6 C 6.97 g/m*3 12.6 C 0 km/h
1491 29-05-2011 07:35:05 12.6 C 7.08 g/m*3 12.6 C 0 km/h
1492 29-05-2011 07:47:05 12.8 C 7.28 g/m*3 12.8 C 0 km/h
1493 29-05-2011 07:59:05 13.5 C 6.67 g/m*3 13.5 C 0 km/h
1494 29-05-2011 08:11:05 14.6 C 6.38 g/m*3 14.6 C 0 km/h
1495 29-05-2011 08:23:05 14.2 C 6.11 g/m*3 14.2 C 0 km/h
1496 29-05-2011 08:35:05 14.7 C 6.3 g/m*3 14.7 C 0 km/h
1497 29-05-2011 08:47:05 15.2 C 6.23 g/m*3 15.2 C 0 km/h
1498 29-05-2011 08:59:05 15.2 C 6.23 g/m*3 15.2 C 0 km/h
1499 29-05-2011 09:11:05 15.4 C 6.31 g/m*3 15.4 C 0 km/h
1500 29-05-2011 09:23:03 15.6 C 6.38 g/m*3 15.6 C 0 km/h
Sensor: Nr:Datum:Temp:Abs-Feuchte:Windchill:Wind:
Aussen-T/F 1501 29-05-2011 09:35:03 16 C 6.13 g/m*3 16 C 0 km/h
1502 29-05-2011 09:47:02 16.7 C 6.25 g/m*3 16.7 C 0 km/h
1503 29-05-2011 09:59:02 16.4 C 6.28 g/m*3 16.4 C 0 km/h
1504 29-05-2011 10:11:03 16.8 C 6.43 g/m*3 16.8 C 0 km/h
1505 29-05-2011 10:23:02 16.8 C 6.29 g/m*3 16.8 C 0 km/h
1506 29-05-2011 10:35:02 17.6 C 6.45 g/m*3 17.6 C 0 km/h
1507 29-05-2011 10:47:02 17.6 C 6.15 g/m*3 17.6 C 0 km/h
1508 29-05-2011 10:59:02 18.4 C 6.29 g/m*3 18.4 C 0 km/h
1509 29-05-2011 11:11:01 19.5 C 6.38 g/m*3 19.5 C 0 km/h
1510 29-05-2011 11:23:02 19.6 C 6.25 g/m*3 19.6 C 0 km/h
1511 29-05-2011 11:35:02 20.7 C 6.48 g/m*3 20.7 C 0 km/h
1512 29-05-2011 11:47:02 20.1 C 6.43 g/m*3 20.1 C 0 km/h
1513 29-05-2011 11:59:02 20.4 C 6.19 g/m*3 20.4 C 0 km/h
1514 29-05-2011 12:11:03 20.4 C 6.19 g/m*3 20.4 C 0 km/h
1515 29-05-2011 12:23:02 20.8 C 6.34 g/m*3 20.8 C 0 km/h
1516 29-05-2011 12:35:02 21.5 C 6.22 g/m*3 21.5 C 0 km/h
1517 29-05-2011 12:47:01 20.8 C 6.16 g/m*3 20.8 C 0 km/h
1518 29-05-2011 12:59:01 21.3 C 6.15 g/m*3 21.3 C 0 km/h
1519 29-05-2011 13:11:02 22.5 C 5.99 g/m*3 22.5 C 0 km/h
1520 29-05-2011 13:23:01 25.6 C 5.48 g/m*3 25.6 C 0 km/h
1521 29-05-2011 13:35:02 24.6 C 4.95 g/m*3 24.6 C 0 km/h
1522 29-05-2011 13:47:01 27.5 C 5.29 g/m*3 27.5 C 0 km/h
1523 29-05-2011 13:59:01 25.6 C 4.76 g/m*3 25.6 C 0 km/h
1524 29-05-2011 14:11:02 27.5 C 5.29 g/m*3 27.5 C 0 km/h
1525 29-05-2011 14:23:01 29.5 C 5.9 g/m*3 29.5 C 0 km/h
Sensor: Nr:Datum:Temp:Abs-Feuchte:Windchill:Wind:
Aussen-T/F 1526 29-05-2011 14:35:02 28.5 C 5.59 g/m*3 28.5 C 0 km/h
1527 29-05-2011 14:47:01 27.5 C 5.29 g/m*3 27.5 C 0 km/h
1528 29-05-2011 14:59:01 28.2 C 5.5 g/m*3 28.2 C 0 km/h
1529 29-05-2011 15:11:02 29.2 C 5.81 g/m*3 29.2 C 0 km/h
1530 29-05-2011 15:23:02 28.6 C 5.62 g/m*3 28.6 C 0 km/h
1531 29-05-2011 15:35:01 29.1 C 5.78 g/m*3 29.1 C 0 km/h
1532 29-05-2011 15:47:02 29.4 C 5.87 g/m*3 29.4 C 0 km/h
1533 29-05-2011 15:59:02 28.6 C 5.62 g/m*3 28.6 C 0 km/h
1534 29-05-2011 16:11:01 29 C 5.74 g/m*3 29 C 0 km/h
1535 29-05-2011 16:23:02 30.4 C 6.2 g/m*3 30.4 C 0 km/h
1536 29-05-2011 16:35:01 28.2 C 5.5 g/m*3 28.2 C 0 km/h
1537 29-05-2011 16:47:03 30.5 C 6.23 g/m*3 30.5 C 0 km/h
1538 29-05-2011 16:59:03 30.2 C 6.13 g/m*3 30.2 C 0 km/h
1539 29-05-2011 17:11:02 30 C 6.06 g/m*3 30 C 0 km/h
1540 29-05-2011 17:23:02 28.9 C 5.71 g/m*3 28.9 C 0 km/h
1541 29-05-2011 17:35:02 29.6 C 5.94 g/m*3 29.6 C 0 km/h
1542 29-05-2011 17:47:02 29.7 C 5.97 g/m*3 29.7 C 0 km/h
1543 29-05-2011 17:59:02 29.8 C 6 g/m*3 29.8 C 0 km/h
1544 29-05-2011 18:11:01 29.1 C 5.78 g/m*3 29.1 C 0 km/h
1545 29-05-2011 18:23:02 29.5 C 5.9 g/m*3 29.5 C 0 km/h
1546 29-05-2011 18:35:02 29.1 C 5.78 g/m*3 29.1 C 0 km/h
1547 29-05-2011 18:47:02 28.9 C 5.71 g/m*3 28.9 C 0 km/h
1548 29-05-2011 18:59:02 28.4 C 5.56 g/m*3 28.4 C 0 km/h
1549 29-05-2011 19:11:03 27.6 C 5.32 g/m*3 27.6 C 0 km/h
1550 29-05-2011 19:23:02 27.7 C 5.35 g/m*3 27.7 C 0 km/h
Sensor: Nr:Datum:Temp:Abs-Feuchte:Windchill:Wind:
Aussen-T/F 1551 29-05-2011 19:35:02 27.6 C 5.32 g/m*3 27.6 C 0 km/h
1552 29-05-2011 19:47:01 25.5 C 5.68 g/m*3 25.5 C 0 km/h
1553 29-05-2011 19:59:01 24.6 C 5.85 g/m*3 24.6 C 0 km/h
1554 29-05-2011 20:11:02 23.8 C 6.45 g/m*3 23.8 C 0 km/h
1555 29-05-2011 20:23:01 23.2 C 6.65 g/m*3 23.2 C 0 km/h
1556 29-05-2011 20:35:02 22.1 C 7.03 g/m*3 22.1 C 0 km/h
1557 29-05-2011 20:47:01 21.2 C 7.23 g/m*3 21.2 C 0 km/h
1558 29-05-2011 20:59:01 20.3 C 7.21 g/m*3 20.3 C 0 km/h
1559 29-05-2011 21:11:02 19.5 C 7.22 g/m*3 19.5 C 0 km/h
1560 29-05-2011 21:23:01 18.9 C 7.13 g/m*3 18.9 C 0 km/h
1561 29-05-2011 21:35:02 18.3 C 7.19 g/m*3 18.3 C 0 km/h
1562 29-05-2011 21:47:01 17.9 C 7.18 g/m*3 17.9 C 0 km/h
1563 29-05-2011 21:59:01 17.5 C 7.31 g/m*3 17.5 C 0 km/h
1564 29-05-2011 22:11:02 17.2 C 7.18 g/m*3 17.2 C 0 km/h
1565 29-05-2011 22:24:02 16.6 C 7.2 g/m*3 16.6 C 0 km/h
1566 29-05-2011 22:36:02 16.1 C 6.99 g/m*3 16.1 C 0 km/h
1567 29-05-2011 22:48:02 15.8 C 7.13 g/m*3 15.8 C 0 km/h
1568 29-05-2011 23:00:02 15.7 C 7.23 g/m*3 15.7 C 0 km/h
1569 29-05-2011 23:12:02 15.3 C 7.05 g/m*3 15.3 C 0 km/h
1570 29-05-2011 23:24:02 14.9 C 7.01 g/m*3 14.9 C 0 km/h
1571 29-05-2011 23:36:02 14.6 C 7.01 g/m*3 14.6 C 0 km/h
1572 29-05-2011 23:48:02 14.4 C 7.05 g/m*3 14.4 C 0 km/h
1573 30-05-2011 00:00:02 14.2 C 7.08 g/m*3 14.2 C 0 km/h
1574 30-05-2011 00:12:02 14.1 C 7.04 g/m*3 14.1 C 0 km/h
1575 30-05-2011 00:24:02 13.9 C 7.19 g/m*3 13.9 C 0 km/h
Sensor: Nr:Datum:Temp:Abs-Feuchte:Windchill:Wind:
Aussen-T/F 1576 30-05-2011 00:36:02 13.7 C 7.1 g/m*3 13.7 C 0 km/h
1577 30-05-2011 00:48:02 13.6 C 7.3 g/m*3 13.6 C 0 km/h
1578 30-05-2011 01:00:02 13.3 C 7.28 g/m*3 13.3 C 0 km/h
1579 30-05-2011 01:12:02 13.5 C 7.49 g/m*3 13.5 C 0 km/h
1580 30-05-2011 01:24:02 13.2 C 7.35 g/m*3 13.2 C 0 km/h
1581 30-05-2011 01:36:02 13.1 C 7.42 g/m*3 13.1 C 0 km/h
1582 30-05-2011 01:48:02 12.9 C 7.33 g/m*3 12.9 C 0 km/h
1583 30-05-2011 02:00:02 12.5 C 7.37 g/m*3 12.5 C 0 km/h
1584 30-05-2011 02:12:02 12.2 C 7.12 g/m*3 12.2 C 0 km/h
1585 30-05-2011 02:24:03 11.9 C 7.31 g/m*3 11.9 C 0 km/h
1586 30-05-2011 02:36:03 11.7 C 7.43 g/m*3 11.7 C 0 km/h
1587 30-05-2011 02:48:03 11.6 C 7.38 g/m*3 11.6 C 0 km/h
1588 30-05-2011 03:00:03 11.3 C 7.45 g/m*3 11.3 C 0 km/h
1589 30-05-2011 03:12:03 11 C 7.31 g/m*3 11 C 0 km/h
1590 30-05-2011 03:24:03 11 C 7.51 g/m*3 11 C 0 km/h
1591 30-05-2011 03:36:03 10.7 C 7.56 g/m*3 10.7 C 0 km/h
1592 30-05-2011 03:48:03 10.7 C 7.56 g/m*3 10.7 C 0 km/h
1593 30-05-2011 04:00:03 10.6 C 7.52 g/m*3 10.6 C 0 km/h
1594 30-05-2011 04:12:03 10.6 C 7.52 g/m*3 10.6 C 0 km/h
1595 30-05-2011 04:24:03 10.4 C 7.52 g/m*3 10.4 C 0 km/h
1596 30-05-2011 04:36:03 10.1 C 7.38 g/m*3 10.1 C 0 km/h
1597 30-05-2011 04:48:03 9.9 C 7.38 g/m*3 9.9 C 0 km/h
1598 30-05-2011 05:00:03 9.8 C 7.33 g/m*3 9.8 C 0 km/h
1599 30-05-2011 05:12:03 9.7 C 7.38 g/m*3 9.7 C 0 km/h
1600 30-05-2011 05:24:03 9.6 C 7.42 g/m*3 9.6 C 0 km/h
Sensor: Nr:Datum:Temp:Abs-Feuchte:Windchill:Wind:
Aussen-T/F 1601 30-05-2011 05:36:03 9.4 C 7.33 g/m*3 9.4 C 0 km/h
1602 30-05-2011 05:48:03 9.3 C 7.28 g/m*3 9.3 C 0 km/h
1603 30-05-2011 06:00:03 9.4 C 7.42 g/m*3 9.4 C 0 km/h
1604 30-05-2011 06:12:03 9.5 C 7.55 g/m*3 9.5 C 0 km/h
1605 30-05-2011 06:24:04 9.5 C 7.65 g/m*3 9.5 C 0 km/h
1606 30-05-2011 06:36:02 9.7 C 7.74 g/m*3 9.7 C 0 km/h
1607 30-05-2011 06:48:02 9.9 C 7.84 g/m*3 9.9 C 0 km/h
1608 30-05-2011 07:00:02 10.1 C 7.85 g/m*3 10.1 C 0 km/h
1609 30-05-2011 07:12:02 10.1 C 7.85 g/m*3 10.1 C 0 km/h
1610 30-05-2011 07:24:02 10.3 C 7.95 g/m*3 10.3 C 0 km/h
1611 30-05-2011 07:36:01 10.5 C 8.05 g/m*3 10.5 C 0 km/h
1612 30-05-2011 07:48:02 10.7 C 8.15 g/m*3 10.7 C 0 km/h
1613 30-05-2011 08:00:02 11 C 8.21 g/m*3 11 C 0 km/h
1614 30-05-2011 08:12:01 11.7 C 8.68 g/m*3 11.7 C 0 km/h
1615 30-05-2011 08:24:02 12.2 C 8.74 g/m*3 12.2 C 0 km/h
1616 30-05-2011 08:36:02 12.7 C 8.91 g/m*3 12.7 C 0 km/h
1617 30-05-2011 08:48:02 13.3 C 8.9 g/m*3 13.3 C 0 km/h
1618 30-05-2011 09:00:02 13.9 C 9.11 g/m*3 13.9 C 0 km/h
1619 30-05-2011 09:12:02 14.5 C 9.08 g/m*3 14.5 C 0 km/h
1620 30-05-2011 09:24:03 15.3 C 9.01 g/m*3 15.3 C 0 km/h
1621 30-05-2011 09:36:02 16 C 8.86 g/m*3 16 C 0 km/h
1622 30-05-2011 09:48:02 16.8 C 9.01 g/m*3 16.8 C 0 km/h
1623 30-05-2011 10:00:02 17.5 C 9.24 g/m*3 17.5 C 0 km/h
1624 30-05-2011 10:12:02 18.8 C 9.18 g/m*3 18.8 C 0 km/h
1625 30-05-2011 10:24:02 19.8 C 9.22 g/m*3 19.8 C 0 km/h
Sensor: Nr:Datum:Temp:Abs-Feuchte:Windchill:Wind:
Aussen-T/F 1626 30-05-2011 10:36:02 20.1 C 9.21 g/m*3 20.1 C 0 km/h
1627 30-05-2011 10:48:02 20.9 C 8.74 g/m*3 20.9 C 0 km/h
1628 30-05-2011 11:00:02 21.8 C 8.06 g/m*3 21.8 C 0 km/h
1629 30-05-2011 11:12:02 23.4 C 7.36 g/m*3 23.4 C 0 km/h
1630 30-05-2011 11:24:02 24.3 C 6.64 g/m*3 24.3 C 0 km/h
1631 30-05-2011 11:36:02 24.5 C 6.94 g/m*3 24.5 C 0 km/h
1632 30-05-2011 11:48:02 24.9 C 6.64 g/m*3 24.9 C 0 km/h
1633 30-05-2011 12:00:02 25.1 C 6.94 g/m*3 25.1 C 0 km/h
1634 30-05-2011 12:12:01 25.8 C 6.02 g/m*3 25.8 C 0 km/h
1635 30-05-2011 12:24:02 26.5 C 5.26 g/m*3 26.5 C 0 km/h
1636 30-05-2011 12:36:02 26.2 C 5.17 g/m*3 26.2 C 0 km/h
1637 30-05-2011 12:48:02 26.7 C 5.57 g/m*3 26.7 C 0 km/h
1638 30-05-2011 13:00:03 27.2 C 5.2 g/m*3 27.2 C 0 km/h
1639 30-05-2011 13:12:02 27.6 C 5.32 g/m*3 27.6 C 0 km/h
1640 30-05-2011 13:24:02 30.9 C 6.37 g/m*3 30.9 C 0 km/h
1641 30-05-2011 13:36:03 31.7 C 6.64 g/m*3 31.7 C 0 km/h
1642 30-05-2011 13:48:02 32.5 C 6.93 g/m*3 32.5 C 0 km/h
1643 30-05-2011 14:00:02 31.8 C 6.68 g/m*3 31.8 C 0 km/h
1644 30-05-2011 14:12:02 33.3 C 7.23 g/m*3 33.3 C 0 km/h
1645 30-05-2011 14:24:02 31.8 C 6.68 g/m*3 31.8 C 0 km/h
1646 30-05-2011 14:36:02 32.9 C 7.08 g/m*3 32.9 C 0 km/h
1647 30-05-2011 14:48:02 31.9 C 6.72 g/m*3 31.9 C 0 km/h
1648 30-05-2011 15:00:02 32.4 C 6.9 g/m*3 32.4 C 0 km/h
1649 30-05-2011 15:12:02 33.6 C 7.35 g/m*3 33.6 C 0 km/h
1650 30-05-2011 15:24:02 33.5 C 7.31 g/m*3 33.5 C 0 km/h
Sensor: Nr:Datum:Temp:Abs-Feuchte:Windchill:Wind:
Aussen-T/F 1651 30-05-2011 15:36:02 33.7 C 7.39 g/m*3 33.7 C 0 km/h
1652 30-05-2011 15:48:02 33.3 C 7.23 g/m*3 33.3 C 0 km/h
1653 30-05-2011 16:00:02 32.9 C 7.08 g/m*3 32.9 C 0 km/h
1654 30-05-2011 16:12:02 33.4 C 7.27 g/m*3 33.4 C 0 km/h
1655 30-05-2011 16:24:02 33.3 C 7.23 g/m*3 33.3 C 0 km/h
1656 30-05-2011 16:36:02 33.1 C 7.16 g/m*3 33.1 C 0 km/h
1657 30-05-2011 16:48:01 33.7 C 7.39 g/m*3 33.7 C 0 km/h
1658 30-05-2011 17:00:01 32.6 C 6.97 g/m*3 32.6 C 0 km/h
1659 30-05-2011 17:12:01 31.5 C 6.57 g/m*3 31.5 C 0 km/h
1660 30-05-2011 17:24:01 32.3 C 6.86 g/m*3 32.3 C 0 km/h
1661 30-05-2011 17:36:01 31.3 C 6.5 g/m*3 31.3 C 0 km/h
1662 30-05-2011 17:48:12 31.4 C 6.54 g/m*3 31.4 C 0 km/h
1663 30-05-2011 18:00:12 33 C 7.12 g/m*3 33 C 0 km/h
1664 30-05-2011 18:12:02 33.8 C 7.43 g/m*3 33.8 C 0 km/h
1665 30-05-2011 18:24:02 33.7 C 7.39 g/m*3 33.7 C 0 km/h
1666 30-05-2011 18:36:02 30.9 C 6.37 g/m*3 30.9 C 0 km/h
1667 30-05-2011 18:48:02 32.3 C 6.86 g/m*3 32.3 C 0 km/h
1668 30-05-2011 19:00:02 32.2 C 6.82 g/m*3 32.2 C 0 km/h
1669 30-05-2011 19:12:02 32 C 6.75 g/m*3 32 C 0 km/h
1670 30-05-2011 19:24:02 32 C 6.75 g/m*3 32 C 0 km/h
1671 30-05-2011 19:36:02 31.2 C 6.47 g/m*3 31.2 C 0 km/h
1672 30-05-2011 19:48:02 29.7 C 5.97 g/m*3 29.7 C 0 km/h
1673 30-05-2011 20:00:02 29.1 C 6.35 g/m*3 29.1 C 0 km/h
1674 30-05-2011 20:12:02 28.2 C 6.05 g/m*3 28.2 C 0 km/h
1675 30-05-2011 20:24:03 27.1 C 7.25 g/m*3 27.1 C 0 km/h
Sensor: Nr:Datum:Temp:Abs-Feuchte:Windchill:Wind:
Aussen-T/F 1676 30-05-2011 20:36:02 25.9 C 7.26 g/m*3 25.9 C 0 km/h
1677 30-05-2011 20:48:02 24.3 C 7.3 g/m*3 24.3 C 0 km/h
1678 30-05-2011 21:00:02 23.7 C 7.27 g/m*3 23.7 C 0 km/h
1679 30-05-2011 21:12:02 23.2 C 7.07 g/m*3 23.2 C 0 km/h
1680 30-05-2011 21:24:02 22.5 C 6.99 g/m*3 22.5 C 0 km/h
1681 30-05-2011 21:36:02 22 C 6.99 g/m*3 22 C 0 km/h
1682 30-05-2011 21:48:02 21.5 C 7.17 g/m*3 21.5 C 0 km/h
1683 30-05-2011 22:00:02 21.1 C 7.19 g/m*3 21.1 C 0 km/h
1684 30-05-2011 22:12:02 20.9 C 7.29 g/m*3 20.9 C 0 km/h
1685 30-05-2011 22:24:01 20.7 C 7.2 g/m*3 20.7 C 0 km/h
1686 30-05-2011 22:36:02 20.7 C 7.2 g/m*3 20.7 C 0 km/h
1687 30-05-2011 22:48:02 21.2 C 7.04 g/m*3 21.2 C 0 km/h
1688 30-05-2011 23:00:02 20.5 C 7.12 g/m*3 20.5 C 0 km/h
1689 30-05-2011 23:12:02 20.8 C 7.06 g/m*3 20.8 C 0 km/h
1690 30-05-2011 23:24:02 20.1 C 7.13 g/m*3 20.1 C 0 km/h
1691 30-05-2011 23:36:02 19.3 C 7.13 g/m*3 19.3 C 0 km/h
1692 30-05-2011 23:48:02 19.5 C 7.22 g/m*3 19.5 C 0 km/h
1693 31-05-2011 00:00:02 19.8 C 7.17 g/m*3 19.8 C 0 km/h
1694 31-05-2011 00:12:02 19.1 C 7.21 g/m*3 19.1 C 0 km/h
1695 31-05-2011 00:24:02 18.6 C 7.32 g/m*3 18.6 C 0 km/h
1696 31-05-2011 00:36:02 17.9 C 7.48 g/m*3 17.9 C 0 km/h
1697 31-05-2011 00:48:02 17.4 C 7.41 g/m*3 17.4 C 0 km/h
1698 31-05-2011 01:00:02 16.9 C 7.48 g/m*3 16.9 C 0 km/h
1699 31-05-2011 01:12:02 16.6 C 7.49 g/m*3 16.6 C 0 km/h
1700 31-05-2011 01:24:02 16.4 C 7.4 g/m*3 16.4 C 0 km/h
Sensor: Nr:Datum:Temp:Abs-Feuchte:Windchill:Wind:
Aussen-T/F 1701 31-05-2011 01:36:03 16.3 C 7.49 g/m*3 16.3 C 0 km/h
1702 31-05-2011 01:48:03 16.8 C 8.01 g/m*3 16.8 C 0 km/h
1703 31-05-2011 02:00:03 16.6 C 8.05 g/m*3 16.6 C 0 km/h
1704 31-05-2011 02:12:03 16.5 C 7.86 g/m*3 16.5 C 0 km/h
1705 31-05-2011 02:24:03 17.2 C 7.61 g/m*3 17.2 C 0 km/h
1706 31-05-2011 02:36:03 17.6 C 7.8 g/m*3 17.6 C 0 km/h
1707 31-05-2011 02:48:03 17.3 C 7.81 g/m*3 17.3 C 0 km/h
1708 31-05-2011 03:00:03 16.9 C 8.2 g/m*3 16.9 C 0 km/h
1709 31-05-2011 03:12:03 17.2 C 8.05 g/m*3 17.2 C 0 km/h
1710 31-05-2011 03:24:03 17.7 C 7.85 g/m*3 17.7 C 0 km/h
1711 31-05-2011 03:36:03 17.3 C 7.81 g/m*3 17.3 C 0 km/h
1712 31-05-2011 03:48:03 15.9 C 7.85 g/m*3 15.9 C 0 km/h
1713 31-05-2011 04:00:03 15.2 C 7.79 g/m*3 15.2 C 0 km/h
1714 31-05-2011 04:12:03 15.7 C 8.16 g/m*3 15.7 C 0 km/h
1715 31-05-2011 04:24:03 15.9 C 8.13 g/m*3 15.9 C 0 km/h
1716 31-05-2011 04:36:03 15.5 C 8.2 g/m*3 15.5 C 0 km/h
1717 31-05-2011 04:48:03 15.4 C 8.28 g/m*3 15.4 C 0 km/h
1718 31-05-2011 05:00:03 15.4 C 8.15 g/m*3 15.4 C 0 km/h
1719 31-05-2011 05:12:03 15.3 C 8.23 g/m*3 15.3 C 0 km/h
1720 31-05-2011 05:24:03 15.7 C 8.43 g/m*3 15.7 C 0 km/h
1721 31-05-2011 05:36:04 15.8 C 8.35 g/m*3 15.8 C 0 km/h
1722 31-05-2011 05:48:04 15.3 C 8.23 g/m*3 15.3 C 0 km/h
1723 31-05-2011 06:00:04 15 C 8.33 g/m*3 15 C 0 km/h
1724 31-05-2011 06:12:04 15.4 C 8.41 g/m*3 15.4 C 0 km/h
1725 31-05-2011 06:24:04 16.4 C 8.51 g/m*3 16.4 C 0 km/h
Sensor: Nr:Datum:Temp:Abs-Feuchte:Windchill:Wind:
Aussen-T/F 1726 31-05-2011 06:36:04 15.9 C 8.4 g/m*3 15.9 C 0 km/h
1727 31-05-2011 06:48:04 15.9 C 8.8 g/m*3 15.9 C 0 km/h
1728 31-05-2011 07:00:04 16.8 C 8.72 g/m*3 16.8 C 0 km/h
1729 31-05-2011 07:12:04 17.2 C 8.79 g/m*3 17.2 C 0 km/h
1730 31-05-2011 07:24:01 17.7 C 8.6 g/m*3 17.7 C 0 km/h
1731 31-05-2011 07:36:02 18.3 C 8.29 g/m*3 18.3 C 0 km/h
1732 31-05-2011 07:48:01 18.1 C 8.5 g/m*3 18.1 C 0 km/h
1733 31-05-2011 08:00:01 18 C 8.75 g/m*3 18 C 0 km/h
1734 31-05-2011 08:12:02 18.1 C 8.81 g/m*3 18.1 C 0 km/h
1735 31-05-2011 08:24:01 18.6 C 8.59 g/m*3 18.6 C 0 km/h
1736 31-05-2011 08:36:02 19.3 C 8.29 g/m*3 19.3 C 0 km/h
1737 31-05-2011 08:48:01 19.8 C 8.2 g/m*3 19.8 C 0 km/h
1738 31-05-2011 09:00:01 19.1 C 8.03 g/m*3 19.1 C 0 km/h
1739 31-05-2011 09:12:02 18 C 8.29 g/m*3 18 C 0 km/h
1740 31-05-2011 09:24:01 16.4 C 9.07 g/m*3 16.4 C 0 km/h
1741 31-05-2011 09:36:01 16 C 9.95 g/m*3 16 C 0 km/h
1742 31-05-2011 09:48:01 16.1 C 10.55 g/m*3 16.1 C 0 km/h
1743 31-05-2011 10:00:01 16.3 C 10.68 g/m*3 16.3 C 0 km/h
1744 31-05-2011 10:12:01 17.1 C 10.34 g/m*3 17.1 C 0 km/h
1745 31-05-2011 10:24:02 17.5 C 10.14 g/m*3 17.5 C 0 km/h
1746 31-05-2011 10:36:01 17.7 C 10.11 g/m*3 17.7 C 0 km/h
1747 31-05-2011 10:48:01 17.3 C 9.87 g/m*3 17.3 C 0 km/h
1748 31-05-2011 11:00:01 16.6 C 10.03 g/m*3 16.6 C 0 km/h
1749 31-05-2011 11:12:01 15.8 C 10.23 g/m*3 15.8 C 0 km/h
1750 31-05-2011 11:24:02 15.1 C 10.32 g/m*3 15.1 C 0 km/h
Sensor: Nr:Datum:Temp:Abs-Feuchte:Windchill:Wind:
Aussen-T/F 1751 31-05-2011 11:36:01 14.4 C 10.14 g/m*3 14.4 C 0 km/h
1752 31-05-2011 11:48:02 14.1 C 10.07 g/m*3 14.1 C 0 km/h
1753 31-05-2011 12:00:02 14.4 C 10.38 g/m*3 14.4 C 0 km/h
1754 31-05-2011 12:12:01 14.2 C 10.14 g/m*3 14.2 C 0 km/h
1755 31-05-2011 12:24:02 14.4 C 10.38 g/m*3 14.4 C 0 km/h
1756 31-05-2011 12:36:01 14.4 C 10.38 g/m*3 14.4 C 0 km/h
1757 31-05-2011 12:48:02 14.4 C 10.38 g/m*3 14.4 C 0 km/h
1758 31-05-2011 13:00:02 14.4 C 10.38 g/m*3 14.4 C 0 km/h
1759 31-05-2011 13:12:01 14.8 C 10.64 g/m*3 14.8 C 0 km/h
1760 31-05-2011 13:24:02 15.1 C 10.71 g/m*3 15.1 C 0 km/h
1761 31-05-2011 13:36:01 14.9 C 10.71 g/m*3 14.9 C 0 km/h
1762 31-05-2011 13:48:02 14.7 C 10.58 g/m*3 14.7 C 0 km/h
1763 31-05-2011 14:00:02 14.7 C 10.58 g/m*3 14.7 C 0 km/h
1764 31-05-2011 14:12:01 15 C 10.64 g/m*3 15 C 0 km/h
1765 31-05-2011 14:24:01 15.3 C 10.84 g/m*3 15.3 C 0 km/h
1766 31-05-2011 14:36:02 15.1 C 10.06 g/m*3 15.1 C 0 km/h
1767 31-05-2011 14:48:01 14.8 C 10.26 g/m*3 14.8 C 0 km/h
1768 31-05-2011 15:00:01 14.6 C 10.26 g/m*3 14.6 C 0 km/h
1769 31-05-2011 15:12:02 14.5 C 10.2 g/m*3 14.5 C 0 km/h
1770 31-05-2011 15:24:01 15.3 C 10.32 g/m*3 15.3 C 0 km/h
1771 31-05-2011 15:36:02 15.4 C 10.25 g/m*3 15.4 C 0 km/h
1772 31-05-2011 15:48:01 14.4 C 9.89 g/m*3 14.4 C 0 km/h
1773 31-05-2011 16:00:01 14.2 C 9.52 g/m*3 14.2 C 0 km/h
1774 31-05-2011 16:12:02 14.2 C 9.65 g/m*3 14.2 C 0 km/h
1775 31-05-2011 16:24:01 14 C 9.41 g/m*3 14 C 0 km/h
Sensor: Nr:Datum:Temp:Abs-Feuchte:Windchill:Wind:
Aussen-T/F 1776 31-05-2011 16:36:01 13.8 C 9.53 g/m*3 13.8 C 0 km/h
1777 31-05-2011 16:48:01 13.7 C 9.59 g/m*3 13.7 C 0 km/h
1778 31-05-2011 17:00:01 13.3 C 9.36 g/m*3 13.3 C 0 km/h
1779 31-05-2011 17:12:02 13.2 C 9.19 g/m*3 13.2 C 0 km/h
1780 31-05-2011 17:24:01 12.8 C 8.96 g/m*3 12.8 C 0 km/h
1781 31-05-2011 17:36:01 13 C 9.07 g/m*3 13 C 0 km/h
1782 31-05-2011 17:48:02 12.7 C 9.02 g/m*3 12.7 C 0 km/h
1783 31-05-2011 18:00:02 12.6 C 8.96 g/m*3 12.6 C 0 km/h
1784 31-05-2011 18:12:01 12.4 C 8.74 g/m*3 12.4 C 0 km/h
1785 31-05-2011 18:24:02 12.5 C 8.69 g/m*3 12.5 C 0 km/h
1786 31-05-2011 18:36:01 12.3 C 8.58 g/m*3 12.3 C 0 km/h
1787 31-05-2011 18:48:02 12.2 C 8.52 g/m*3 12.2 C 0 km/h
1788 31-05-2011 19:00:02 12.2 C 8.42 g/m*3 12.2 C 0 km/h
1789 31-05-2011 19:12:01 12.2 C 8.42 g/m*3 12.2 C 0 km/h
1790 31-05-2011 19:24:01 12 C 8.42 g/m*3 12 C 0 km/h
1791 31-05-2011 19:36:01 11.9 C 8.58 g/m*3 11.9 C 0 km/h
1792 31-05-2011 19:48:01 11.7 C 8.68 g/m*3 11.7 C 0 km/h
1793 31-05-2011 20:00:02 11.8 C 8.84 g/m*3 11.8 C 0 km/h
1794 31-05-2011 20:12:01 11.6 C 8.83 g/m*3 11.6 C 0 km/h
1795 31-05-2011 20:24:01 11.8 C 9.05 g/m*3 11.8 C 0 km/h
1796 31-05-2011 20:36:02 11.6 C 8.83 g/m*3 11.6 C 0 km/h
1797 31-05-2011 20:48:01 11.6 C 8.83 g/m*3 11.6 C 0 km/h
1798 31-05-2011 21:00:01 11.3 C 8.57 g/m*3 11.3 C 0 km/h
1799 31-05-2011 21:12:02 11.2 C 8.51 g/m*3 11.2 C 0 km/h
1800 31-05-2011 21:24:01 11 C 8.31 g/m*3 11 C 0 km/h
Sensor: Nr:Datum:Temp:Abs-Feuchte:Windchill:Wind:
Aussen-T/F 1801 31-05-2011 21:36:02 10.8 C 8.3 g/m*3 10.8 C 0 km/h
1802 31-05-2011 21:48:01 10.9 C 8.45 g/m*3 10.9 C 0 km/h
1803 31-05-2011 22:00:01 10.8 C 8.5 g/m*3 10.8 C 0 km/h
1804 31-05-2011 22:12:02 10.8 C 8.6 g/m*3 10.8 C 0 km/h
1805 31-05-2011 22:24:01 10.7 C 8.55 g/m*3 10.7 C 0 km/h
1806 31-05-2011 22:36:01 10.7 C 8.64 g/m*3 10.7 C 0 km/h
1807 31-05-2011 22:49:05 10.7 C 8.64 g/m*3 10.7 C 0 km/h
1808 31-05-2011 23:01:05 10.6 C 8.59 g/m*3 10.6 C 0 km/h
1809 31-05-2011 23:13:05 10.6 C 8.59 g/m*3 10.6 C 0 km/h
1810 31-05-2011 23:25:05 10.7 C 8.64 g/m*3 10.7 C 0 km/h
1811 31-05-2011 23:37:05 10.7 C 8.64 g/m*3 10.7 C 0 km/h
1812 31-05-2011 23:49:05 10.7 C 8.64 g/m*3 10.7 C 0 km/h
1813 01-06-2011 00:01:05 10.5 C 8.53 g/m*3 10.5 C 0 km/h
1814 01-06-2011 00:13:05 10.6 C 8.59 g/m*3 10.6 C 0 km/h
1815 01-06-2011 00:25:05 10.7 C 8.55 g/m*3 10.7 C 0 km/h
1816 01-06-2011 00:37:05 10.8 C 8.6 g/m*3 10.8 C 0 km/h
1817 01-06-2011 00:49:05 10.6 C 8.49 g/m*3 10.6 C 0 km/h
1818 01-06-2011 01:01:05 10.5 C 8.53 g/m*3 10.5 C 0 km/h
1819 01-06-2011 01:13:05 10.4 C 8.48 g/m*3 10.4 C 0 km/h
1820 01-06-2011 01:25:05 10.5 C 8.53 g/m*3 10.5 C 0 km/h
1821 01-06-2011 01:37:05 10.5 C 8.53 g/m*3 10.5 C 0 km/h
1822 01-06-2011 01:49:05 10.3 C 8.43 g/m*3 10.3 C 0 km/h
1823 01-06-2011 02:01:06 10.4 C 8.48 g/m*3 10.4 C 0 km/h
1824 01-06-2011 02:13:06 10.4 C 8.48 g/m*3 10.4 C 0 km/h
1825 01-06-2011 02:25:06 10.1 C 8.32 g/m*3 10.1 C 0 km/h
Sensor: Nr:Datum:Temp:Abs-Feuchte:Windchill:Wind:
Aussen-T/F 1826 01-06-2011 02:37:06 10.3 C 8.43 g/m*3 10.3 C 0 km/h
1827 01-06-2011 02:49:06 10.2 C 8.37 g/m*3 10.2 C 0 km/h
1828 01-06-2011 03:01:06 10.3 C 8.43 g/m*3 10.3 C 0 km/h
1829 01-06-2011 03:13:06 10.4 C 8.48 g/m*3 10.4 C 0 km/h
1830 01-06-2011 03:25:06 10.2 C 8.09 g/m*3 10.2 C 0 km/h
1831 01-06-2011 03:37:06 10.1 C 7.85 g/m*3 10.1 C 0 km/h
1832 01-06-2011 03:49:06 10.1 C 7.75 g/m*3 10.1 C 0 km/h
1833 01-06-2011 04:01:06 10 C 7.71 g/m*3 10 C 0 km/h
1834 01-06-2011 04:13:06 10.1 C 7.66 g/m*3 10.1 C 0 km/h
1835 01-06-2011 04:25:06 10.1 C 7.56 g/m*3 10.1 C 0 km/h
1836 01-06-2011 04:37:06 9.8 C 7.52 g/m*3 9.8 C 0 km/h
1837 01-06-2011 04:49:06 9.7 C 7.65 g/m*3 9.7 C 0 km/h
1838 01-06-2011 05:01:06 9.5 C 7.55 g/m*3 9.5 C 0 km/h
1839 01-06-2011 05:13:06 9.6 C 7.69 g/m*3 9.6 C 0 km/h
1840 01-06-2011 05:25:06 9.5 C 7.65 g/m*3 9.5 C 0 km/h
1841 01-06-2011 05:37:06 9.5 C 7.65 g/m*3 9.5 C 0 km/h
1842 01-06-2011 05:49:06 9.5 C 7.65 g/m*3 9.5 C 0 km/h
1843 01-06-2011 06:01:06 9.7 C 7.74 g/m*3 9.7 C 0 km/h
1844 01-06-2011 06:13:07 9.8 C 7.79 g/m*3 9.8 C 0 km/h
1845 01-06-2011 06:25:07 9.8 C 7.7 g/m*3 9.8 C 0 km/h
1846 01-06-2011 06:37:07 9.9 C 7.66 g/m*3 9.9 C 0 km/h
1847 01-06-2011 06:49:07 10.1 C 7.47 g/m*3 10.1 C 0 km/h
1848 01-06-2011 07:01:07 10.3 C 7.37 g/m*3 10.3 C 0 km/h
1849 01-06-2011 07:13:07 10.4 C 7.32 g/m*3 10.4 C 0 km/h
1850 01-06-2011 07:25:03 10.5 C 7.18 g/m*3 10.5 C 0 km/h
Sensor: Nr:Datum:Temp:Abs-Feuchte:Windchill:Wind:
Aussen-T/F 1851 01-06-2011 07:37:04 10.6 C 7.12 g/m*3 10.6 C 0 km/h
1852 01-06-2011 07:49:02 10.4 C 7.04 g/m*3 10.4 C 0 km/h
1853 01-06-2011 08:01:01 10.2 C 6.95 g/m*3 10.2 C 0 km/h
1854 01-06-2011 08:13:01 10.6 C 7.12 g/m*3 10.6 C 0 km/h
1855 01-06-2011 08:25:02 11 C 7.01 g/m*3 11 C 0 km/h
1856 01-06-2011 08:37:01 11.3 C 7.04 g/m*3 11.3 C 0 km/h
1857 01-06-2011 08:49:01 11.5 C 6.92 g/m*3 11.5 C 0 km/h
1858 01-06-2011 09:01:02 11.6 C 6.86 g/m*3 11.6 C 0 km/h
1859 01-06-2011 09:13:02 11.9 C 6.88 g/m*3 11.9 C 0 km/h
1860 01-06-2011 09:25:02 12 C 6.71 g/m*3 12 C 0 km/h
1861 01-06-2011 09:37:02 12.4 C 6.77 g/m*3 12.4 C 0 km/h
1862 01-06-2011 09:49:02 12.2 C 6.58 g/m*3 12.2 C 0 km/h
1863 01-06-2011 10:01:01 12.2 C 6.58 g/m*3 12.2 C 0 km/h
1864 01-06-2011 10:13:01 12.7 C 6.46 g/m*3 12.7 C 0 km/h
1865 01-06-2011 10:25:02 12.7 C 5.9 g/m*3 12.7 C 0 km/h
1866 01-06-2011 10:37:02 13.2 C 6.32 g/m*3 13.2 C 0 km/h
1867 01-06-2011 10:49:02 13.2 C 6.32 g/m*3 13.2 C 0 km/h
1868 01-06-2011 11:01:02 13.2 C 6.32 g/m*3 13.2 C 0 km/h
1869 01-06-2011 11:13:02 13.2 C 6.32 g/m*3 13.2 C 0 km/h
1870 01-06-2011 11:25:02 13.2 C 6.32 g/m*3 13.2 C 0 km/h
1871 01-06-2011 11:37:02 13.2 C 6.32 g/m*3 13.2 C 0 km/h
1872 01-06-2011 11:49:02 16 C 5.45 g/m*3 16 C 0 km/h
1873 01-06-2011 12:01:03 16 C 5.45 g/m*3 16 C 0 km/h
1874 01-06-2011 12:13:03 16 C 5.45 g/m*3 16 C 0 km/h
1875 01-06-2011 12:25:02 17.1 C 5.68 g/m*3 17.1 C 0 km/h
Sensor: Nr:Datum:Temp:Abs-Feuchte:Windchill:Wind:
Aussen-T/F 1876 01-06-2011 12:37:02 17.5 C 5.52 g/m*3 17.5 C 0 km/h
1877 01-06-2011 12:49:02 18.1 C 5.56 g/m*3 18.1 C 0 km/h
1878 01-06-2011 13:01:01 18.7 C 5.76 g/m*3 18.7 C 0 km/h
1879 01-06-2011 13:13:01 17.7 C 5.28 g/m*3 17.7 C 0 km/h
1880 01-06-2011 13:25:01 17.7 C 5.28 g/m*3 17.7 C 0 km/h
1881 01-06-2011 13:37:01 18.5 C 5.54 g/m*3 18.5 C 0 km/h
1882 01-06-2011 13:49:02 18.5 C 5.54 g/m*3 18.5 C 0 km/h
1883 01-06-2011 14:01:02 18.5 C 5.54 g/m*3 18.5 C 0 km/h
1884 01-06-2011 14:13:02 18.5 C 5.54 g/m*3 18.5 C 0 km/h
1885 01-06-2011 14:25:02 20.6 C 5.01 g/m*3 20.6 C 0 km/h
1886 01-06-2011 14:37:03 21 C 4.76 g/m*3 21 C 0 km/h
1887 01-06-2011 14:49:02 19.8 C 4.95 g/m*3 19.8 C 0 km/h
1888 01-06-2011 15:01:03 20.3 C 5.1 g/m*3 20.3 C 0 km/h
1889 01-06-2011 15:13:03 23 C 4.93 g/m*3 23 C 0 km/h
1890 01-06-2011 15:25:02 20.7 C 4.86 g/m*3 20.7 C 0 km/h
1891 01-06-2011 15:37:02 20.5 C 4.98 g/m*3 20.5 C 0 km/h
1892 01-06-2011 15:49:02 21.3 C 4.66 g/m*3 21.3 C 0 km/h
1893 01-06-2011 16:01:03 22.1 C 3.9 g/m*3 22.1 C 0 km/h
1894 01-06-2011 16:13:03 21.1 C 4.24 g/m*3 21.1 C 0 km/h
1895 01-06-2011 16:25:03 21.7 C 4.39 g/m*3 21.7 C 0 km/h
1896 01-06-2011 16:37:02 20.9 C 4.55 g/m*3 20.9 C 0 km/h
1897 01-06-2011 16:49:02 21.7 C 4.77 g/m*3 21.7 C 0 km/h
1898 01-06-2011 17:01:02 20.9 C 4.74 g/m*3 20.9 C 0 km/h
1899 01-06-2011 17:13:02 21.6 C 4.74 g/m*3 21.6 C 0 km/h
1900 01-06-2011 17:25:02 20.3 C 4.75 g/m*3 20.3 C 0 km/h
Sensor: Nr:Datum:Temp:Abs-Feuchte:Windchill:Wind:
Aussen-T/F 1901 01-06-2011 17:37:03 19.7 C 5.09 g/m*3 19.7 C 0 km/h
1902 01-06-2011 17:49:02 19.5 C 5.03 g/m*3 19.5 C 0 km/h
1903 01-06-2011 18:01:03 19.6 C 5.06 g/m*3 19.6 C 0 km/h
1904 01-06-2011 18:13:03 19.8 C 5.12 g/m*3 19.8 C 0 km/h
1905 01-06-2011 18:25:02 19.9 C 5.15 g/m*3 19.9 C 0 km/h
1906 01-06-2011 18:37:03 20.1 C 5.21 g/m*3 20.1 C 0 km/h
1907 01-06-2011 18:49:02 20.1 C 5.56 g/m*3 20.1 C 0 km/h
1908 01-06-2011 19:01:02 19.5 C 5.2 g/m*3 19.5 C 0 km/h
1909 01-06-2011 19:13:02 19.8 C 5.64 g/m*3 19.8 C 0 km/h
1910 01-06-2011 19:25:01 21 C 5.31 g/m*3 21 C 0 km/h
1911 01-06-2011 19:37:02 22.8 C 4.47 g/m*3 22.8 C 0 km/h
1912 01-06-2011 19:49:02 20 C 5.01 g/m*3 20 C 0 km/h
1913 01-06-2011 20:01:02 18.9 C 5.18 g/m*3 18.9 C 0 km/h
1914 01-06-2011 20:13:02 18.5 C 5.22 g/m*3 18.5 C 0 km/h
1915 01-06-2011 20:25:02 18 C 5.38 g/m*3 18 C 0 km/h
1916 01-06-2011 20:37:02 17.7 C 6.04 g/m*3 17.7 C 0 km/h
1917 01-06-2011 20:49:02 17.9 C 6.41 g/m*3 17.9 C 0 km/h
1918 01-06-2011 21:01:02 17.5 C 6.26 g/m*3 17.5 C 0 km/h
1919 01-06-2011 21:13:02 17 C 5.93 g/m*3 17 C 0 km/h
1920 01-06-2011 21:25:03 17.2 C 5.56 g/m*3 17.2 C 0 km/h
1921 01-06-2011 21:37:03 17 C 5.64 g/m*3 17 C 0 km/h
1922 01-06-2011 21:49:03 16.9 C 5.9 g/m*3 16.9 C 0 km/h
1923 01-06-2011 22:01:03 16.6 C 5.93 g/m*3 16.6 C 0 km/h
1924 01-06-2011 22:13:03 16.6 C 5.93 g/m*3 16.6 C 0 km/h
1925 01-06-2011 22:25:02 16.2 C 7.03 g/m*3 16.2 C 0 km/h
Sensor: Nr:Datum:Temp:Abs-Feuchte:Windchill:Wind:
Aussen-T/F 1926 01-06-2011 22:37:02 16.2 C 7.03 g/m*3 16.2 C 0 km/h
1927 01-06-2011 22:49:02 15.8 C 6.19 g/m*3 15.8 C 0 km/h
1928 01-06-2011 23:02:18 15.8 C 6.33 g/m*3 15.8 C 0 km/h
1929 01-06-2011 23:14:18 15.9 C 5.96 g/m*3 15.9 C 0 km/h
1930 01-06-2011 23:26:18 15.8 C 6.06 g/m*3 15.8 C 0 km/h
1931 01-06-2011 23:38:18 15.8 C 6.06 g/m*3 15.8 C 0 km/h
1932 01-06-2011 23:50:18 15.7 C 6.02 g/m*3 15.7 C 0 km/h
1933 02-06-2011 00:02:18 15.5 C 6.21 g/m*3 15.5 C 0 km/h
1934 02-06-2011 00:14:19 15.2 C 6.36 g/m*3 15.2 C 0 km/h
1935 02-06-2011 00:26:19 15.2 C 6.23 g/m*3 15.2 C 0 km/h
1936 02-06-2011 00:38:19 14.8 C 7.22 g/m*3 14.8 C 0 km/h
1937 02-06-2011 00:50:19 14.3 C 7.25 g/m*3 14.3 C 0 km/h
1938 02-06-2011 01:02:19 14.1 C 7.28 g/m*3 14.1 C 0 km/h
1939 02-06-2011 01:14:19 13.9 C 7.43 g/m*3 13.9 C 0 km/h
1940 02-06-2011 01:26:19 13.8 C 7.39 g/m*3 13.8 C 0 km/h
1941 02-06-2011 01:38:19 13.8 C 7.27 g/m*3 13.8 C 0 km/h
1942 02-06-2011 01:50:19 13.7 C 7.34 g/m*3 13.7 C 0 km/h
1943 02-06-2011 02:02:19 13.7 C 7.46 g/m*3 13.7 C 0 km/h
1944 02-06-2011 02:14:19 13.5 C 7.37 g/m*3 13.5 C 0 km/h
1945 02-06-2011 02:26:19 13.5 C 7.25 g/m*3 13.5 C 0 km/h
1946 02-06-2011 02:38:19 13.3 C 6.93 g/m*3 13.3 C 0 km/h
1947 02-06-2011 02:50:19 13.3 C 7.16 g/m*3 13.3 C 0 km/h
1948 02-06-2011 03:02:19 13.1 C 6.85 g/m*3 13.1 C 0 km/h
1949 02-06-2011 03:14:19 12.7 C 6.68 g/m*3 12.7 C 0 km/h
1950 02-06-2011 03:26:19 12.2 C 6.58 g/m*3 12.2 C 0 km/h
Sensor: Nr:Datum:Temp:Abs-Feuchte:Windchill:Wind:
Aussen-T/F 1951 02-06-2011 03:38:19 11.4 C 6.47 g/m*3 11.4 C 0 km/h
1952 02-06-2011 03:50:19 10.7 C 6.38 g/m*3 10.7 C 0 km/h
1953 02-06-2011 04:02:19 10.4 C 6.36 g/m*3 10.4 C 0 km/h
1954 02-06-2011 04:14:20 10.5 C 6.3 g/m*3 10.5 C 0 km/h
1955 02-06-2011 04:26:20 10.7 C 6.38 g/m*3 10.7 C 0 km/h
1956 02-06-2011 04:38:20 10.6 C 6.25 g/m*3 10.6 C 0 km/h
1957 02-06-2011 04:50:20 10 C 6.2 g/m*3 10 C 0 km/h
1958 02-06-2011 05:02:20 9.6 C 6.23 g/m*3 9.6 C 0 km/h
1959 02-06-2011 05:14:20 9.2 C 6.16 g/m*3 9.2 C 0 km/h
1960 02-06-2011 05:26:20 9.1 C 6.21 g/m*3 9.1 C 0 km/h
1961 02-06-2011 05:38:20 8.9 C 6.31 g/m*3 8.9 C 0 km/h
1962 02-06-2011 05:50:20 8.7 C 6.14 g/m*3 8.7 C 0 km/h
1963 02-06-2011 06:02:20 8.6 C 6.19 g/m*3 8.6 C 0 km/h
1964 02-06-2011 06:14:20 8.8 C 6.35 g/m*3 8.8 C 0 km/h
1965 02-06-2011 06:26:20 9 C 6.35 g/m*3 9 C 0 km/h
1966 02-06-2011 06:38:20 8.9 C 6.48 g/m*3 8.9 C 0 km/h
1967 02-06-2011 06:50:20 8.8 C 6.44 g/m*3 8.8 C 0 km/h
1968 02-06-2011 07:02:04 8.9 C 6.57 g/m*3 8.9 C 0 km/h
1969 02-06-2011 07:14:04 9.3 C 6.56 g/m*3 9.3 C 0 km/h
1970 02-06-2011 07:26:03 9.7 C 6.64 g/m*3 9.7 C 0 km/h
1971 02-06-2011 07:38:04 10 C 6.58 g/m*3 10 C 0 km/h
1972 02-06-2011 07:50:03 10 C 6.48 g/m*3 10 C 0 km/h
1973 02-06-2011 08:02:02 10 C 6.58 g/m*3 10 C 0 km/h
1974 02-06-2011 08:14:02 10.5 C 6.79 g/m*3 10.5 C 0 km/h
1975 02-06-2011 08:26:03 10.8 C 6.92 g/m*3 10.8 C 0 km/h
Sensor: Nr:Datum:Temp:Abs-Feuchte:Windchill:Wind:
Aussen-T/F 1976 02-06-2011 08:38:03 11.2 C 6.89 g/m*3 11.2 C 0 km/h
1977 02-06-2011 08:50:01 11.8 C 6.95 g/m*3 11.8 C 0 km/h
1978 02-06-2011 09:02:02 12.3 C 6.84 g/m*3 12.3 C 0 km/h
1979 02-06-2011 09:14:02 13 C 6.8 g/m*3 13 C 0 km/h
1980 02-06-2011 09:26:02 13.5 C 6.32 g/m*3 13.5 C 0 km/h
1981 02-06-2011 09:38:02 13.5 C 6.32 g/m*3 13.5 C 0 km/h
1982 02-06-2011 09:50:02 13.5 C 6.32 g/m*3 13.5 C 0 km/h
1983 02-06-2011 10:02:02 13.5 C 6.32 g/m*3 13.5 C 0 km/h
1984 02-06-2011 10:14:02 13.5 C 6.32 g/m*3 13.5 C 0 km/h
1985 02-06-2011 10:26:02 13.5 C 6.32 g/m*3 13.5 C 0 km/h
1986 02-06-2011 10:38:02 13.5 C 6.32 g/m*3 13.5 C 0 km/h
1987 02-06-2011 10:50:02 13.5 C 6.32 g/m*3 13.5 C 0 km/h
1988 02-06-2011 11:02:02 13.5 C 6.32 g/m*3 13.5 C 0 km/h
1989 02-06-2011 11:14:02 19.1 C 4.26 g/m*3 19.1 C 0 km/h
1990 02-06-2011 11:26:01 19.2 C 4.12 g/m*3 19.2 C 0 km/h
1991 02-06-2011 11:38:03 19.3 C 4.15 g/m*3 19.3 C 0 km/h
1992 02-06-2011 11:50:02 19.3 C 4.15 g/m*3 19.3 C 0 km/h
1993 02-06-2011 12:02:04 19.3 C 4.15 g/m*3 19.3 C 0 km/h
1994 02-06-2011 12:14:04 19.3 C 4.15 g/m*3 19.3 C 0 km/h
1995 02-06-2011 12:26:02 20.1 C 4 g/m*3 20.1 C 0 km/h
1996 02-06-2011 12:38:02 20.1 C 3.82 g/m*3 20.1 C 0 km/h
1997 02-06-2011 12:50:02 20.5 C 3.74 g/m*3 20.5 C 0 km/h
1998 02-06-2011 13:02:03 21.1 C 3.87 g/m*3 21.1 C 0 km/h
1999 02-06-2011 13:14:03 21.4 C 3.75 g/m*3 21.4 C 0 km/h
2000 02-06-2011 13:26:02 25.3 C 4.68 g/m*3 25.3 C 0 km/h
Sensor: Nr:Datum:Temp:Abs-Feuchte:Windchill:Wind:
Aussen-T/F 2001 02-06-2011 13:38:03 27.9 C 5.41 g/m*3 27.9 C 0 km/h
2002 02-06-2011 13:50:02 30 C 6.06 g/m*3 30 C 0 km/h
2003 02-06-2011 14:02:02 30.1 C 6.1 g/m*3 30.1 C 0 km/h
2004 02-06-2011 14:14:02 30.4 C 6.2 g/m*3 30.4 C 0 km/h
2005 02-06-2011 14:26:02 30.3 C 6.16 g/m*3 30.3 C 0 km/h
2006 02-06-2011 14:38:02 30.2 C 6.13 g/m*3 30.2 C 0 km/h
2007 02-06-2011 14:50:02 30.1 C 6.1 g/m*3 30.1 C 0 km/h
2008 02-06-2011 15:02:03 30.1 C 6.1 g/m*3 30.1 C 0 km/h
2009 02-06-2011 15:14:03 30 C 6.06 g/m*3 30 C 0 km/h
2010 02-06-2011 15:26:03 30.3 C 6.16 g/m*3 30.3 C 0 km/h
2011 02-06-2011 15:38:03 30.7 C 6.3 g/m*3 30.7 C 0 km/h
2012 02-06-2011 15:50:02 30.7 C 6.3 g/m*3 30.7 C 0 km/h
2013 02-06-2011 16:02:03 30.1 C 6.1 g/m*3 30.1 C 0 km/h
2014 02-06-2011 16:14:03 30.4 C 6.2 g/m*3 30.4 C 0 km/h
2015 02-06-2011 16:26:02 30.1 C 6.1 g/m*3 30.1 C 0 km/h
2016 02-06-2011 16:38:02 31.2 C 6.47 g/m*3 31.2 C 0 km/h
2017 02-06-2011 16:50:03 31.3 C 6.5 g/m*3 31.3 C 0 km/h
2018 02-06-2011 17:02:03 31.1 C 6.43 g/m*3 31.1 C 0 km/h
2019 02-06-2011 17:14:03 30.7 C 6.3 g/m*3 30.7 C 0 km/h
2020 02-06-2011 17:26:03 30.2 C 6.13 g/m*3 30.2 C 0 km/h
2021 02-06-2011 17:38:02 30.8 C 6.33 g/m*3 30.8 C 0 km/h
2022 02-06-2011 17:50:02 30.6 C 6.26 g/m*3 30.6 C 0 km/h
2023 02-06-2011 18:02:01 30.6 C 6.26 g/m*3 30.6 C 0 km/h
2024 02-06-2011 18:14:01 30.6 C 6.26 g/m*3 30.6 C 0 km/h
2025 02-06-2011 18:26:01 30.6 C 6.26 g/m*3 30.6 C 0 km/h
Sensor: Nr:Datum:Temp:Abs-Feuchte:Windchill:Wind:
Aussen-T/F 2026 02-06-2011 18:38:02 30.6 C 6.26 g/m*3 30.6 C 0 km/h
2027 02-06-2011 18:50:01 30.6 C 6.26 g/m*3 30.6 C 0 km/h
2028 02-06-2011 19:02:02 30.6 C 6.26 g/m*3 30.6 C 0 km/h
2029 02-06-2011 19:14:02 30.6 C 6.26 g/m*3 30.6 C 0 km/h
2030 02-06-2011 19:26:02 30.6 C 6.26 g/m*3 30.6 C 0 km/h
2031 02-06-2011 19:38:02 30.6 C 6.26 g/m*3 30.6 C 0 km/h
2032 02-06-2011 19:50:01 30.6 C 6.26 g/m*3 30.6 C 0 km/h
2033 02-06-2011 20:02:02 30.6 C 6.26 g/m*3 30.6 C 0 km/h
2034 02-06-2011 20:14:02 30.6 C 6.26 g/m*3 30.6 C 0 km/h
2035 02-06-2011 20:26:02 30.6 C 6.26 g/m*3 30.6 C 0 km/h
2036 02-06-2011 20:38:01 30.6 C 6.26 g/m*3 30.6 C 0 km/h
2037 02-06-2011 20:50:02 30.6 C 6.26 g/m*3 30.6 C 0 km/h
2038 02-06-2011 21:02:02 30.6 C 6.26 g/m*3 30.6 C 0 km/h
2039 02-06-2011 21:14:02 30.6 C 6.26 g/m*3 30.6 C 0 km/h
2040 02-06-2011 21:26:02 30.6 C 6.26 g/m*3 30.6 C 0 km/h
2041 02-06-2011 21:38:02 30.6 C 6.26 g/m*3 30.6 C 0 km/h
2042 02-06-2011 21:50:02 30.6 C 6.26 g/m*3 30.6 C 0 km/h
2043 02-06-2011 22:02:02 30.6 C 6.26 g/m*3 30.6 C 0 km/h
2044 02-06-2011 22:14:02 30.6 C 6.26 g/m*3 30.6 C 0 km/h
2045 02-06-2011 22:27:02 16 C 5.59 g/m*3 16 C 0 km/h
2046 02-06-2011 22:39:02 16 C 5.59 g/m*3 16 C 0 km/h
2047 02-06-2011 22:51:02 16 C 5.59 g/m*3 16 C 0 km/h
2048 02-06-2011 23:03:02 16 C 5.59 g/m*3 16 C 0 km/h
2049 02-06-2011 23:15:02 16 C 5.59 g/m*3 16 C 0 km/h
2050 02-06-2011 23:27:03 16 C 5.59 g/m*3 16 C 0 km/h
Sensor: Nr:Datum:Temp:Abs-Feuchte:Windchill:Wind:
Aussen-T/F 2051 02-06-2011 23:39:03 16 C 5.59 g/m*3 16 C 0 km/h
2052 02-06-2011 23:51:03 16 C 5.59 g/m*3 16 C 0 km/h
2053 03-06-2011 00:03:03 16 C 5.59 g/m*3 16 C 0 km/h
2054 03-06-2011 00:15:03 16 C 5.59 g/m*3 16 C 0 km/h
2055 03-06-2011 00:27:03 16 C 5.59 g/m*3 16 C 0 km/h
2056 03-06-2011 00:39:03 16 C 5.59 g/m*3 16 C 0 km/h
2057 03-06-2011 00:51:03 16 C 5.59 g/m*3 16 C 0 km/h
2058 03-06-2011 01:03:03 13.3 C 5.66 g/m*3 13.3 C 0 km/h
2059 03-06-2011 01:15:03 13.2 C 5.63 g/m*3 13.2 C 0 km/h
2060 03-06-2011 01:27:03 13.1 C 5.82 g/m*3 13.1 C 0 km/h
2061 03-06-2011 01:39:03 12.9 C 5.97 g/m*3 12.9 C 0 km/h
2062 03-06-2011 01:51:03 12.8 C 5.94 g/m*3 12.8 C 0 km/h
2063 03-06-2011 02:03:03 12.8 C 5.71 g/m*3 12.8 C 0 km/h
2064 03-06-2011 02:15:03 12.6 C 5.64 g/m*3 12.6 C 0 km/h
2065 03-06-2011 02:27:03 12.4 C 5.68 g/m*3 12.4 C 0 km/h
2066 03-06-2011 02:39:03 12.2 C 5.72 g/m*3 12.2 C 0 km/h
2067 03-06-2011 02:51:03 11.9 C 5.82 g/m*3 11.9 C 0 km/h
2068 03-06-2011 03:03:03 11.9 C 5.93 g/m*3 11.9 C 0 km/h
2069 03-06-2011 03:15:03 11.7 C 5.96 g/m*3 11.7 C 0 km/h
2070 03-06-2011 03:27:03 11.7 C 5.86 g/m*3 11.7 C 0 km/h
2071 03-06-2011 03:39:04 11.6 C 5.72 g/m*3 11.6 C 0 km/h
2072 03-06-2011 03:51:04 11.5 C 5.68 g/m*3 11.5 C 0 km/h
2073 03-06-2011 04:03:04 11.6 C 5.72 g/m*3 11.6 C 0 km/h
2074 03-06-2011 04:15:04 11.4 C 5.65 g/m*3 11.4 C 0 km/h
2075 03-06-2011 04:27:04 11.3 C 5.71 g/m*3 11.3 C 0 km/h
Sensor: Nr:Datum:Temp:Abs-Feuchte:Windchill:Wind:
Aussen-T/F 2076 03-06-2011 04:39:04 11.4 C 5.65 g/m*3 11.4 C 0 km/h
2077 03-06-2011 04:51:04 11 C 5.51 g/m*3 11 C 0 km/h
2078 03-06-2011 05:03:04 11 C 5.61 g/m*3 11 C 0 km/h
2079 03-06-2011 05:15:04 11.2 C 5.68 g/m*3 11.2 C 0 km/h
2080 03-06-2011 05:27:04 11.2 C 5.57 g/m*3 11.2 C 0 km/h
2081 03-06-2011 05:39:04 11.5 C 5.78 g/m*3 11.5 C 0 km/h
2082 03-06-2011 05:51:04 11.5 C 5.78 g/m*3 11.5 C 0 km/h
2083 03-06-2011 06:03:04 11.7 C 5.96 g/m*3 11.7 C 0 km/h
2084 03-06-2011 06:15:04 12.1 C 5.9 g/m*3 12.1 C 0 km/h
2085 03-06-2011 06:27:04 12.5 C 6.38 g/m*3 12.5 C 0 km/h
2086 03-06-2011 06:39:04 12.8 C 6.61 g/m*3 12.8 C 0 km/h
2087 03-06-2011 06:51:04 12.9 C 6.42 g/m*3 12.9 C 0 km/h
2088 03-06-2011 07:03:03 13.2 C 6.32 g/m*3 13.2 C 0 km/h
2089 03-06-2011 07:15:01 13.6 C 6.36 g/m*3 13.6 C 0 km/h
2090 03-06-2011 07:27:01 14.4 C 6.06 g/m*3 14.4 C 0 km/h
2091 03-06-2011 07:39:02 14.9 C 6.37 g/m*3 14.9 C 0 km/h
2092 03-06-2011 07:51:02 15 C 6.41 g/m*3 15 C 0 km/h
2093 03-06-2011 08:03:03 15.1 C 6.58 g/m*3 15.1 C 0 km/h
2094 03-06-2011 08:15:02 15.6 C 6.52 g/m*3 15.6 C 0 km/h
2095 03-06-2011 08:27:02 16.2 C 6.21 g/m*3 16.2 C 0 km/h
2096 03-06-2011 08:39:03 17 C 5.79 g/m*3 17 C 0 km/h
2097 03-06-2011 08:51:02 17.7 C 6.04 g/m*3 17.7 C 0 km/h
2098 03-06-2011 09:03:02 18.3 C 6.1 g/m*3 18.3 C 0 km/h
2099 03-06-2011 09:15:02 18.6 C 5.89 g/m*3 18.6 C 0 km/h
2100 03-06-2011 09:27:02 18.9 C 5.99 g/m*3 18.9 C 0 km/h
Sensor: Nr:Datum:Temp:Abs-Feuchte:Windchill:Wind:
Aussen-T/F 2101 03-06-2011 09:39:02 19.5 C 5.87 g/m*3 19.5 C 0 km/h
2102 03-06-2011 09:51:02 20.1 C 5.74 g/m*3 20.1 C 0 km/h
2103 03-06-2011 10:03:03 20.7 C 5.94 g/m*3 20.7 C 0 km/h
2104 03-06-2011 10:15:02 20.8 C 5.79 g/m*3 20.8 C 0 km/h
2105 03-06-2011 10:27:02 21 C 5.86 g/m*3 21 C 0 km/h
2106 03-06-2011 10:39:02 21 C 5.68 g/m*3 21 C 0 km/h
2107 03-06-2011 10:51:01 21.9 C 5.79 g/m*3 21.9 C 0 km/h
2108 03-06-2011 11:03:02 22.1 C 5.47 g/m*3 22.1 C 0 km/h
2109 03-06-2011 11:15:02 21.9 C 5.79 g/m*3 21.9 C 0 km/h
2110 03-06-2011 11:27:03 22.1 C 6.05 g/m*3 22.1 C 0 km/h
2111 03-06-2011 11:39:01 22.9 C 5.72 g/m*3 22.9 C 0 km/h
2112 03-06-2011 11:51:01 23 C 5.55 g/m*3 23 C 0 km/h
2113 03-06-2011 12:03:02 23 C 5.34 g/m*3 23 C 0 km/h
2114 03-06-2011 12:15:01 23.2 C 5.2 g/m*3 23.2 C 0 km/h
2115 03-06-2011 12:27:01 23.7 C 5.78 g/m*3 23.7 C 0 km/h
2116 03-06-2011 12:39:02 24.8 C 5.69 g/m*3 24.8 C 0 km/h
2117 03-06-2011 12:51:02 25.1 C 5.79 g/m*3 25.1 C 0 km/h
2118 03-06-2011 13:03:02 25.4 C 5.41 g/m*3 25.4 C 0 km/h
2119 03-06-2011 13:15:02 26.1 C 5.39 g/m*3 26.1 C 0 km/h
2120 03-06-2011 13:27:02 25.5 C 5.45 g/m*3 25.5 C 0 km/h
2121 03-06-2011 13:39:02 26.3 C 5.69 g/m*3 26.3 C 0 km/h
2122 03-06-2011 13:51:02 28.9 C 5.71 g/m*3 28.9 C 0 km/h
2123 03-06-2011 14:03:02 27.5 C 5.82 g/m*3 27.5 C 0 km/h
2124 03-06-2011 14:15:02 29.4 C 5.87 g/m*3 29.4 C 0 km/h
2125 03-06-2011 14:27:02 29.6 C 5.94 g/m*3 29.6 C 0 km/h
Sensor: Nr:Datum:Temp:Abs-Feuchte:Windchill:Wind:
Aussen-T/F 2126 03-06-2011 14:39:02 25.5 C 5.68 g/m*3 25.5 C 0 km/h
2127 03-06-2011 14:51:02 25.4 C 6.12 g/m*3 25.4 C 0 km/h
2128 03-06-2011 15:03:02 28.5 C 6.15 g/m*3 28.5 C 0 km/h
2129 03-06-2011 15:15:03 30.2 C 6.13 g/m*3 30.2 C 0 km/h
2130 03-06-2011 15:27:03 31 C 6.4 g/m*3 31 C 0 km/h
2131 03-06-2011 15:39:02 31.5 C 6.57 g/m*3 31.5 C 0 km/h
2132 03-06-2011 15:51:02 31.4 C 6.54 g/m*3 31.4 C 0 km/h
2133 03-06-2011 16:03:01 30 C 6.06 g/m*3 30 C 0 km/h
2134 03-06-2011 16:15:02 31.1 C 6.43 g/m*3 31.1 C 0 km/h
2135 03-06-2011 16:27:02 31.4 C 6.54 g/m*3 31.4 C 0 km/h
2136 03-06-2011 16:39:02 31.9 C 6.72 g/m*3 31.9 C 0 km/h
2137 03-06-2011 16:51:02 30.9 C 6.37 g/m*3 30.9 C 0 km/h
2138 03-06-2011 17:03:03 31.6 C 6.61 g/m*3 31.6 C 0 km/h
2139 03-06-2011 17:15:02 31.2 C 6.47 g/m*3 31.2 C 0 km/h
2140 03-06-2011 17:27:02 31.5 C 6.57 g/m*3 31.5 C 0 km/h
2141 03-06-2011 17:39:02 31.6 C 6.61 g/m*3 31.6 C 0 km/h
2142 03-06-2011 17:51:02 31.4 C 6.54 g/m*3 31.4 C 0 km/h
2143 03-06-2011 18:03:02 30.5 C 6.23 g/m*3 30.5 C 0 km/h
2144 03-06-2011 18:15:01 30.8 C 6.33 g/m*3 30.8 C 0 km/h
2145 03-06-2011 18:27:01 29.4 C 5.87 g/m*3 29.4 C 0 km/h
2146 03-06-2011 18:39:02 30 C 6.06 g/m*3 30 C 0 km/h
2147 03-06-2011 18:51:01 30.6 C 6.26 g/m*3 30.6 C 0 km/h
2148 03-06-2011 19:03:02 30.4 C 6.2 g/m*3 30.4 C 0 km/h
2149 03-06-2011 19:15:01 29.4 C 5.87 g/m*3 29.4 C 0 km/h
2150 03-06-2011 19:27:01 29.8 C 6.3 g/m*3 29.8 C 0 km/h
Sensor: Nr:Datum:Temp:Abs-Feuchte:Windchill:Wind:
Aussen-T/F 2151 03-06-2011 19:39:02 27.4 C 6.31 g/m*3 27.4 C 0 km/h
2152 03-06-2011 19:51:01 26.3 C 6.44 g/m*3 26.3 C 0 km/h
2153 03-06-2011 20:03:02 25.3 C 6.79 g/m*3 25.3 C 0 km/h
2154 03-06-2011 20:15:02 25.2 C 6.75 g/m*3 25.2 C 0 km/h
2155 03-06-2011 20:27:02 24.6 C 7.88 g/m*3 24.6 C 0 km/h
2156 03-06-2011 20:39:02 24 C 7.4 g/m*3 24 C 0 km/h
2157 03-06-2011 20:51:02 23.7 C 7.49 g/m*3 23.7 C 0 km/h
2158 03-06-2011 21:03:02 22.9 C 7.77 g/m*3 22.9 C 0 km/h
2159 03-06-2011 21:15:02 22.3 C 7.31 g/m*3 22.3 C 0 km/h
2160 03-06-2011 21:27:02 21.4 C 7.87 g/m*3 21.4 C 0 km/h
2161 03-06-2011 21:39:03 20.8 C 7.97 g/m*3 20.8 C 0 km/h
2162 03-06-2011 21:51:02 20.3 C 7.91 g/m*3 20.3 C 0 km/h
2163 03-06-2011 22:03:02 20.7 C 7.74 g/m*3 20.7 C 0 km/h
2164 03-06-2011 22:15:02 19.9 C 8.08 g/m*3 19.9 C 0 km/h
2165 03-06-2011 22:27:03 20 C 8.12 g/m*3 20 C 0 km/h
2166 03-06-2011 22:39:02 19.8 C 8.03 g/m*3 19.8 C 0 km/h
2167 03-06-2011 22:52:06 19.6 C 7.93 g/m*3 19.6 C 0 km/h
2168 03-06-2011 23:04:06 19.5 C 8.22 g/m*3 19.5 C 0 km/h
2169 03-06-2011 23:16:06 19 C 8.15 g/m*3 19 C 0 km/h
2170 03-06-2011 23:28:06 18.4 C 8.49 g/m*3 18.4 C 0 km/h
2171 03-06-2011 23:40:06 18 C 8.45 g/m*3 18 C 0 km/h
2172 03-06-2011 23:52:06 17.9 C 8.55 g/m*3 17.9 C 0 km/h
2173 04-06-2011 00:04:06 17.7 C 8.45 g/m*3 17.7 C 0 km/h
2174 04-06-2011 00:16:06 17.3 C 8.4 g/m*3 17.3 C 0 km/h
2175 04-06-2011 00:28:06 17.4 C 8.6 g/m*3 17.4 C 0 km/h
Sensor: Nr:Datum:Temp:Abs-Feuchte:Windchill:Wind:
Aussen-T/F 2176 04-06-2011 00:40:06 17.4 C 8.45 g/m*3 17.4 C 0 km/h
2177 04-06-2011 00:52:06 17.4 C 8.74 g/m*3 17.4 C 0 km/h
2178 04-06-2011 01:04:06 17 C 8.39 g/m*3 17 C 0 km/h
2179 04-06-2011 01:16:06 17.1 C 8.73 g/m*3 17.1 C 0 km/h
2180 04-06-2011 01:28:06 17.1 C 8.59 g/m*3 17.1 C 0 km/h
2181 04-06-2011 01:40:06 16.8 C 8.58 g/m*3 16.8 C 0 km/h
2182 04-06-2011 01:52:07 16.8 C 8.58 g/m*3 16.8 C 0 km/h
2183 04-06-2011 02:04:07 16.4 C 8.37 g/m*3 16.4 C 0 km/h
2184 04-06-2011 02:16:07 16.3 C 8.46 g/m*3 16.3 C 0 km/h
2185 04-06-2011 02:28:07 16 C 8.58 g/m*3 16 C 0 km/h
2186 04-06-2011 02:40:07 16 C 8.45 g/m*3 16 C 0 km/h
2187 04-06-2011 02:52:07 15.9 C 8.53 g/m*3 15.9 C 0 km/h
2188 04-06-2011 03:04:07 15.8 C 8.48 g/m*3 15.8 C 0 km/h
2189 04-06-2011 03:16:07 15.8 C 8.62 g/m*3 15.8 C 0 km/h
2190 04-06-2011 03:28:07 15.6 C 8.51 g/m*3 15.6 C 0 km/h
2191 04-06-2011 03:40:07 15.6 C 8.51 g/m*3 15.6 C 0 km/h
2192 04-06-2011 03:52:07 15.4 C 8.41 g/m*3 15.4 C 0 km/h
2193 04-06-2011 04:04:07 15.3 C 8.36 g/m*3 15.3 C 0 km/h
2194 04-06-2011 04:16:07 15.2 C 8.31 g/m*3 15.2 C 0 km/h
2195 04-06-2011 04:28:07 15 C 8.33 g/m*3 15 C 0 km/h
2196 04-06-2011 04:40:07 14.9 C 8.54 g/m*3 14.9 C 0 km/h
2197 04-06-2011 04:52:07 15 C 8.33 g/m*3 15 C 0 km/h
2198 04-06-2011 05:04:07 14.9 C 8.41 g/m*3 14.9 C 0 km/h
2199 04-06-2011 05:16:07 14.7 C 8.31 g/m*3 14.7 C 0 km/h
2200 04-06-2011 05:28:07 14.8 C 8.49 g/m*3 14.8 C 0 km/h
Sensor: Nr:Datum:Temp:Abs-Feuchte:Windchill:Wind:
Aussen-T/F 2201 04-06-2011 05:40:07 15 C 8.33 g/m*3 15 C 0 km/h
2202 04-06-2011 05:52:08 14.8 C 8.36 g/m*3 14.8 C 0 km/h
2203 04-06-2011 06:04:08 15 C 8.46 g/m*3 15 C 0 km/h
2204 04-06-2011 06:16:08 15 C 8.59 g/m*3 15 C 0 km/h
2205 04-06-2011 06:28:08 15.2 C 8.7 g/m*3 15.2 C 0 km/h
2206 04-06-2011 06:40:08 15.7 C 8.83 g/m*3 15.7 C 0 km/h
2207 04-06-2011 06:52:08 16 C 8.86 g/m*3 16 C 0 km/h
2208 04-06-2011 07:04:08 16.7 C 9.1 g/m*3 16.7 C 0 km/h
2209 04-06-2011 07:16:08 17.4 C 9.04 g/m*3 17.4 C 0 km/h
2210 04-06-2011 07:28:08 18.1 C 9.12 g/m*3 18.1 C 0 km/h
2211 04-06-2011 07:40:08 18.6 C 9.39 g/m*3 18.6 C 0 km/h
2212 04-06-2011 07:52:08 18.6 C 9.39 g/m*3 18.6 C 0 km/h
2213 04-06-2011 08:04:08 18.5 C 9.18 g/m*3 18.5 C 0 km/h
2214 04-06-2011 08:16:08 18.4 C 9.28 g/m*3 18.4 C 0 km/h
2215 04-06-2011 08:28:08 18.3 C 9.54 g/m*3 18.3 C 0 km/h
2216 04-06-2011 08:40:08 19 C 9.45 g/m*3 19 C 0 km/h
2217 04-06-2011 08:52:02 20 C 9.51 g/m*3 20 C 0 km/h
2218 04-06-2011 09:04:02 20.3 C 9.67 g/m*3 20.3 C 0 km/h
2219 04-06-2011 09:16:02 20.8 C 9.96 g/m*3 20.8 C 0 km/h
2220 04-06-2011 09:28:02 21.9 C 9.26 g/m*3 21.9 C 0 km/h
2221 04-06-2011 09:40:02 22.6 C 9.24 g/m*3 22.6 C 0 km/h
2222 04-06-2011 09:52:02 22.6 C 8.84 g/m*3 22.6 C 0 km/h
2223 04-06-2011 10:04:02 22.9 C 9.4 g/m*3 22.9 C 0 km/h
2224 04-06-2011 10:16:01 23.5 C 8.88 g/m*3 23.5 C 0 km/h
2225 04-06-2011 10:28:01 24 C 8.49 g/m*3 24 C 0 km/h
Sensor: Nr:Datum:Temp:Abs-Feuchte:Windchill:Wind:
Aussen-T/F 2226 04-06-2011 10:40:02 24 C 9.14 g/m*3 24 C 0 km/h
2227 04-06-2011 10:52:03 24.4 C 8.23 g/m*3 24.4 C 0 km/h
2228 04-06-2011 11:04:02 25 C 8.75 g/m*3 25 C 0 km/h
2229 04-06-2011 11:16:02 25.3 C 8.43 g/m*3 25.3 C 0 km/h
2230 04-06-2011 11:28:02 25.8 C 8.67 g/m*3 25.8 C 0 km/h
2231 04-06-2011 11:40:03 26.2 C 8.37 g/m*3 26.2 C 0 km/h
2232 04-06-2011 11:52:02 27 C 7.98 g/m*3 27 C 0 km/h
2233 04-06-2011 12:04:02 27.4 C 7.89 g/m*3 27.4 C 0 km/h
2234 04-06-2011 12:16:02 27.3 C 7.85 g/m*3 27.3 C 0 km/h
2235 04-06-2011 12:28:02 27.3 C 7.85 g/m*3 27.3 C 0 km/h
2236 04-06-2011 12:40:02 27.4 C 8.16 g/m*3 27.4 C 0 km/h
2237 04-06-2011 12:52:02 27.8 C 8.07 g/m*3 27.8 C 0 km/h
2238 04-06-2011 13:04:02 28.1 C 7.66 g/m*3 28.1 C 0 km/h
2239 04-06-2011 13:16:02 28.7 C 7.91 g/m*3 28.7 C 0 km/h
2240 04-06-2011 13:28:02 31.3 C 7.15 g/m*3 31.3 C 0 km/h
2241 04-06-2011 13:40:02 32 C 6.75 g/m*3 32 C 0 km/h
2242 04-06-2011 13:52:02 32.9 C 7.08 g/m*3 32.9 C 0 km/h
2243 04-06-2011 14:04:02 33.2 C 7.2 g/m*3 33.2 C 0 km/h
2244 04-06-2011 14:16:02 31.8 C 6.68 g/m*3 31.8 C 0 km/h
2245 04-06-2011 14:28:02 33.2 C 7.2 g/m*3 33.2 C 0 km/h
2246 04-06-2011 14:40:02 33 C 7.12 g/m*3 33 C 0 km/h
2247 04-06-2011 14:52:02 32.3 C 6.86 g/m*3 32.3 C 0 km/h
2248 04-06-2011 15:04:02 31.2 C 7.12 g/m*3 31.2 C 0 km/h
2249 04-06-2011 15:16:02 32.6 C 6.97 g/m*3 32.6 C 0 km/h
2250 04-06-2011 15:28:03 30.6 C 7.2 g/m*3 30.6 C 0 km/h
Sensor: Nr:Datum:Temp:Abs-Feuchte:Windchill:Wind:
Aussen-T/F 2251 04-06-2011 15:40:01 30.4 C 8.06 g/m*3 30.4 C 0 km/h
2252 04-06-2011 15:52:02 30.1 C 7.93 g/m*3 30.1 C 0 km/h
2253 04-06-2011 16:04:01 30.2 C 7.97 g/m*3 30.2 C 0 km/h
2254 04-06-2011 16:16:02 30.4 C 7.75 g/m*3 30.4 C 0 km/h
2255 04-06-2011 16:28:02 26.5 C 7.01 g/m*3 26.5 C 0 km/h
2256 04-06-2011 16:40:01 21.6 C 12.14 g/m*3 21.6 C 0 km/h
2257 04-06-2011 16:52:02 20.7 C 13.14 g/m*3 20.7 C 0 km/h
2258 04-06-2011 17:04:02 20.8 C 13.4 g/m*3 20.8 C 0 km/h
2259 04-06-2011 17:16:02 23.6 C 14.25 g/m*3 23.6 C 0 km/h
2260 04-06-2011 17:28:02 24.8 C 13.88 g/m*3 24.8 C 0 km/h
2261 04-06-2011 17:40:02 24.6 C 13.73 g/m*3 24.6 C 0 km/h
2262 04-06-2011 17:52:02 23.1 C 13.23 g/m*3 23.1 C 0 km/h
2263 04-06-2011 18:04:02 22.6 C 13.86 g/m*3 22.6 C 0 km/h
2264 04-06-2011 18:16:02 22.1 C 13.66 g/m*3 22.1 C 0 km/h
2265 04-06-2011 18:28:02 21.4 C 13.5 g/m*3 21.4 C 0 km/h
2266 04-06-2011 18:40:01 20.4 C 13.09 g/m*3 20.4 C 0 km/h
2267 04-06-2011 18:52:02 20.1 C 13.04 g/m*3 20.1 C 0 km/h
2268 04-06-2011 19:04:01 20.3 C 13.37 g/m*3 20.3 C 0 km/h
2269 04-06-2011 19:16:01 20.9 C 13.48 g/m*3 20.9 C 0 km/h
2270 04-06-2011 19:28:01 20.9 C 13.11 g/m*3 20.9 C 0 km/h
2271 04-06-2011 19:40:02 20.6 C 12.89 g/m*3 20.6 C 0 km/h
2272 04-06-2011 19:52:02 20.4 C 12.56 g/m*3 20.4 C 0 km/h
2273 04-06-2011 20:04:02 20.5 C 12.46 g/m*3 20.5 C 0 km/h
2274 04-06-2011 20:16:02 20.5 C 12.28 g/m*3 20.5 C 0 km/h
2275 04-06-2011 20:28:02 20.4 C 12.38 g/m*3 20.4 C 0 km/h
Sensor: Nr:Datum:Temp:Abs-Feuchte:Windchill:Wind:
Aussen-T/F 2276 04-06-2011 20:40:02 20.4 C 12.38 g/m*3 20.4 C 0 km/h
2277 04-06-2011 20:52:02 20.3 C 12.49 g/m*3 20.3 C 0 km/h
2278 04-06-2011 21:04:02 20 C 12.27 g/m*3 20 C 0 km/h
2279 04-06-2011 21:16:02 19.5 C 12.75 g/m*3 19.5 C 0 km/h
2280 04-06-2011 21:28:02 19.4 C 12.68 g/m*3 19.4 C 0 km/h
2281 04-06-2011 21:40:02 19.6 C 12.32 g/m*3 19.6 C 0 km/h
2282 04-06-2011 21:52:01 19.4 C 12.35 g/m*3 19.4 C 0 km/h
2283 04-06-2011 22:04:01 19.4 C 12.01 g/m*3 19.4 C 0 km/h
2284 04-06-2011 22:17:02 18.8 C 12.88 g/m*3 18.8 C 0 km/h
2285 04-06-2011 22:29:02 18.4 C 12.9 g/m*3 18.4 C 0 km/h
2286 04-06-2011 22:41:02 18.1 C 12.82 g/m*3 18.1 C 0 km/h
2287 04-06-2011 22:53:03 18.1 C 12.98 g/m*3 18.1 C 0 km/h
2288 04-06-2011 23:05:03 18 C 13.06 g/m*3 18 C 0 km/h
2289 04-06-2011 23:17:03 18.1 C 13.13 g/m*3 18.1 C 0 km/h
2290 04-06-2011 23:29:03 18 C 13.21 g/m*3 18 C 0 km/h
2291 04-06-2011 23:41:03 17.9 C 13.28 g/m*3 17.9 C 0 km/h
2292 04-06-2011 23:53:03 17.9 C 13.44 g/m*3 17.9 C 0 km/h
2293 05-06-2011 00:05:03 17.9 C 13.44 g/m*3 17.9 C 0 km/h
2294 05-06-2011 00:17:03 17.9 C 13.44 g/m*3 17.9 C 0 km/h
2295 05-06-2011 00:29:03 17.7 C 13.28 g/m*3 17.7 C 0 km/h
2296 05-06-2011 00:41:03 17.8 C 13.36 g/m*3 17.8 C 0 km/h
2297 05-06-2011 00:53:03 17.7 C 13.28 g/m*3 17.7 C 0 km/h
2298 05-06-2011 01:05:03 17.6 C 13.2 g/m*3 17.6 C 0 km/h
2299 05-06-2011 01:17:03 17.4 C 13.04 g/m*3 17.4 C 0 km/h
2300 05-06-2011 01:29:03 17.5 C 13.12 g/m*3 17.5 C 0 km/h
Sensor: Nr:Datum:Temp:Abs-Feuchte:Windchill:Wind:
Aussen-T/F 2301 05-06-2011 01:41:03 17.2 C 12.89 g/m*3 17.2 C 0 km/h
2302 05-06-2011 01:53:03 17 C 12.73 g/m*3 17 C 0 km/h
2303 05-06-2011 02:05:03 16.9 C 12.8 g/m*3 16.9 C 0 km/h
2304 05-06-2011 02:17:03 16.7 C 12.65 g/m*3 16.7 C 0 km/h
2305 05-06-2011 02:29:03 16.5 C 12.5 g/m*3 16.5 C 0 km/h
2306 05-06-2011 02:41:03 16.3 C 12.35 g/m*3 16.3 C 0 km/h
2307 05-06-2011 02:53:04 16.4 C 12.42 g/m*3 16.4 C 0 km/h
2308 05-06-2011 03:05:04 16.1 C 12.2 g/m*3 16.1 C 0 km/h
2309 05-06-2011 03:17:04 16 C 12.13 g/m*3 16 C 0 km/h
2310 05-06-2011 03:29:04 15.7 C 11.91 g/m*3 15.7 C 0 km/h
2311 05-06-2011 03:41:04 15.7 C 11.91 g/m*3 15.7 C 0 km/h
2312 05-06-2011 03:53:04 15.4 C 11.69 g/m*3 15.4 C 0 km/h
2313 05-06-2011 04:05:04 15.5 C 11.76 g/m*3 15.5 C 0 km/h
2314 05-06-2011 04:17:04 15.5 C 11.76 g/m*3 15.5 C 0 km/h
2315 05-06-2011 04:29:04 15.7 C 11.91 g/m*3 15.7 C 0 km/h
2316 05-06-2011 04:41:04 15.1 C 11.48 g/m*3 15.1 C 0 km/h
2317 05-06-2011 04:53:04 15.1 C 11.48 g/m*3 15.1 C 0 km/h
2318 05-06-2011 05:05:04 15.2 C 11.55 g/m*3 15.2 C 0 km/h
2319 05-06-2011 05:17:04 15.3 C 11.75 g/m*3 15.3 C 0 km/h
2320 05-06-2011 05:29:04 15 C 11.54 g/m*3 15 C 0 km/h
2321 05-06-2011 05:41:04 15.2 C 11.68 g/m*3 15.2 C 0 km/h
2322 05-06-2011 05:53:04 15.6 C 11.97 g/m*3 15.6 C 0 km/h
2323 05-06-2011 06:05:04 15.8 C 12.11 g/m*3 15.8 C 0 km/h
2324 05-06-2011 06:17:04 16.1 C 12.2 g/m*3 16.1 C 0 km/h
2325 05-06-2011 06:29:04 16.2 C 12.41 g/m*3 16.2 C 0 km/h
Sensor: Nr:Datum:Temp:Abs-Feuchte:Windchill:Wind:
Aussen-T/F 2326 05-06-2011 06:41:04 16.4 C 12.56 g/m*3 16.4 C 0 km/h
2327 05-06-2011 06:53:04 16.3 C 12.49 g/m*3 16.3 C 0 km/h
2328 05-06-2011 07:05:05 16.3 C 12.49 g/m*3 16.3 C 0 km/h
2329 05-06-2011 07:17:05 16.4 C 12.56 g/m*3 16.4 C 0 km/h
2330 05-06-2011 07:29:05 16.5 C 12.5 g/m*3 16.5 C 0 km/h
2331 05-06-2011 07:41:05 16.7 C 12.79 g/m*3 16.7 C 0 km/h
2332 05-06-2011 07:53:05 17.4 C 13.19 g/m*3 17.4 C 0 km/h
2333 05-06-2011 08:05:02 17.9 C 13.59 g/m*3 17.9 C 0 km/h
2334 05-06-2011 08:17:02 18 C 13.52 g/m*3 18 C 0 km/h
2335 05-06-2011 08:29:02 18.4 C 13.68 g/m*3 18.4 C 0 km/h
2336 05-06-2011 08:41:02 18.5 C 13.61 g/m*3 18.5 C 0 km/h
2337 05-06-2011 08:53:02 18.7 C 13.45 g/m*3 18.7 C 0 km/h
2338 05-06-2011 09:05:01 18.6 C 12.73 g/m*3 18.6 C 0 km/h
2339 05-06-2011 09:17:02 19.5 C 12.59 g/m*3 19.5 C 0 km/h
2340 05-06-2011 09:29:02 19.9 C 12.54 g/m*3 19.9 C 0 km/h
2341 05-06-2011 09:41:02 19.5 C 12.25 g/m*3 19.5 C 0 km/h
2342 05-06-2011 09:53:01 19.5 C 12.42 g/m*3 19.5 C 0 km/h
2343 05-06-2011 10:05:02 19.9 C 13.4 g/m*3 19.9 C 0 km/h
2344 05-06-2011 10:17:02 20.2 C 13.46 g/m*3 20.2 C 0 km/h
2345 05-06-2011 10:29:02 20.6 C 13.42 g/m*3 20.6 C 0 km/h
2346 05-06-2011 10:41:01 21.8 C 14.01 g/m*3 21.8 C 0 km/h
2347 05-06-2011 10:53:02 21.7 C 12.97 g/m*3 21.7 C 0 km/h
2348 05-06-2011 11:05:01 21.7 C 12.97 g/m*3 21.7 C 0 km/h
2349 05-06-2011 11:17:01 21.7 C 12.59 g/m*3 21.7 C 0 km/h
2350 05-06-2011 11:29:02 22.2 C 12.96 g/m*3 22.2 C 0 km/h
Sensor: Nr:Datum:Temp:Abs-Feuchte:Windchill:Wind:
Aussen-T/F 2351 05-06-2011 11:41:01 22.4 C 13.31 g/m*3 22.4 C 0 km/h
2352 05-06-2011 11:53:02 23.2 C 13.1 g/m*3 23.2 C 0 km/h
2353 05-06-2011 12:05:02 23.7 C 12.62 g/m*3 23.7 C 0 km/h
2354 05-06-2011 12:17:02 24.1 C 12.25 g/m*3 24.1 C 0 km/h
2355 05-06-2011 12:29:02 23.7 C 13.9 g/m*3 23.7 C 0 km/h
2356 05-06-2011 12:41:02 24.4 C 14.02 g/m*3 24.4 C 0 km/h
2357 05-06-2011 12:53:01 24.8 C 13.2 g/m*3 24.8 C 0 km/h
2358 05-06-2011 13:05:02 25.3 C 14.05 g/m*3 25.3 C 0 km/h
2359 05-06-2011 13:17:01 24.9 C 13.73 g/m*3 24.9 C 0 km/h
2360 05-06-2011 13:29:01 24.8 C 13.88 g/m*3 24.8 C 0 km/h
2361 05-06-2011 13:41:02 25 C 13.81 g/m*3 25 C 0 km/h
2362 05-06-2011 13:53:02 25.6 C 15 g/m*3 25.6 C 0 km/h
2363 05-06-2011 14:05:02 25.3 C 14.05 g/m*3 25.3 C 0 km/h
2364 05-06-2011 14:17:01 24.7 C 15.16 g/m*3 24.7 C 0 km/h
2365 05-06-2011 14:29:01 24.4 C 15.58 g/m*3 24.4 C 0 km/h
2366 05-06-2011 14:41:02 27.5 C 14.55 g/m*3 27.5 C 0 km/h
2367 05-06-2011 14:53:02 28.1 C 11.76 g/m*3 28.1 C 0 km/h
2368 05-06-2011 15:05:02 27.7 C 13.91 g/m*3 27.7 C 0 km/h
2369 05-06-2011 15:17:01 25.3 C 12.88 g/m*3 25.3 C 0 km/h
2370 05-06-2011 15:29:01 23.7 C 14.33 g/m*3 23.7 C 0 km/h
2371 05-06-2011 15:41:16 21.9 C 14.67 g/m*3 21.9 C 0 km/h
2372 05-06-2011 15:53:16 21.1 C 14.56 g/m*3 21.1 C 0 km/h
2373 05-06-2011 16:05:16 19.5 C 13.43 g/m*3 19.5 C 0 km/h
2374 05-06-2011 16:17:16 17.4 C 12 g/m*3 17.4 C 0 km/h
2375 05-06-2011 16:29:16 17.3 C 12.23 g/m*3 17.3 C 0 km/h
Sensor: Nr:Datum:Temp:Abs-Feuchte:Windchill:Wind:
Aussen-T/F 2376 05-06-2011 16:41:16 17.6 C 12.6 g/m*3 17.6 C 0 km/h
2377 05-06-2011 16:53:16 17.3 C 12.37 g/m*3 17.3 C 0 km/h
2378 05-06-2011 17:05:02 17.4 C 12.6 g/m*3 17.4 C 0 km/h
2379 05-06-2011 17:17:02 17.5 C 12.82 g/m*3 17.5 C 0 km/h
2380 05-06-2011 17:29:02 17.7 C 12.98 g/m*3 17.7 C 0 km/h
2381 05-06-2011 17:41:02 17.2 C 12.59 g/m*3 17.2 C 0 km/h
2382 05-06-2011 17:53:02 17.2 C 12.59 g/m*3 17.2 C 0 km/h
2383 05-06-2011 18:05:01 17.2 C 12.59 g/m*3 17.2 C 0 km/h
2384 05-06-2011 18:17:02 16.9 C 12.51 g/m*3 16.9 C 0 km/h
2385 05-06-2011 18:29:02 16.9 C 12.51 g/m*3 16.9 C 0 km/h
2386 05-06-2011 18:41:02 16.8 C 12.44 g/m*3 16.8 C 0 km/h
2387 05-06-2011 18:53:02 16.8 C 12.58 g/m*3 16.8 C 0 km/h
2388 05-06-2011 19:05:03 17 C 12.59 g/m*3 17 C 0 km/h
2389 05-06-2011 19:17:02 17.2 C 12.74 g/m*3 17.2 C 0 km/h
2390 05-06-2011 19:29:02 17.4 C 13.04 g/m*3 17.4 C 0 km/h
2391 05-06-2011 19:41:02 17.7 C 13.28 g/m*3 17.7 C 0 km/h
2392 05-06-2011 19:53:01 17.8 C 13.36 g/m*3 17.8 C 0 km/h
2393 05-06-2011 20:05:02 17.8 C 13.2 g/m*3 17.8 C 0 km/h
2394 05-06-2011 20:17:01 17.8 C 13.2 g/m*3 17.8 C 0 km/h
2395 05-06-2011 20:29:01 17.6 C 13.05 g/m*3 17.6 C 0 km/h
2396 05-06-2011 20:41:02 17.3 C 12.82 g/m*3 17.3 C 0 km/h
2397 05-06-2011 20:53:01 17.3 C 12.82 g/m*3 17.3 C 0 km/h
2398 05-06-2011 21:05:02 17.2 C 12.74 g/m*3 17.2 C 0 km/h
2399 05-06-2011 21:17:01 17 C 12.59 g/m*3 17 C 0 km/h
2400 05-06-2011 21:29:01 16.8 C 12.58 g/m*3 16.8 C 0 km/h
Sensor: Nr:Datum:Temp:Abs-Feuchte:Windchill:Wind:
Aussen-T/F 2401 05-06-2011 21:41:02 16.7 C 12.51 g/m*3 16.7 C 0 km/h
2402 05-06-2011 21:53:01 16.7 C 12.65 g/m*3 16.7 C 0 km/h
2403 05-06-2011 22:05:01 16.7 C 12.65 g/m*3 16.7 C 0 km/h
2404 05-06-2011 22:17:02 16.8 C 12.72 g/m*3 16.8 C 0 km/h
2405 05-06-2011 22:29:02 16.8 C 12.72 g/m*3 16.8 C 0 km/h
2406 05-06-2011 22:41:01 16.4 C 12.42 g/m*3 16.4 C 0 km/h
2407 05-06-2011 22:53:03 16.2 C 12.27 g/m*3 16.2 C 0 km/h
2408 05-06-2011 23:06:05 16.1 C 12.2 g/m*3 16.1 C 0 km/h
2409 05-06-2011 23:18:05 16 C 12.13 g/m*3 16 C 0 km/h
2410 05-06-2011 23:30:05 15.9 C 12.05 g/m*3 15.9 C 0 km/h
2411 05-06-2011 23:42:05 15.5 C 11.76 g/m*3 15.5 C 0 km/h
2412 05-06-2011 23:54:05 15 C 11.41 g/m*3 15 C 0 km/h
2413 06-06-2011 00:06:05 15.3 C 11.62 g/m*3 15.3 C 0 km/h
2414 06-06-2011 00:18:05 15.3 C 11.75 g/m*3 15.3 C 0 km/h
2415 06-06-2011 00:30:06 14.9 C 11.47 g/m*3 14.9 C 0 km/h
2416 06-06-2011 00:42:06 15 C 11.41 g/m*3 15 C 0 km/h
2417 06-06-2011 00:54:06 15 C 11.54 g/m*3 15 C 0 km/h
2418 06-06-2011 01:06:06 15.1 C 11.61 g/m*3 15.1 C 0 km/h
2419 06-06-2011 01:18:06 15.1 C 11.61 g/m*3 15.1 C 0 km/h
2420 06-06-2011 01:30:06 14.9 C 11.6 g/m*3 14.9 C 0 km/h
2421 06-06-2011 01:42:06 15 C 11.54 g/m*3 15 C 0 km/h
2422 06-06-2011 01:54:06 15 C 11.54 g/m*3 15 C 0 km/h
2423 06-06-2011 02:06:06 15.1 C 11.61 g/m*3 15.1 C 0 km/h
2424 06-06-2011 02:18:06 15.1 C 11.61 g/m*3 15.1 C 0 km/h
2425 06-06-2011 02:30:06 15.1 C 11.61 g/m*3 15.1 C 0 km/h
Sensor: Nr:Datum:Temp:Abs-Feuchte:Windchill:Wind:
Aussen-T/F 2426 06-06-2011 02:42:06 15 C 11.54 g/m*3 15 C 0 km/h
2427 06-06-2011 02:54:06 15 C 11.54 g/m*3 15 C 0 km/h
2428 06-06-2011 03:06:06 15.1 C 11.61 g/m*3 15.1 C 0 km/h
2429 06-06-2011 03:18:06 14.9 C 11.6 g/m*3 14.9 C 0 km/h
2430 06-06-2011 03:30:06 15 C 11.54 g/m*3 15 C 0 km/h
2431 06-06-2011 03:42:06 14.5 C 11.32 g/m*3 14.5 C 0 km/h
2432 06-06-2011 03:54:06 14.4 C 11.25 g/m*3 14.4 C 0 km/h
2433 06-06-2011 04:06:06 14.4 C 11.25 g/m*3 14.4 C 0 km/h
2434 06-06-2011 04:18:06 13.8 C 10.84 g/m*3 13.8 C 0 km/h
2435 06-06-2011 04:30:06 14 C 10.98 g/m*3 14 C 0 km/h
2436 06-06-2011 04:42:07 14 C 10.98 g/m*3 14 C 0 km/h
2437 06-06-2011 04:54:07 13.7 C 10.78 g/m*3 13.7 C 0 km/h
2438 06-06-2011 05:06:07 14 C 10.98 g/m*3 14 C 0 km/h
2439 06-06-2011 05:18:07 13.6 C 10.71 g/m*3 13.6 C 0 km/h
2440 06-06-2011 05:30:07 13.6 C 10.71 g/m*3 13.6 C 0 km/h
2441 06-06-2011 05:42:07 13.5 C 10.64 g/m*3 13.5 C 0 km/h
2442 06-06-2011 05:54:07 13.7 C 10.78 g/m*3 13.7 C 0 km/h
2443 06-06-2011 06:06:07 13.7 C 10.78 g/m*3 13.7 C 0 km/h
2444 06-06-2011 06:18:07 14 C 10.98 g/m*3 14 C 0 km/h
2445 06-06-2011 06:30:07 14.2 C 11.11 g/m*3 14.2 C 0 km/h
2446 06-06-2011 06:42:07 14.4 C 11.25 g/m*3 14.4 C 0 km/h
2447 06-06-2011 06:54:07 14.8 C 11.53 g/m*3 14.8 C 0 km/h
2448 06-06-2011 07:06:07 14.9 C 11.6 g/m*3 14.9 C 0 km/h
2449 06-06-2011 07:18:04 15.2 C 11.68 g/m*3 15.2 C 0 km/h
2450 06-06-2011 07:30:04 15.4 C 11.82 g/m*3 15.4 C 0 km/h
Sensor: Nr:Datum:Temp:Abs-Feuchte:Windchill:Wind:
Aussen-T/F 2451 06-06-2011 07:42:04 15.5 C 11.9 g/m*3 15.5 C 0 km/h
2452 06-06-2011 07:54:03 15.7 C 12.04 g/m*3 15.7 C 0 km/h
2453 06-06-2011 08:06:02 16.1 C 12.34 g/m*3 16.1 C 0 km/h
2454 06-06-2011 08:18:02 16.8 C 12.87 g/m*3 16.8 C 0 km/h
2455 06-06-2011 08:30:02 17 C 12.88 g/m*3 17 C 0 km/h
2456 06-06-2011 08:42:02 18.3 C 13.76 g/m*3 18.3 C 0 km/h
2457 06-06-2011 08:54:02 18.1 C 13.44 g/m*3 18.1 C 0 km/h
2458 06-06-2011 09:06:01 18.3 C 13.29 g/m*3 18.3 C 0 km/h
2459 06-06-2011 09:18:02 18.1 C 12.82 g/m*3 18.1 C 0 km/h
2460 06-06-2011 09:30:02 18.1 C 12.98 g/m*3 18.1 C 0 km/h
2461 06-06-2011 09:42:02 18.3 C 12.98 g/m*3 18.3 C 0 km/h
2462 06-06-2011 09:54:02 18.8 C 13.37 g/m*3 18.8 C 0 km/h
2463 06-06-2011 10:06:02 19 C 13.53 g/m*3 19 C 0 km/h
2464 06-06-2011 10:18:02 19.6 C 13.34 g/m*3 19.6 C 0 km/h
2465 06-06-2011 10:30:02 20.7 C 13.14 g/m*3 20.7 C 0 km/h
2466 06-06-2011 10:42:02 21.3 C 11.93 g/m*3 21.3 C 0 km/h
2467 06-06-2011 10:54:02 21.4 C 12 g/m*3 21.4 C 0 km/h
2468 06-06-2011 11:06:02 21.9 C 11.77 g/m*3 21.9 C 0 km/h
2469 06-06-2011 11:18:02 22.9 C 10.83 g/m*3 22.9 C 0 km/h
2470 06-06-2011 11:30:02 21.5 C 10.75 g/m*3 21.5 C 0 km/h
2471 06-06-2011 11:42:02 22.3 C 10.86 g/m*3 22.3 C 0 km/h
2472 06-06-2011 11:54:02 22.9 C 11.24 g/m*3 22.9 C 0 km/h
2473 06-06-2011 12:06:02 23 C 11.1 g/m*3 23 C 0 km/h
2474 06-06-2011 12:18:02 22.9 C 10.83 g/m*3 22.9 C 0 km/h
2475 06-06-2011 12:30:02 23.5 C 10.79 g/m*3 23.5 C 0 km/h
Sensor: Nr:Datum:Temp:Abs-Feuchte:Windchill:Wind:
Aussen-T/F 2476 06-06-2011 12:42:02 23.9 C 11.03 g/m*3 23.9 C 0 km/h
2477 06-06-2011 12:54:02 24.2 C 10.78 g/m*3 24.2 C 0 km/h
2478 06-06-2011 13:06:01 24.6 C 11.25 g/m*3 24.6 C 0 km/h
2479 06-06-2011 13:18:02 24.6 C 10.35 g/m*3 24.6 C 0 km/h
2480 06-06-2011 13:30:02 29.1 C 10.11 g/m*3 29.1 C 0 km/h
2481 06-06-2011 13:42:01 27.8 C 9.95 g/m*3 27.8 C 0 km/h
2482 06-06-2011 13:54:02 27 C 9.01 g/m*3 27 C 0 km/h
2483 06-06-2011 14:06:01 28.3 C 9.68 g/m*3 28.3 C 0 km/h
2484 06-06-2011 14:18:01 27.3 C 9.42 g/m*3 27.3 C 0 km/h
2485 06-06-2011 14:30:01 26.7 C 9.37 g/m*3 26.7 C 0 km/h
2486 06-06-2011 14:42:02 26.4 C 8.96 g/m*3 26.4 C 0 km/h
2487 06-06-2011 14:54:02 26.5 C 10.01 g/m*3 26.5 C 0 km/h
2488 06-06-2011 15:06:02 26.2 C 8.86 g/m*3 26.2 C 0 km/h
2489 06-06-2011 15:18:01 25.8 C 9.87 g/m*3 25.8 C 0 km/h
2490 06-06-2011 15:30:01 25.5 C 11.6 g/m*3 25.5 C 0 km/h
2491 06-06-2011 15:42:02 27.2 C 10.15 g/m*3 27.2 C 0 km/h
2492 06-06-2011 15:54:02 25.1 C 9.26 g/m*3 25.1 C 0 km/h
2493 06-06-2011 16:06:02 24.8 C 10.24 g/m*3 24.8 C 0 km/h
2494 06-06-2011 16:18:01 25.1 C 10.19 g/m*3 25.1 C 0 km/h
2495 06-06-2011 16:30:01 26.1 C 10.28 g/m*3 26.1 C 0 km/h
2496 06-06-2011 16:42:02 25.8 C 10.11 g/m*3 25.8 C 0 km/h
2497 06-06-2011 16:54:02 23 C 8.63 g/m*3 23 C 0 km/h
2498 06-06-2011 17:06:02 21.1 C 8.84 g/m*3 21.1 C 0 km/h
2499 06-06-2011 17:18:01 18 C 9.83 g/m*3 18 C 0 km/h
2500 06-06-2011 17:30:01 16.9 C 10.79 g/m*3 16.9 C 0 km/h
Sensor: Nr:Datum:Temp:Abs-Feuchte:Windchill:Wind:
Aussen-T/F 2501 06-06-2011 17:42:02 16.4 C 10.89 g/m*3 16.4 C 0 km/h
2502 06-06-2011 17:54:01 16.3 C 11.38 g/m*3 16.3 C 0 km/h
2503 06-06-2011 18:06:02 16.4 C 11.72 g/m*3 16.4 C 0 km/h
2504 06-06-2011 18:18:02 17 C 12.01 g/m*3 17 C 0 km/h
2505 06-06-2011 18:30:02 16.8 C 12.01 g/m*3 16.8 C 0 km/h
2506 06-06-2011 18:42:01 17.2 C 12.3 g/m*3 17.2 C 0 km/h
2507 06-06-2011 18:54:02 17.2 C 12.3 g/m*3 17.2 C 0 km/h
2508 06-06-2011 19:06:01 17.2 C 12.3 g/m*3 17.2 C 0 km/h
2509 06-06-2011 19:18:02 17.5 C 12.67 g/m*3 17.5 C 0 km/h
2510 06-06-2011 19:30:03 17.8 C 12.9 g/m*3 17.8 C 0 km/h
2511 06-06-2011 19:42:01 18.1 C 12.82 g/m*3 18.1 C 0 km/h
2512 06-06-2011 19:54:02 18.1 C 12.82 g/m*3 18.1 C 0 km/h
2513 06-06-2011 20:06:02 18.1 C 12.67 g/m*3 18.1 C 0 km/h
2514 06-06-2011 20:18:02 18.1 C 12.67 g/m*3 18.1 C 0 km/h
2515 06-06-2011 20:30:02 18.1 C 12.67 g/m*3 18.1 C 0 km/h
2516 06-06-2011 20:42:49 17.5 C 12.52 g/m*3 17.5 C 0 km/h
2517 06-06-2011 20:54:49 17.2 C 12.45 g/m*3 17.2 C 0 km/h
2518 06-06-2011 21:06:49 16.8 C 12.15 g/m*3 16.8 C 0 km/h
2519 06-06-2011 21:18:03 16.5 C 12.08 g/m*3 16.5 C 0 km/h
2520 06-06-2011 21:30:03 16.3 C 11.93 g/m*3 16.3 C 0 km/h
2521 06-06-2011 21:42:02 16.2 C 12 g/m*3 16.2 C 0 km/h
2522 06-06-2011 21:55:02 15.9 C 11.78 g/m*3 15.9 C 0 km/h
2523 06-06-2011 22:07:02 15.9 C 11.92 g/m*3 15.9 C 0 km/h
2524 06-06-2011 22:19:02 15.6 C 11.7 g/m*3 15.6 C 0 km/h
2525 06-06-2011 22:31:02 15.3 C 11.49 g/m*3 15.3 C 0 km/h
Sensor: Nr:Datum:Temp:Abs-Feuchte:Windchill:Wind:
Aussen-T/F 2526 06-06-2011 22:43:02 15.8 C 11.98 g/m*3 15.8 C 0 km/h
2527 06-06-2011 22:55:02 15.6 C 11.84 g/m*3 15.6 C 0 km/h
2528 06-06-2011 23:07:03 15.5 C 11.76 g/m*3 15.5 C 0 km/h
2529 06-06-2011 23:19:03 15.7 C 11.91 g/m*3 15.7 C 0 km/h
2530 06-06-2011 23:31:03 15.6 C 11.84 g/m*3 15.6 C 0 km/h
2531 06-06-2011 23:43:03 15.6 C 11.84 g/m*3 15.6 C 0 km/h
2532 06-06-2011 23:55:03 15.4 C 11.69 g/m*3 15.4 C 0 km/h
2533 07-06-2011 00:07:03 15 C 11.41 g/m*3 15 C 0 km/h
2534 07-06-2011 00:19:03 15.2 C 11.55 g/m*3 15.2 C 0 km/h
2535 07-06-2011 00:31:03 15.2 C 11.55 g/m*3 15.2 C 0 km/h
2536 07-06-2011 00:43:03 15.1 C 11.48 g/m*3 15.1 C 0 km/h
2537 07-06-2011 00:55:03 15.2 C 11.55 g/m*3 15.2 C 0 km/h
2538 07-06-2011 01:07:03 15.3 C 11.75 g/m*3 15.3 C 0 km/h
2539 07-06-2011 01:19:03 15.3 C 11.75 g/m*3 15.3 C 0 km/h
2540 07-06-2011 01:31:03 15.3 C 11.75 g/m*3 15.3 C 0 km/h
2541 07-06-2011 01:43:03 15.5 C 11.9 g/m*3 15.5 C 0 km/h
2542 07-06-2011 01:55:03 15.5 C 11.9 g/m*3 15.5 C 0 km/h
2543 07-06-2011 02:07:03 15.6 C 11.97 g/m*3 15.6 C 0 km/h
2544 07-06-2011 02:19:03 15.7 C 12.04 g/m*3 15.7 C 0 km/h
2545 07-06-2011 02:31:03 15.7 C 12.04 g/m*3 15.7 C 0 km/h
2546 07-06-2011 02:43:03 15.7 C 12.04 g/m*3 15.7 C 0 km/h
2547 07-06-2011 02:55:03 15.5 C 11.9 g/m*3 15.5 C 0 km/h
2548 07-06-2011 03:07:04 15.5 C 11.9 g/m*3 15.5 C 0 km/h
2549 07-06-2011 03:19:04 15.4 C 11.82 g/m*3 15.4 C 0 km/h
2550 07-06-2011 03:31:04 15 C 11.54 g/m*3 15 C 0 km/h
Sensor: Nr:Datum:Temp:Abs-Feuchte:Windchill:Wind:
Aussen-T/F 2551 07-06-2011 03:43:04 14.9 C 11.6 g/m*3 14.9 C 0 km/h
2552 07-06-2011 03:55:04 14.8 C 11.53 g/m*3 14.8 C 0 km/h
2553 07-06-2011 04:07:04 15 C 11.54 g/m*3 15 C 0 km/h
2554 07-06-2011 04:19:04 15.1 C 11.61 g/m*3 15.1 C 0 km/h
2555 07-06-2011 04:31:04 15.2 C 11.68 g/m*3 15.2 C 0 km/h
2556 07-06-2011 04:43:04 15.2 C 11.68 g/m*3 15.2 C 0 km/h
2557 07-06-2011 04:55:04 15.1 C 11.61 g/m*3 15.1 C 0 km/h
2558 07-06-2011 05:07:04 15 C 11.54 g/m*3 15 C 0 km/h
2559 07-06-2011 05:19:04 15 C 11.54 g/m*3 15 C 0 km/h
2560 07-06-2011 05:31:04 15 C 11.54 g/m*3 15 C 0 km/h
2561 07-06-2011 05:43:04 15 C 11.54 g/m*3 15 C 0 km/h
2562 07-06-2011 05:55:04 15 C 11.54 g/m*3 15 C 0 km/h
2563 07-06-2011 06:07:04 14.7 C 11.33 g/m*3 14.7 C 0 km/h
2564 07-06-2011 06:19:04 14.8 C 11.4 g/m*3 14.8 C 0 km/h
2565 07-06-2011 06:31:04 14.8 C 11.4 g/m*3 14.8 C 0 km/h
2566 07-06-2011 06:43:04 14.9 C 11.47 g/m*3 14.9 C 0 km/h
2567 07-06-2011 06:55:04 15.2 C 11.42 g/m*3 15.2 C 0 km/h
2568 07-06-2011 07:07:02 15.4 C 11.04 g/m*3 15.4 C 0 km/h
2569 07-06-2011 07:19:02 15.7 C 10.84 g/m*3 15.7 C 0 km/h
2570 07-06-2011 07:31:02 16 C 10.9 g/m*3 16 C 0 km/h
2571 07-06-2011 07:43:02 16.2 C 10.76 g/m*3 16.2 C 0 km/h
2572 07-06-2011 07:55:02 16.6 C 10.03 g/m*3 16.6 C 0 km/h
2573 07-06-2011 08:07:02 16.9 C 9.92 g/m*3 16.9 C 0 km/h
2574 07-06-2011 08:19:01 17.2 C 9.67 g/m*3 17.2 C 0 km/h
2575 07-06-2011 08:31:02 17.8 C 9.87 g/m*3 17.8 C 0 km/h
Sensor: Nr:Datum:Temp:Abs-Feuchte:Windchill:Wind:
Aussen-T/F 2576 07-06-2011 08:43:02 17.9 C 9.47 g/m*3 17.9 C 0 km/h
2577 07-06-2011 08:55:02 18.2 C 8.86 g/m*3 18.2 C 0 km/h
2578 07-06-2011 09:07:02 18.4 C 8.81 g/m*3 18.4 C 0 km/h
2579 07-06-2011 09:19:01 18.5 C 8.54 g/m*3 18.5 C 0 km/h
2580 07-06-2011 09:31:02 18.1 C 8.5 g/m*3 18.1 C 0 km/h
2581 07-06-2011 09:43:02 18.4 C 8.81 g/m*3 18.4 C 0 km/h
2582 07-06-2011 09:55:02 18.9 C 8.59 g/m*3 18.9 C 0 km/h
2583 07-06-2011 10:07:02 18.8 C 8.21 g/m*3 18.8 C 0 km/h
2584 07-06-2011 10:19:02 19.2 C 8.24 g/m*3 19.2 C 0 km/h
2585 07-06-2011 10:31:02 19.1 C 8.03 g/m*3 19.1 C 0 km/h
2586 07-06-2011 10:43:02 19.5 C 9.06 g/m*3 19.5 C 0 km/h
2587 07-06-2011 10:55:02 19.1 C 8.85 g/m*3 19.1 C 0 km/h
2588 07-06-2011 11:07:02 19.1 C 8.2 g/m*3 19.1 C 0 km/h
2589 07-06-2011 11:19:02 19.2 C 8.41 g/m*3 19.2 C 0 km/h
2590 07-06-2011 11:31:02 19.3 C 8.46 g/m*3 19.3 C 0 km/h
2591 07-06-2011 11:43:02 19.5 C 8.39 g/m*3 19.5 C 0 km/h
2592 07-06-2011 11:55:02 19.7 C 8.66 g/m*3 19.7 C 0 km/h
2593 07-06-2011 12:07:02 20.8 C 8.69 g/m*3 20.8 C 0 km/h
2594 07-06-2011 12:19:02 21.1 C 8.66 g/m*3 21.1 C 0 km/h
2595 07-06-2011 12:31:02 21.1 C 8.48 g/m*3 21.1 C 0 km/h
2596 07-06-2011 12:43:02 20.9 C 8.74 g/m*3 20.9 C 0 km/h
2597 07-06-2011 12:55:02 21.2 C 8.52 g/m*3 21.2 C 0 km/h
2598 07-06-2011 13:07:01 21.9 C 8.68 g/m*3 21.9 C 0 km/h
2599 07-06-2011 13:19:02 22.3 C 8.89 g/m*3 22.3 C 0 km/h
2600 07-06-2011 13:31:01 25.7 C 8.38 g/m*3 25.7 C 0 km/h
Sensor: Nr:Datum:Temp:Abs-Feuchte:Windchill:Wind:
Aussen-T/F 2601 07-06-2011 13:43:01 29.1 C 8.66 g/m*3 29.1 C 0 km/h
2602 07-06-2011 13:55:02 30.5 C 8.1 g/m*3 30.5 C 0 km/h
2603 07-06-2011 14:07:01 30.3 C 8.32 g/m*3 30.3 C 0 km/h
2604 07-06-2011 14:19:01 30.3 C 8.01 g/m*3 30.3 C 0 km/h
2605 07-06-2011 14:31:02 28.9 C 7.71 g/m*3 28.9 C 0 km/h
2606 07-06-2011 14:43:02 29 C 8.04 g/m*3 29 C 0 km/h
2607 07-06-2011 14:55:02 27.1 C 8.02 g/m*3 27.1 C 0 km/h
2608 07-06-2011 15:07:02 30.3 C 8.32 g/m*3 30.3 C 0 km/h
2609 07-06-2011 15:19:02 29.5 C 8.26 g/m*3 29.5 C 0 km/h
2610 07-06-2011 15:31:02 30 C 8.49 g/m*3 30 C 0 km/h
2611 07-06-2011 15:43:02 30.5 C 8.1 g/m*3 30.5 C 0 km/h
2612 07-06-2011 15:55:02 28.6 C 7.59 g/m*3 28.6 C 0 km/h
2613 07-06-2011 16:07:02 30 C 7.88 g/m*3 30 C 0 km/h
2614 07-06-2011 16:19:02 31.8 C 7.01 g/m*3 31.8 C 0 km/h
2615 07-06-2011 16:31:02 30.1 C 7.62 g/m*3 30.1 C 0 km/h
2616 07-06-2011 16:43:02 31.7 C 6.98 g/m*3 31.7 C 0 km/h
2617 07-06-2011 16:55:02 32.1 C 6.79 g/m*3 32.1 C 0 km/h
2618 07-06-2011 17:07:02 31.5 C 7.23 g/m*3 31.5 C 0 km/h
2619 07-06-2011 17:19:03 29.9 C 8.14 g/m*3 29.9 C 0 km/h
2620 07-06-2011 17:31:02 30.6 C 7.83 g/m*3 30.6 C 0 km/h
2621 07-06-2011 17:43:02 29.3 C 8.17 g/m*3 29.3 C 0 km/h
2622 07-06-2011 17:55:02 27.1 C 11.13 g/m*3 27.1 C 0 km/h
2623 07-06-2011 18:07:01 24.3 C 11.29 g/m*3 24.3 C 0 km/h
2624 07-06-2011 18:19:02 25.2 C 11.64 g/m*3 25.2 C 0 km/h
2625 07-06-2011 18:31:01 29.7 C 8.95 g/m*3 29.7 C 0 km/h
Sensor: Nr:Datum:Temp:Abs-Feuchte:Windchill:Wind:
Aussen-T/F 2626 07-06-2011 18:43:01 29.5 C 8.85 g/m*3 29.5 C 0 km/h
2627 07-06-2011 18:55:02 28.3 C 9.4 g/m*3 28.3 C 0 km/h
2628 07-06-2011 19:07:01 27.3 C 11.25 g/m*3 27.3 C 0 km/h
2629 07-06-2011 19:19:01 27.7 C 11.77 g/m*3 27.7 C 0 km/h
2630 07-06-2011 19:31:02 26.5 C 11.77 g/m*3 26.5 C 0 km/h
2631 07-06-2011 19:43:02 24.5 C 11.41 g/m*3 24.5 C 0 km/h
2632 07-06-2011 19:55:02 23.1 C 11.58 g/m*3 23.1 C 0 km/h
2633 07-06-2011 20:07:02 22.1 C 11.71 g/m*3 22.1 C 0 km/h
2634 07-06-2011 20:19:02 21.9 C 11.96 g/m*3 21.9 C 0 km/h
2635 07-06-2011 20:31:02 21.2 C 11.49 g/m*3 21.2 C 0 km/h
2636 07-06-2011 20:43:02 20.5 C 11.39 g/m*3 20.5 C 0 km/h
2637 07-06-2011 20:55:02 20 C 11.06 g/m*3 20 C 0 km/h
2638 07-06-2011 21:07:03 19.7 C 11.21 g/m*3 19.7 C 0 km/h
2639 07-06-2011 21:19:02 19.6 C 10.97 g/m*3 19.6 C 0 km/h
2640 07-06-2011 21:31:04 19.4 C 11.35 g/m*3 19.4 C 0 km/h
2641 07-06-2011 21:43:04 19.1 C 11.15 g/m*3 19.1 C 0 km/h
2642 07-06-2011 21:55:02 19 C 11.41 g/m*3 19 C 0 km/h
2643 07-06-2011 22:07:02 18.5 C 11.39 g/m*3 18.5 C 0 km/h
2644 07-06-2011 22:19:02 18.9 C 11.5 g/m*3 18.9 C 0 km/h
2645 07-06-2011 22:32:01 19.7 C 11.21 g/m*3 19.7 C 0 km/h
2646 07-06-2011 22:44:01 19.5 C 10.91 g/m*3 19.5 C 0 km/h
2647 07-06-2011 22:56:01 19 C 11.41 g/m*3 19 C 0 km/h
2648 07-06-2011 23:08:01 18.6 C 11.78 g/m*3 18.6 C 0 km/h
2649 07-06-2011 23:20:01 18.5 C 11.87 g/m*3 18.5 C 0 km/h
2650 07-06-2011 23:32:01 19.5 C 10.07 g/m*3 19.5 C 0 km/h
Sensor: Nr:Datum:Temp:Abs-Feuchte:Windchill:Wind:
Aussen-T/F 2651 07-06-2011 23:44:01 19.1 C 9.51 g/m*3 19.1 C 0 km/h
2652 07-06-2011 23:56:02 17.7 C 10.11 g/m*3 17.7 C 0 km/h
2653 08-06-2011 00:08:02 16.8 C 11.29 g/m*3 16.8 C 0 km/h
2654 08-06-2011 00:20:02 16.4 C 11.31 g/m*3 16.4 C 0 km/h
2655 08-06-2011 00:32:02 16.4 C 11.45 g/m*3 16.4 C 0 km/h
2656 08-06-2011 00:44:02 16.3 C 11.52 g/m*3 16.3 C 0 km/h
2657 08-06-2011 00:56:02 16.2 C 11.58 g/m*3 16.2 C 0 km/h
2658 08-06-2011 01:08:02 16.1 C 11.65 g/m*3 16.1 C 0 km/h
2659 08-06-2011 01:20:02 16 C 11.72 g/m*3 16 C 0 km/h
2660 08-06-2011 01:32:02 16 C 11.72 g/m*3 16 C 0 km/h
2661 08-06-2011 01:44:02 16 C 11.85 g/m*3 16 C 0 km/h
2662 08-06-2011 01:56:02 15.9 C 11.92 g/m*3 15.9 C 0 km/h
2663 08-06-2011 02:08:02 15.7 C 11.77 g/m*3 15.7 C 0 km/h
2664 08-06-2011 02:20:02 15.6 C 11.7 g/m*3 15.6 C 0 km/h
2665 08-06-2011 02:32:02 15.5 C 11.63 g/m*3 15.5 C 0 km/h
2666 08-06-2011 02:44:02 15.4 C 11.56 g/m*3 15.4 C 0 km/h
2667 08-06-2011 02:56:02 15.4 C 11.56 g/m*3 15.4 C 0 km/h
2668 08-06-2011 03:08:02 15.3 C 11.49 g/m*3 15.3 C 0 km/h
2669 08-06-2011 03:20:02 15.2 C 11.55 g/m*3 15.2 C 0 km/h
2670 08-06-2011 03:32:02 15.2 C 11.55 g/m*3 15.2 C 0 km/h
2671 08-06-2011 03:44:02 15.2 C 11.55 g/m*3 15.2 C 0 km/h
2672 08-06-2011 03:56:03 15.1 C 11.48 g/m*3 15.1 C 0 km/h
2673 08-06-2011 04:08:03 15.1 C 11.48 g/m*3 15.1 C 0 km/h
2674 08-06-2011 04:20:03 15.2 C 11.55 g/m*3 15.2 C 0 km/h
2675 08-06-2011 04:32:03 15.1 C 11.48 g/m*3 15.1 C 0 km/h
Sensor: Nr:Datum:Temp:Abs-Feuchte:Windchill:Wind:
Aussen-T/F 2676 08-06-2011 04:44:03 15.1 C 11.48 g/m*3 15.1 C 0 km/h
2677 08-06-2011 04:56:03 15.1 C 11.48 g/m*3 15.1 C 0 km/h
2678 08-06-2011 05:08:03 15 C 11.41 g/m*3 15 C 0 km/h
2679 08-06-2011 05:20:03 14.9 C 11.47 g/m*3 14.9 C 0 km/h
2680 08-06-2011 05:32:03 15 C 11.41 g/m*3 15 C 0 km/h
2681 08-06-2011 05:44:03 15 C 11.41 g/m*3 15 C 0 km/h
2682 08-06-2011 05:56:03 15.1 C 11.48 g/m*3 15.1 C 0 km/h
2683 08-06-2011 06:08:03 15 C 11.41 g/m*3 15 C 0 km/h
2684 08-06-2011 06:20:03 13.4 C 10.46 g/m*3 13.4 C 0 km/h
2685 08-06-2011 06:32:03 12.6 C 9.96 g/m*3 12.6 C 0 km/h
2686 08-06-2011 06:44:03 12.5 C 9.78 g/m*3 12.5 C 0 km/h
2687 08-06-2011 06:56:03 12.4 C 9.51 g/m*3 12.4 C 0 km/h
2688 08-06-2011 07:08:02 12.1 C 9.22 g/m*3 12.1 C 0 km/h
2689 08-06-2011 07:20:01 12.1 C 9.12 g/m*3 12.1 C 0 km/h
2690 08-06-2011 07:32:02 11.9 C 9.11 g/m*3 11.9 C 0 km/h
2691 08-06-2011 07:44:02 11.8 C 9.05 g/m*3 11.8 C 0 km/h
2692 08-06-2011 07:56:02 11.4 C 8.62 g/m*3 11.4 C 0 km/h
2693 08-06-2011 08:08:02 11.4 C 8.72 g/m*3 11.4 C 0 km/h
2694 08-06-2011 08:20:01 11.2 C 8.62 g/m*3 11.2 C 0 km/h
2695 08-06-2011 08:32:02 11.5 C 8.88 g/m*3 11.5 C 0 km/h
2696 08-06-2011 08:44:02 11.4 C 8.72 g/m*3 11.4 C 0 km/h
2697 08-06-2011 08:56:01 11.3 C 8.57 g/m*3 11.3 C 0 km/h
2698 08-06-2011 09:08:02 11.7 C 8.89 g/m*3 11.7 C 0 km/h
2699 08-06-2011 09:20:02 11.8 C 8.95 g/m*3 11.8 C 0 km/h
2700 08-06-2011 09:32:01 11.8 C 8.84 g/m*3 11.8 C 0 km/h
Sensor: Nr:Datum:Temp:Abs-Feuchte:Windchill:Wind:
Aussen-T/F 2701 08-06-2011 09:44:01 12 C 8.95 g/m*3 12 C 0 km/h
2702 08-06-2011 09:56:01 11.7 C 8.79 g/m*3 11.7 C 0 km/h
2703 08-06-2011 10:08:01 11.9 C 8.9 g/m*3 11.9 C 0 km/h
2704 08-06-2011 10:20:02 12.3 C 8.9 g/m*3 12.3 C 0 km/h
2705 08-06-2011 10:32:01 12.4 C 8.85 g/m*3 12.4 C 0 km/h
2706 08-06-2011 10:44:01 12.2 C 8.52 g/m*3 12.2 C 0 km/h
2707 08-06-2011 10:56:03 12 C 8.1 g/m*3 12 C 0 km/h
2708 08-06-2011 11:08:02 12.1 C 8.15 g/m*3 12.1 C 0 km/h
2709 08-06-2011 11:20:02 12.4 C 8.19 g/m*3 12.4 C 0 km/h
2710 08-06-2011 11:32:02 13.5 C 9.01 g/m*3 13.5 C 0 km/h
2711 08-06-2011 11:44:02 14.1 C 7.89 g/m*3 14.1 C 0 km/h
2712 08-06-2011 11:56:02 14.5 C 7.59 g/m*3 14.5 C 0 km/h
2713 08-06-2011 12:08:01 15.4 C 7.75 g/m*3 15.4 C 0 km/h
2714 08-06-2011 12:20:02 15.9 C 6.77 g/m*3 15.9 C 0 km/h
2715 08-06-2011 12:32:02 15.8 C 6.6 g/m*3 15.8 C 0 km/h
2716 08-06-2011 12:44:02 16.2 C 6.34 g/m*3 16.2 C 0 km/h
2717 08-06-2011 12:56:02 17.3 C 6.48 g/m*3 17.3 C 0 km/h
2718 08-06-2011 13:08:02 18 C 6.6 g/m*3 18 C 0 km/h
2719 08-06-2011 13:20:02 18.6 C 7 g/m*3 18.6 C 0 km/h
2720 08-06-2011 13:32:02 19.9 C 7.04 g/m*3 19.9 C 0 km/h
2721 08-06-2011 13:44:02 22 C 6.6 g/m*3 22 C 0 km/h
2722 08-06-2011 13:56:01 24.2 C 6.82 g/m*3 24.2 C 0 km/h
2723 08-06-2011 14:08:02 20.5 C 6.58 g/m*3 20.5 C 0 km/h
2724 08-06-2011 14:20:01 18.9 C 6.97 g/m*3 18.9 C 0 km/h
2725 08-06-2011 14:32:01 18.6 C 7.16 g/m*3 18.6 C 0 km/h
Sensor: Nr:Datum:Temp:Abs-Feuchte:Windchill:Wind:
Aussen-T/F 2726 08-06-2011 14:44:01 22.9 C 7.36 g/m*3 22.9 C 0 km/h
2727 08-06-2011 14:56:01 19.6 C 6.75 g/m*3 19.6 C 0 km/h
2728 08-06-2011 15:08:01 21.1 C 6.82 g/m*3 21.1 C 0 km/h
2729 08-06-2011 15:20:01 22.4 C 6.75 g/m*3 22.4 C 0 km/h
2730 08-06-2011 15:32:01 19.9 C 7.04 g/m*3 19.9 C 0 km/h
2731 08-06-2011 15:44:01 20.3 C 7.03 g/m*3 20.3 C 0 km/h
2732 08-06-2011 15:56:02 20.8 C 7.42 g/m*3 20.8 C 0 km/h
2733 08-06-2011 16:08:02 20.3 C 6.16 g/m*3 20.3 C 0 km/h
2734 08-06-2011 16:20:03 19.4 C 5.51 g/m*3 19.4 C 0 km/h
2735 08-06-2011 16:32:02 20.4 C 5.66 g/m*3 20.4 C 0 km/h
2736 08-06-2011 16:44:02 19.2 C 5.11 g/m*3 19.2 C 0 km/h
2737 08-06-2011 16:56:02 20.9 C 5.28 g/m*3 20.9 C 0 km/h
2738 08-06-2011 17:08:02 20.6 C 5.55 g/m*3 20.6 C 0 km/h
2739 08-06-2011 17:20:02 20.9 C 5.46 g/m*3 20.9 C 0 km/h
2740 08-06-2011 17:32:02 19.6 C 5.06 g/m*3 19.6 C 0 km/h
2741 08-06-2011 17:44:02 18.9 C 5.67 g/m*3 18.9 C 0 km/h
2742 08-06-2011 17:56:02 18.6 C 5.73 g/m*3 18.6 C 0 km/h
2743 08-06-2011 18:08:02 19.4 C 5.51 g/m*3 19.4 C 0 km/h
2744 08-06-2011 18:20:02 18.6 C 5.73 g/m*3 18.6 C 0 km/h
2745 08-06-2011 18:32:02 18.2 C 6.22 g/m*3 18.2 C 0 km/h
2746 08-06-2011 18:44:02 17.9 C 6.11 g/m*3 17.9 C 0 km/h
2747 08-06-2011 18:56:02 17.6 C 6.3 g/m*3 17.6 C 0 km/h
2748 08-06-2011 19:08:01 17.7 C 6.34 g/m*3 17.7 C 0 km/h
2749 08-06-2011 19:20:02 17.4 C 6.97 g/m*3 17.4 C 0 km/h
2750 08-06-2011 19:32:01 17.3 C 7.66 g/m*3 17.3 C 0 km/h
Sensor: Nr:Datum:Temp:Abs-Feuchte:Windchill:Wind:
Aussen-T/F 2751 08-06-2011 19:44:01 17.3 C 7.22 g/m*3 17.3 C 0 km/h
2752 08-06-2011 19:56:02 16.9 C 6.47 g/m*3 16.9 C 0 km/h
2753 08-06-2011 20:08:01 16.3 C 7.08 g/m*3 16.3 C 0 km/h
2754 08-06-2011 20:20:01 16.3 C 7.08 g/m*3 16.3 C 0 km/h
2755 08-06-2011 20:32:02 16.3 C 7.08 g/m*3 16.3 C 0 km/h
2756 08-06-2011 20:44:02 15 C 8.21 g/m*3 15 C 0 km/h
2757 08-06-2011 20:56:02 14.9 C 8.16 g/m*3 14.9 C 0 km/h
2758 08-06-2011 21:08:02 14.7 C 8.18 g/m*3 14.7 C 0 km/h
2759 08-06-2011 21:20:02 14.4 C 8.03 g/m*3 14.4 C 0 km/h
2760 08-06-2011 21:32:02 14.2 C 8.3 g/m*3 14.2 C 0 km/h
2761 08-06-2011 21:44:02 14 C 8.32 g/m*3 14 C 0 km/h
2762 08-06-2011 21:56:02 13.7 C 8.41 g/m*3 13.7 C 0 km/h
2763 08-06-2011 22:08:02 13.6 C 8.47 g/m*3 13.6 C 0 km/h
2764 08-06-2011 22:20:02 13.2 C 8.27 g/m*3 13.2 C 0 km/h
2765 08-06-2011 22:32:03 13.4 C 8.49 g/m*3 13.4 C 0 km/h
2766 08-06-2011 22:44:03 13.2 C 8.15 g/m*3 13.2 C 0 km/h
2767 08-06-2011 22:56:03 13.2 C 8.04 g/m*3 13.2 C 0 km/h
2768 08-06-2011 23:08:02 13.3 C 7.86 g/m*3 13.3 C 0 km/h
2769 08-06-2011 23:21:04 13.4 C 7.79 g/m*3 13.4 C 0 km/h
2770 08-06-2011 23:33:04 13.4 C 7.79 g/m*3 13.4 C 0 km/h
2771 08-06-2011 23:45:04 13.4 C 7.79 g/m*3 13.4 C 0 km/h
2772 08-06-2011 23:57:04 13.4 C 7.79 g/m*3 13.4 C 0 km/h
2773 09-06-2011 00:09:04 13.4 C 7.79 g/m*3 13.4 C 0 km/h
2774 09-06-2011 00:21:04 13.4 C 7.79 g/m*3 13.4 C 0 km/h
2775 09-06-2011 00:33:04 13.4 C 7.79 g/m*3 13.4 C 0 km/h
Sensor: Nr:Datum:Temp:Abs-Feuchte:Windchill:Wind:
Aussen-T/F 2776 09-06-2011 00:45:04 13.4 C 7.79 g/m*3 13.4 C 0 km/h
2777 09-06-2011 00:57:05 13.4 C 7.79 g/m*3 13.4 C 0 km/h
2778 09-06-2011 01:09:05 13.4 C 7.79 g/m*3 13.4 C 0 km/h
2779 09-06-2011 01:21:05 11.7 C 7.64 g/m*3 11.7 C 0 km/h
2780 09-06-2011 01:33:05 11.7 C 7.64 g/m*3 11.7 C 0 km/h
2781 09-06-2011 01:45:05 11.7 C 7.64 g/m*3 11.7 C 0 km/h
2782 09-06-2011 01:57:05 11.1 C 7.55 g/m*3 11.1 C 0 km/h
2783 09-06-2011 02:09:05 11.1 C 7.55 g/m*3 11.1 C 0 km/h
2784 09-06-2011 02:21:05 11.1 C 7.55 g/m*3 11.1 C 0 km/h
2785 09-06-2011 02:33:05 11.1 C 7.55 g/m*3 11.1 C 0 km/h
2786 09-06-2011 02:45:05 11.1 C 7.55 g/m*3 11.1 C 0 km/h
2787 09-06-2011 02:57:05 11.1 C 7.55 g/m*3 11.1 C 0 km/h
2788 09-06-2011 03:09:05 11.1 C 7.55 g/m*3 11.1 C 0 km/h
2789 09-06-2011 03:21:05 11.1 C 7.55 g/m*3 11.1 C 0 km/h
2790 09-06-2011 03:33:05 11.1 C 7.55 g/m*3 11.1 C 0 km/h
2791 09-06-2011 03:45:05 11.1 C 7.55 g/m*3 11.1 C 0 km/h
2792 09-06-2011 03:57:05 11.1 C 7.55 g/m*3 11.1 C 0 km/h
2793 09-06-2011 04:09:05 11.1 C 7.55 g/m*3 11.1 C 0 km/h
2794 09-06-2011 04:21:05 11.1 C 7.55 g/m*3 11.1 C 0 km/h
2795 09-06-2011 04:33:05 11.1 C 7.55 g/m*3 11.1 C 0 km/h
2796 09-06-2011 04:45:05 11.1 C 7.55 g/m*3 11.1 C 0 km/h
2797 09-06-2011 04:57:06 11.1 C 7.55 g/m*3 11.1 C 0 km/h
2798 09-06-2011 05:09:06 11.1 C 7.55 g/m*3 11.1 C 0 km/h
2799 09-06-2011 05:21:06 11.1 C 7.55 g/m*3 11.1 C 0 km/h
2800 09-06-2011 05:33:06 11.1 C 7.55 g/m*3 11.1 C 0 km/h
Sensor: Nr:Datum:Temp:Abs-Feuchte:Windchill:Wind:
Aussen-T/F 2801 09-06-2011 05:45:06 11.1 C 7.55 g/m*3 11.1 C 0 km/h
2802 09-06-2011 05:57:06 11.1 C 7.55 g/m*3 11.1 C 0 km/h
2803 09-06-2011 06:09:06 11.1 C 7.55 g/m*3 11.1 C 0 km/h
2804 09-06-2011 06:21:06 8.8 C 7.66 g/m*3 8.8 C 0 km/h
2805 09-06-2011 06:33:06 8.7 C 7.61 g/m*3 8.7 C 0 km/h
2806 09-06-2011 06:45:02 8.6 C 7.56 g/m*3 8.6 C 0 km/h
2807 09-06-2011 06:57:02 8.8 C 7.66 g/m*3 8.8 C 0 km/h
2808 09-06-2011 07:09:02 9.3 C 7.91 g/m*3 9.3 C 0 km/h
2809 09-06-2011 07:21:02 9.5 C 8.01 g/m*3 9.5 C 0 km/h
2810 09-06-2011 07:33:02 9.7 C 8.11 g/m*3 9.7 C 0 km/h
2811 09-06-2011 07:45:02 9.7 C 8.11 g/m*3 9.7 C 0 km/h
2812 09-06-2011 07:57:02 9.7 C 8.11 g/m*3 9.7 C 0 km/h
2813 09-06-2011 08:09:01 9.7 C 8.11 g/m*3 9.7 C 0 km/h
2814 09-06-2011 08:21:02 9.7 C 8.11 g/m*3 9.7 C 0 km/h
2815 09-06-2011 08:33:02 9.7 C 8.11 g/m*3 9.7 C 0 km/h
2816 09-06-2011 08:45:02 9.7 C 8.11 g/m*3 9.7 C 0 km/h
2817 09-06-2011 08:57:02 9.7 C 8.11 g/m*3 9.7 C 0 km/h
2818 09-06-2011 09:09:03 9.7 C 8.11 g/m*3 9.7 C 0 km/h
2819 09-06-2011 09:21:02 9.7 C 8.11 g/m*3 9.7 C 0 km/h
2820 09-06-2011 09:33:03 9.7 C 8.11 g/m*3 9.7 C 0 km/h
2821 09-06-2011 09:45:02 9.7 C 8.11 g/m*3 9.7 C 0 km/h
2822 09-06-2011 09:57:03 9.7 C 8.11 g/m*3 9.7 C 0 km/h
2823 09-06-2011 10:09:01 9.7 C 8.11 g/m*3 9.7 C 0 km/h
2824 09-06-2011 10:21:02 9.7 C 8.11 g/m*3 9.7 C 0 km/h
2825 09-06-2011 10:33:02 9.7 C 8.11 g/m*3 9.7 C 0 km/h
Sensor: Nr:Datum:Temp:Abs-Feuchte:Windchill:Wind:
Aussen-T/F 2826 09-06-2011 10:58:02 9.7 C 8.11 g/m*3 9.7 C 0 km/h
2827 09-06-2011 11:10:03 9.7 C 8.11 g/m*3 9.7 C 0 km/h
2828 09-06-2011 11:22:02 9.7 C 8.11 g/m*3 9.7 C 0 km/h
2829 09-06-2011 11:34:02 9.7 C 8.11 g/m*3 9.7 C 0 km/h
2830 09-06-2011 11:46:02 9.7 C 8.11 g/m*3 9.7 C 0 km/h
2831 09-06-2011 11:58:02 18.6 C 6.37 g/m*3 18.6 C 0 km/h
2832 09-06-2011 12:10:03 18.8 C 6.76 g/m*3 18.8 C 0 km/h
2833 09-06-2011 12:22:03 18.3 C 6.1 g/m*3 18.3 C 0 km/h
2834 09-06-2011 12:34:02 18.1 C 8.03 g/m*3 18.1 C 0 km/h
2835 09-06-2011 12:46:02 20 C 6.91 g/m*3 20 C 0 km/h
2836 09-06-2011 12:58:03 20.9 C 6.56 g/m*3 20.9 C 0 km/h
2837 09-06-2011 13:10:01 20.9 C 6.19 g/m*3 20.9 C 0 km/h
2838 09-06-2011 13:22:02 20.1 C 6.78 g/m*3 20.1 C 0 km/h
2839 09-06-2011 13:34:02 20.1 C 6.61 g/m*3 20.1 C 0 km/h
2840 09-06-2011 13:46:02 18.8 C 6.76 g/m*3 18.8 C 0 km/h
2841 09-06-2011 13:58:02 17.1 C 7.57 g/m*3 17.1 C 0 km/h
2842 09-06-2011 14:10:03 16.7 C 6.54 g/m*3 16.7 C 0 km/h
2843 09-06-2011 14:22:02 16.2 C 7.58 g/m*3 16.2 C 0 km/h
2844 09-06-2011 14:34:02 15.6 C 7.98 g/m*3 15.6 C 0 km/h
2845 09-06-2011 14:46:01 15.5 C 8.06 g/m*3 15.5 C 0 km/h
2846 09-06-2011 14:58:01 15.7 C 8.16 g/m*3 15.7 C 0 km/h
2847 09-06-2011 15:10:02 16.2 C 8.14 g/m*3 16.2 C 0 km/h
2848 09-06-2011 15:22:01 17 C 8.68 g/m*3 17 C 0 km/h
2849 09-06-2011 15:34:01 17.3 C 8.25 g/m*3 17.3 C 0 km/h
2850 09-06-2011 15:46:01 17.9 C 8.24 g/m*3 17.9 C 0 km/h
Sensor: Nr:Datum:Temp:Abs-Feuchte:Windchill:Wind:
Aussen-T/F 2851 09-06-2011 15:58:01 18.2 C 8.39 g/m*3 18.2 C 0 km/h
2852 09-06-2011 16:10:02 17.6 C 8.7 g/m*3 17.6 C 0 km/h
2853 09-06-2011 16:22:01 17.2 C 8.35 g/m*3 17.2 C 0 km/h
2854 09-06-2011 16:34:01 17.1 C 8.44 g/m*3 17.1 C 0 km/h
2855 09-06-2011 16:46:01 16.8 C 9.01 g/m*3 16.8 C 0 km/h
2856 09-06-2011 16:58:01 16.6 C 9.18 g/m*3 16.6 C 0 km/h
2857 09-06-2011 17:10:01 16.5 C 8.99 g/m*3 16.5 C 0 km/h
2858 09-06-2011 17:22:02 16.8 C 9.01 g/m*3 16.8 C 0 km/h
2859 09-06-2011 17:34:01 16.8 C 9.01 g/m*3 16.8 C 0 km/h
2860 09-06-2011 17:46:02 17.2 C 8.93 g/m*3 17.2 C 0 km/h
2861 09-06-2011 17:58:02 17.8 C 8.8 g/m*3 17.8 C 0 km/h
2862 09-06-2011 18:10:02 20.4 C 7.78 g/m*3 20.4 C 0 km/h
2863 09-06-2011 18:22:02 21.3 C 6.9 g/m*3 21.3 C 0 km/h
2864 09-06-2011 18:34:02 23.3 C 6.69 g/m*3 23.3 C 0 km/h
2865 09-06-2011 18:46:02 22.2 C 5.5 g/m*3 22.2 C 0 km/h
2866 09-06-2011 18:58:02 22.5 C 6.19 g/m*3 22.5 C 0 km/h
2867 09-06-2011 19:10:01 22.3 C 7.5 g/m*3 22.3 C 0 km/h
2868 09-06-2011 19:22:02 22.3 C 7.5 g/m*3 22.3 C 0 km/h
2869 09-06-2011 19:34:02 22.3 C 7.5 g/m*3 22.3 C 0 km/h
2870 09-06-2011 19:46:02 22.3 C 7.5 g/m*3 22.3 C 0 km/h
2871 09-06-2011 19:58:02 22.3 C 7.5 g/m*3 22.3 C 0 km/h
2872 09-06-2011 20:10:02 22.3 C 7.5 g/m*3 22.3 C 0 km/h
2873 09-06-2011 20:22:02 22.3 C 7.5 g/m*3 22.3 C 0 km/h
2874 09-06-2011 20:34:02 22.3 C 7.5 g/m*3 22.3 C 0 km/h
2875 09-06-2011 20:46:02 22.3 C 7.5 g/m*3 22.3 C 0 km/h
Sensor: Nr:Datum:Temp:Abs-Feuchte:Windchill:Wind:
Aussen-T/F 2876 09-06-2011 20:58:02 22.3 C 7.5 g/m*3 22.3 C 0 km/h
2877 09-06-2011 21:10:02 13 C 9.3 g/m*3 13 C 0 km/h
2878 09-06-2011 21:22:01 12.9 C 9.47 g/m*3 12.9 C 0 km/h
2879 09-06-2011 21:34:02 12.9 C 9.58 g/m*3 12.9 C 0 km/h
2880 09-06-2011 21:46:02 12.5 C 9.46 g/m*3 12.5 C 0 km/h
2881 09-06-2011 21:58:02 12.4 C 9.4 g/m*3 12.4 C 0 km/h
2882 09-06-2011 22:10:02 12.4 C 9.4 g/m*3 12.4 C 0 km/h
2883 09-06-2011 22:22:01 11.5 C 8.99 g/m*3 11.5 C 0 km/h
2884 09-06-2011 22:35:03 11.5 C 8.99 g/m*3 11.5 C 0 km/h
2885 09-06-2011 22:47:03 11.4 C 8.93 g/m*3 11.4 C 0 km/h
2886 09-06-2011 22:59:03 11.4 C 8.93 g/m*3 11.4 C 0 km/h
2887 09-06-2011 23:11:03 11.4 C 8.93 g/m*3 11.4 C 0 km/h
2888 09-06-2011 23:23:03 11.4 C 8.93 g/m*3 11.4 C 0 km/h
2889 09-06-2011 23:35:03 11.4 C 8.93 g/m*3 11.4 C 0 km/h
2890 09-06-2011 23:47:03 11.4 C 8.93 g/m*3 11.4 C 0 km/h
2891 09-06-2011 23:59:03 11.4 C 8.93 g/m*3 11.4 C 0 km/h
2892 10-06-2011 00:11:03 11.4 C 8.93 g/m*3 11.4 C 0 km/h
2893 10-06-2011 00:23:03 11.4 C 8.93 g/m*3 11.4 C 0 km/h
2894 10-06-2011 00:35:03 11.4 C 8.93 g/m*3 11.4 C 0 km/h
2895 10-06-2011 00:47:04 11.4 C 8.93 g/m*3 11.4 C 0 km/h
2896 10-06-2011 00:59:04 11.4 C 8.93 g/m*3 11.4 C 0 km/h
2897 10-06-2011 01:11:04 11.4 C 8.93 g/m*3 11.4 C 0 km/h
2898 10-06-2011 01:23:04 11.4 C 8.93 g/m*3 11.4 C 0 km/h
2899 10-06-2011 01:35:04 11.4 C 8.93 g/m*3 11.4 C 0 km/h
2900 10-06-2011 01:47:04 11.4 C 8.93 g/m*3 11.4 C 0 km/h
Sensor: Nr:Datum:Temp:Abs-Feuchte:Windchill:Wind:
Aussen-T/F 2901 10-06-2011 01:59:04 11.4 C 8.93 g/m*3 11.4 C 0 km/h
2902 10-06-2011 02:11:04 11.4 C 8.93 g/m*3 11.4 C 0 km/h
2903 10-06-2011 02:23:04 11.4 C 8.93 g/m*3 11.4 C 0 km/h
2904 10-06-2011 02:35:04 11.4 C 8.93 g/m*3 11.4 C 0 km/h
2905 10-06-2011 02:47:04 11.4 C 8.93 g/m*3 11.4 C 0 km/h
2906 10-06-2011 02:59:04 11.4 C 8.93 g/m*3 11.4 C 0 km/h
2907 10-06-2011 03:11:04 11.4 C 8.93 g/m*3 11.4 C 0 km/h
2908 10-06-2011 03:23:04 11.4 C 8.93 g/m*3 11.4 C 0 km/h
2909 10-06-2011 03:35:04 11.4 C 8.93 g/m*3 11.4 C 0 km/h
2910 10-06-2011 03:47:04 11.4 C 8.93 g/m*3 11.4 C 0 km/h
2911 10-06-2011 03:59:04 11.4 C 8.93 g/m*3 11.4 C 0 km/h
2912 10-06-2011 04:11:04 11.4 C 8.93 g/m*3 11.4 C 0 km/h
2913 10-06-2011 04:23:04 11.4 C 8.93 g/m*3 11.4 C 0 km/h
2914 10-06-2011 04:35:04 11.4 C 8.93 g/m*3 11.4 C 0 km/h
2915 10-06-2011 04:47:04 11.4 C 8.93 g/m*3 11.4 C 0 km/h
2916 10-06-2011 04:59:05 11.4 C 8.93 g/m*3 11.4 C 0 km/h
2917 10-06-2011 05:11:05 11.4 C 8.93 g/m*3 11.4 C 0 km/h
2918 10-06-2011 05:23:05 11.4 C 8.93 g/m*3 11.4 C 0 km/h
2919 10-06-2011 05:35:05 11.4 C 8.93 g/m*3 11.4 C 0 km/h
2920 10-06-2011 05:47:05 11.4 C 8.93 g/m*3 11.4 C 0 km/h
2921 10-06-2011 05:59:05 11.4 C 8.93 g/m*3 11.4 C 0 km/h
2922 10-06-2011 06:11:05 11.4 C 8.93 g/m*3 11.4 C 0 km/h
2923 10-06-2011 06:23:05 11.4 C 8.93 g/m*3 11.4 C 0 km/h
2924 10-06-2011 06:35:03 11.5 C 9.09 g/m*3 11.5 C 0 km/h
2925 10-06-2011 06:47:02 11.8 C 9.26 g/m*3 11.8 C 0 km/h
Sensor: Nr:Datum:Temp:Abs-Feuchte:Windchill:Wind:
Aussen-T/F 2926 10-06-2011 06:59:02 12 C 9.27 g/m*3 12 C 0 km/h
2927 10-06-2011 07:11:03 12.1 C 9.33 g/m*3 12.1 C 0 km/h
2928 10-06-2011 07:23:02 12.5 C 9.46 g/m*3 12.5 C 0 km/h
2929 10-06-2011 07:35:02 12.5 C 9.46 g/m*3 12.5 C 0 km/h
2930 10-06-2011 07:47:01 13 C 9.07 g/m*3 13 C 0 km/h
2931 10-06-2011 07:59:01 13 C 9.07 g/m*3 13 C 0 km/h
2932 10-06-2011 08:11:02 13 C 9.07 g/m*3 13 C 0 km/h
2933 10-06-2011 08:23:01 13 C 9.07 g/m*3 13 C 0 km/h
2934 10-06-2011 08:35:02 13 C 9.07 g/m*3 13 C 0 km/h
2935 10-06-2011 08:47:02 13 C 9.07 g/m*3 13 C 0 km/h
2936 10-06-2011 08:59:02 13 C 9.07 g/m*3 13 C 0 km/h
2937 10-06-2011 09:11:02 13 C 9.07 g/m*3 13 C 0 km/h
2938 10-06-2011 09:23:01 13 C 9.07 g/m*3 13 C 0 km/h
2939 10-06-2011 09:35:02 13 C 9.07 g/m*3 13 C 0 km/h
2940 10-06-2011 09:47:02 13 C 9.07 g/m*3 13 C 0 km/h
2941 10-06-2011 09:59:02 13 C 9.07 g/m*3 13 C 0 km/h
2942 10-06-2011 10:11:02 13 C 9.07 g/m*3 13 C 0 km/h
2943 10-06-2011 10:23:01 13 C 9.07 g/m*3 13 C 0 km/h
2944 10-06-2011 10:35:02 13 C 9.07 g/m*3 13 C 0 km/h
2945 10-06-2011 10:47:01 13 C 9.07 g/m*3 13 C 0 km/h
2946 10-06-2011 10:59:01 13 C 9.07 g/m*3 13 C 0 km/h
2947 10-06-2011 11:11:02 13 C 9.07 g/m*3 13 C 0 km/h
2948 10-06-2011 11:23:02 13 C 9.07 g/m*3 13 C 0 km/h
2949 10-06-2011 11:35:02 13 C 9.07 g/m*3 13 C 0 km/h
2950 10-06-2011 11:47:01 13 C 9.07 g/m*3 13 C 0 km/h
Sensor: Nr:Datum:Temp:Abs-Feuchte:Windchill:Wind:
Aussen-T/F 2951 10-06-2011 11:59:01 13 C 9.07 g/m*3 13 C 0 km/h
2952 10-06-2011 12:11:02 13 C 9.07 g/m*3 13 C 0 km/h
2953 10-06-2011 12:23:02 13 C 9.07 g/m*3 13 C 0 km/h
2954 10-06-2011 12:35:01 13 C 9.07 g/m*3 13 C 0 km/h
2955 10-06-2011 12:47:02 13 C 9.07 g/m*3 13 C 0 km/h
2956 10-06-2011 12:59:02 13 C 9.07 g/m*3 13 C 0 km/h
2957 10-06-2011 13:11:01 13 C 9.07 g/m*3 13 C 0 km/h
2958 10-06-2011 13:23:02 13 C 9.07 g/m*3 13 C 0 km/h
2959 10-06-2011 13:35:01 13 C 9.07 g/m*3 13 C 0 km/h
2960 10-06-2011 13:47:02 13 C 9.07 g/m*3 13 C 0 km/h
2961 10-06-2011 13:59:02 13 C 9.07 g/m*3 13 C 0 km/h
2962 10-06-2011 14:11:01 13 C 9.07 g/m*3 13 C 0 km/h
2963 10-06-2011 14:23:01 13 C 9.07 g/m*3 13 C 0 km/h
2964 10-06-2011 14:35:01 13 C 9.07 g/m*3 13 C 0 km/h
2965 10-06-2011 14:47:02 13 C 9.07 g/m*3 13 C 0 km/h
2966 10-06-2011 14:59:02 13 C 9.07 g/m*3 13 C 0 km/h
2967 10-06-2011 15:11:02 13 C 9.07 g/m*3 13 C 0 km/h
2968 10-06-2011 15:23:02 21.5 C 6.03 g/m*3 21.5 C 0 km/h
2969 10-06-2011 15:35:02 21.7 C 5.91 g/m*3 21.7 C 0 km/h
2970 10-06-2011 15:47:02 22 C 5.43 g/m*3 22 C 0 km/h
2971 10-06-2011 15:59:02 24.1 C 5.69 g/m*3 24.1 C 0 km/h
2972 10-06-2011 16:11:02 26.7 C 5.06 g/m*3 26.7 C 0 km/h
2973 10-06-2011 16:23:02 27 C 5.15 g/m*3 27 C 0 km/h
2974 10-06-2011 16:35:01 24 C 4.35 g/m*3 24 C 0 km/h
2975 10-06-2011 16:47:03 27.6 C 5.32 g/m*3 27.6 C 0 km/h
Sensor: Nr:Datum:Temp:Abs-Feuchte:Windchill:Wind:
Aussen-T/F 2976 10-06-2011 16:59:03 26.3 C 4.95 g/m*3 26.3 C 0 km/h
2977 10-06-2011 17:11:03 23.3 C 4.39 g/m*3 23.3 C 0 km/h
2978 10-06-2011 17:23:02 22.5 C 4.79 g/m*3 22.5 C 0 km/h
2979 10-06-2011 17:35:02 22.5 C 4.79 g/m*3 22.5 C 0 km/h
2980 10-06-2011 17:47:02 20.6 C 6.62 g/m*3 20.6 C 0 km/h
2981 10-06-2011 17:59:02 19.3 C 7.63 g/m*3 19.3 C 0 km/h
2982 10-06-2011 18:11:01 18.8 C 7.57 g/m*3 18.8 C 0 km/h
2983 10-06-2011 18:23:01 18.1 C 6.18 g/m*3 18.1 C 0 km/h
2984 10-06-2011 18:35:02 18.2 C 6.53 g/m*3 18.2 C 0 km/h
2985 10-06-2011 18:47:02 18.2 C 6.53 g/m*3 18.2 C 0 km/h
2986 10-06-2011 18:59:02 18.2 C 6.53 g/m*3 18.2 C 0 km/h
2987 10-06-2011 19:11:02 18.2 C 6.53 g/m*3 18.2 C 0 km/h
2988 10-06-2011 19:23:02 18.2 C 7.77 g/m*3 18.2 C 0 km/h
2989 10-06-2011 19:35:02 18.2 C 7.77 g/m*3 18.2 C 0 km/h
2990 10-06-2011 19:47:02 18.2 C 7.77 g/m*3 18.2 C 0 km/h
2991 10-06-2011 19:59:02 18.2 C 7.77 g/m*3 18.2 C 0 km/h
2992 10-06-2011 20:11:02 18.2 C 7.77 g/m*3 18.2 C 0 km/h
2993 10-06-2011 20:23:02 18.2 C 7.77 g/m*3 18.2 C 0 km/h
2994 10-06-2011 20:35:02 18.2 C 7.77 g/m*3 18.2 C 0 km/h
2995 10-06-2011 20:47:01 18.2 C 7.77 g/m*3 18.2 C 0 km/h
2996 10-06-2011 20:59:01 18.2 C 7.77 g/m*3 18.2 C 0 km/h
2997 10-06-2011 21:11:01 18.2 C 7.77 g/m*3 18.2 C 0 km/h
2998 10-06-2011 21:23:01 18.2 C 7.77 g/m*3 18.2 C 0 km/h
2999 10-06-2011 21:35:01 14.3 C 8.72 g/m*3 14.3 C 0 km/h
3000 10-06-2011 21:47:01 14.3 C 8.72 g/m*3 14.3 C 0 km/h
Sensor: Nr:Datum:Temp:Abs-Feuchte:Windchill:Wind:
Aussen-T/F 3001 10-06-2011 21:59:01 14.3 C 8.72 g/m*3 14.3 C 0 km/h
3002 10-06-2011 22:11:02 14.4 C 8.9 g/m*3 14.4 C 0 km/h
3003 10-06-2011 22:24:03 14.4 C 8.9 g/m*3 14.4 C 0 km/h
3004 10-06-2011 22:36:03 14.4 C 8.9 g/m*3 14.4 C 0 km/h
3005 10-06-2011 22:48:03 14.4 C 8.9 g/m*3 14.4 C 0 km/h
3006 10-06-2011 23:00:03 14.4 C 8.9 g/m*3 14.4 C 0 km/h
3007 10-06-2011 23:12:03 14.4 C 8.9 g/m*3 14.4 C 0 km/h
3008 10-06-2011 23:24:03 14.4 C 8.9 g/m*3 14.4 C 0 km/h
3009 10-06-2011 23:36:03 15.1 C 7.87 g/m*3 15.1 C 0 km/h
3010 10-06-2011 23:48:03 15.1 C 7.87 g/m*3 15.1 C 0 km/h
3011 11-06-2011 00:00:03 15.1 C 7.87 g/m*3 15.1 C 0 km/h
3012 11-06-2011 00:12:03 12.6 C 9.07 g/m*3 12.6 C 0 km/h
3013 11-06-2011 00:24:03 12.6 C 9.07 g/m*3 12.6 C 0 km/h
3014 11-06-2011 00:36:03 12.6 C 9.07 g/m*3 12.6 C 0 km/h
3015 11-06-2011 00:48:03 12.6 C 9.07 g/m*3 12.6 C 0 km/h
3016 11-06-2011 01:00:03 12.6 C 9.07 g/m*3 12.6 C 0 km/h
3017 11-06-2011 01:12:03 12.6 C 9.07 g/m*3 12.6 C 0 km/h
3018 11-06-2011 01:24:03 12.6 C 9.07 g/m*3 12.6 C 0 km/h
3019 11-06-2011 01:36:04 12.6 C 9.07 g/m*3 12.6 C 0 km/h
3020 11-06-2011 01:48:04 12.6 C 9.07 g/m*3 12.6 C 0 km/h
3021 11-06-2011 02:00:04 12.6 C 9.07 g/m*3 12.6 C 0 km/h
3022 11-06-2011 02:12:04 12.6 C 9.07 g/m*3 12.6 C 0 km/h
3023 11-06-2011 02:24:04 12.6 C 9.07 g/m*3 12.6 C 0 km/h
3024 11-06-2011 02:36:04 12.6 C 9.07 g/m*3 12.6 C 0 km/h
3025 11-06-2011 02:48:04 12.6 C 9.07 g/m*3 12.6 C 0 km/h
Sensor: Nr:Datum:Temp:Abs-Feuchte:Windchill:Wind:
Aussen-T/F 3026 11-06-2011 03:00:04 12.6 C 9.07 g/m*3 12.6 C 0 km/h
3027 11-06-2011 03:12:04 12.6 C 9.07 g/m*3 12.6 C 0 km/h
3028 11-06-2011 03:24:04 12.6 C 9.07 g/m*3 12.6 C 0 km/h
3029 11-06-2011 03:36:04 12.6 C 9.07 g/m*3 12.6 C 0 km/h
3030 11-06-2011 03:48:04 12.6 C 9.07 g/m*3 12.6 C 0 km/h
3031 11-06-2011 04:00:04 12.6 C 9.07 g/m*3 12.6 C 0 km/h
3032 11-06-2011 04:12:04 12.6 C 9.07 g/m*3 12.6 C 0 km/h
3033 11-06-2011 04:24:04 12.6 C 9.07 g/m*3 12.6 C 0 km/h
3034 11-06-2011 04:36:04 12.6 C 9.07 g/m*3 12.6 C 0 km/h
3035 11-06-2011 04:48:04 12.6 C 9.07 g/m*3 12.6 C 0 km/h
3036 11-06-2011 05:00:04 12.6 C 9.07 g/m*3 12.6 C 0 km/h
3037 11-06-2011 05:12:04 12.6 C 9.07 g/m*3 12.6 C 0 km/h
3038 11-06-2011 05:24:04 12.6 C 9.07 g/m*3 12.6 C 0 km/h
3039 11-06-2011 05:36:04 12.6 C 9.07 g/m*3 12.6 C 0 km/h
3040 11-06-2011 05:48:05 12.6 C 9.07 g/m*3 12.6 C 0 km/h
3041 11-06-2011 06:00:05 12.6 C 9.07 g/m*3 12.6 C 0 km/h
3042 11-06-2011 06:12:05 12.6 C 9.07 g/m*3 12.6 C 0 km/h
3043 11-06-2011 06:24:05 12.6 C 9.07 g/m*3 12.6 C 0 km/h
3044 11-06-2011 06:36:05 12.6 C 9.07 g/m*3 12.6 C 0 km/h
3045 11-06-2011 06:48:05 12.6 C 9.07 g/m*3 12.6 C 0 km/h
3046 11-06-2011 07:00:05 12.6 C 9.07 g/m*3 12.6 C 0 km/h
3047 11-06-2011 07:12:05 12.6 C 9.07 g/m*3 12.6 C 0 km/h
3048 11-06-2011 07:24:05 10 C 8.36 g/m*3 10 C 0 km/h
3049 11-06-2011 07:36:05 10.5 C 8.73 g/m*3 10.5 C 0 km/h
3050 11-06-2011 07:48:02 11.2 C 9.02 g/m*3 11.2 C 0 km/h
Sensor: Nr:Datum:Temp:Abs-Feuchte:Windchill:Wind:
Aussen-T/F 3051 11-06-2011 08:00:02 10.8 C 8.8 g/m*3 10.8 C 0 km/h
3052 11-06-2011 08:12:02 10.8 C 8.8 g/m*3 10.8 C 0 km/h
3053 11-06-2011 08:24:02 12.2 C 9.39 g/m*3 12.2 C 0 km/h
3054 11-06-2011 08:36:01 11.9 C 8.9 g/m*3 11.9 C 0 km/h
3055 11-06-2011 08:48:02 11.9 C 8.9 g/m*3 11.9 C 0 km/h
3056 11-06-2011 09:00:02 11.9 C 8.9 g/m*3 11.9 C 0 km/h
3057 11-06-2011 09:12:01 11.9 C 8.9 g/m*3 11.9 C 0 km/h
3058 11-06-2011 09:24:02 13.4 C 7.32 g/m*3 13.4 C 0 km/h
3059 11-06-2011 09:36:01 13.1 C 6.96 g/m*3 13.1 C 0 km/h
3060 11-06-2011 09:48:03 13.5 C 7.49 g/m*3 13.5 C 0 km/h
3061 11-06-2011 10:00:03 13.6 C 7.3 g/m*3 13.6 C 0 km/h
3062 11-06-2011 10:12:02 13.6 C 7.3 g/m*3 13.6 C 0 km/h
3063 11-06-2011 10:24:02 13.6 C 7.3 g/m*3 13.6 C 0 km/h
3064 11-06-2011 10:36:02 13.6 C 7.3 g/m*3 13.6 C 0 km/h
3065 11-06-2011 10:48:02 13.6 C 7.3 g/m*3 13.6 C 0 km/h
3066 11-06-2011 11:00:02 13.6 C 7.3 g/m*3 13.6 C 0 km/h
3067 11-06-2011 11:12:01 13.6 C 7.3 g/m*3 13.6 C 0 km/h
3068 11-06-2011 11:24:02 13.6 C 7.3 g/m*3 13.6 C 0 km/h
3069 11-06-2011 11:36:02 13.6 C 7.3 g/m*3 13.6 C 0 km/h
3070 11-06-2011 11:48:01 13.6 C 7.3 g/m*3 13.6 C 0 km/h
3071 11-06-2011 12:00:01 13.6 C 7.3 g/m*3 13.6 C 0 km/h
3072 11-06-2011 12:12:01 13.6 C 7.3 g/m*3 13.6 C 0 km/h
3073 11-06-2011 12:24:01 13.6 C 7.3 g/m*3 13.6 C 0 km/h
3074 11-06-2011 12:36:02 13.6 C 7.3 g/m*3 13.6 C 0 km/h
3075 11-06-2011 12:48:02 13.6 C 7.3 g/m*3 13.6 C 0 km/h
Sensor: Nr:Datum:Temp:Abs-Feuchte:Windchill:Wind:
Aussen-T/F 3076 11-06-2011 13:00:02 17.8 C 5.01 g/m*3 17.8 C 0 km/h
3077 11-06-2011 13:12:02 17.8 C 4.71 g/m*3 17.8 C 0 km/h
3078 11-06-2011 13:24:01 21.4 C 5.44 g/m*3 21.4 C 0 km/h
3079 11-06-2011 13:36:02 22.7 C 4.24 g/m*3 22.7 C 0 km/h
3080 11-06-2011 13:48:02 20.2 C 4.9 g/m*3 20.2 C 0 km/h
3081 11-06-2011 14:00:02 20.3 C 5.28 g/m*3 20.3 C 0 km/h
3082 11-06-2011 14:12:02 23.7 C 5.13 g/m*3 23.7 C 0 km/h
3083 11-06-2011 14:24:01 20.8 C 4.89 g/m*3 20.8 C 0 km/h
3084 11-06-2011 14:36:02 19.8 C 4.95 g/m*3 19.8 C 0 km/h
3085 11-06-2011 14:48:02 21.7 C 4.77 g/m*3 21.7 C 0 km/h
3086 11-06-2011 15:00:02 25.9 C 4.84 g/m*3 25.9 C 0 km/h
3087 11-06-2011 15:12:02 27.5 C 5.29 g/m*3 27.5 C 0 km/h
3088 11-06-2011 15:24:02 27.6 C 5.32 g/m*3 27.6 C 0 km/h
3089 11-06-2011 15:36:02 22.5 C 3.99 g/m*3 22.5 C 0 km/h
3090 11-06-2011 15:48:02 27.4 C 5.26 g/m*3 27.4 C 0 km/h
3091 11-06-2011 16:00:02 26.3 C 4.95 g/m*3 26.3 C 0 km/h
3092 11-06-2011 16:12:02 22.7 C 4.04 g/m*3 22.7 C 0 km/h
3093 11-06-2011 16:24:02 25.5 C 4.73 g/m*3 25.5 C 0 km/h
3094 11-06-2011 16:36:01 25.5 C 4.73 g/m*3 25.5 C 0 km/h
3095 11-06-2011 16:48:02 25.5 C 4.73 g/m*3 25.5 C 0 km/h
3096 11-06-2011 17:00:02 25.5 C 4.73 g/m*3 25.5 C 0 km/h
3097 11-06-2011 17:12:01 25.5 C 4.73 g/m*3 25.5 C 0 km/h
3098 11-06-2011 17:24:01 25.5 C 4.73 g/m*3 25.5 C 0 km/h
3099 11-06-2011 17:36:01 25.5 C 4.73 g/m*3 25.5 C 0 km/h
3100 11-06-2011 17:48:02 25.5 C 4.73 g/m*3 25.5 C 0 km/h
Sensor: Nr:Datum:Temp:Abs-Feuchte:Windchill:Wind:
Aussen-T/F 3101 11-06-2011 18:00:03 25.5 C 4.73 g/m*3 25.5 C 0 km/h
3102 11-06-2011 18:12:02 25.5 C 4.73 g/m*3 25.5 C 0 km/h
3103 11-06-2011 18:24:02 25.5 C 4.73 g/m*3 25.5 C 0 km/h
3104 11-06-2011 18:36:02 23.6 C 4.89 g/m*3 23.6 C 0 km/h
3105 11-06-2011 18:48:01 23.6 C 4.89 g/m*3 23.6 C 0 km/h
3106 11-06-2011 19:00:01 22.1 C 5.27 g/m*3 22.1 C 0 km/h
3107 11-06-2011 19:12:02 18.9 C 5.51 g/m*3 18.9 C 0 km/h
3108 11-06-2011 19:24:01 18.9 C 5.51 g/m*3 18.9 C 0 km/h
3109 11-06-2011 19:36:02 18 C 7.22 g/m*3 18 C 0 km/h
3110 11-06-2011 19:48:01 17.6 C 7.8 g/m*3 17.6 C 0 km/h
3111 11-06-2011 20:00:01 16.8 C 7.72 g/m*3 16.8 C 0 km/h
3112 11-06-2011 20:12:02 16.6 C 7.63 g/m*3 16.6 C 0 km/h
3113 11-06-2011 20:24:01 16.2 C 7.86 g/m*3 16.2 C 0 km/h
3114 11-06-2011 20:36:02 15.7 C 8.16 g/m*3 15.7 C 0 km/h
3115 11-06-2011 20:48:01 15.4 C 7.88 g/m*3 15.4 C 0 km/h
3116 11-06-2011 21:00:01 15 C 7.82 g/m*3 15 C 0 km/h
3117 11-06-2011 21:12:02 15.8 C 6.6 g/m*3 15.8 C 0 km/h
3118 11-06-2011 21:24:01 15.7 C 6.69 g/m*3 15.7 C 0 km/h
3119 11-06-2011 21:36:01 15.2 C 6.88 g/m*3 15.2 C 0 km/h
3120 11-06-2011 21:48:01 14.9 C 6.88 g/m*3 14.9 C 0 km/h
3121 11-06-2011 22:00:01 14.5 C 6.84 g/m*3 14.5 C 0 km/h
3122 11-06-2011 22:12:02 14.1 C 7.28 g/m*3 14.1 C 0 km/h
3123 11-06-2011 22:24:02 13.6 C 7.41 g/m*3 13.6 C 0 km/h
3124 11-06-2011 22:36:01 12.8 C 7.39 g/m*3 12.8 C 0 km/h
3125 11-06-2011 22:49:03 12.4 C 7.54 g/m*3 12.4 C 0 km/h
Sensor: Nr:Datum:Temp:Abs-Feuchte:Windchill:Wind:
Aussen-T/F 3126 11-06-2011 23:01:03 12.4 C 7.43 g/m*3 12.4 C 0 km/h
3127 11-06-2011 23:13:03 12.2 C 7.34 g/m*3 12.2 C 0 km/h
3128 11-06-2011 23:25:03 12.1 C 7.4 g/m*3 12.1 C 0 km/h
3129 11-06-2011 23:37:04 11.7 C 7.64 g/m*3 11.7 C 0 km/h
3130 11-06-2011 23:49:04 11.1 C 7.45 g/m*3 11.1 C 0 km/h
3131 12-06-2011 00:01:04 10.9 C 7.56 g/m*3 10.9 C 0 km/h
3132 12-06-2011 00:13:04 10.8 C 7.61 g/m*3 10.8 C 0 km/h
3133 12-06-2011 00:25:04 10.2 C 7.42 g/m*3 10.2 C 0 km/h
3134 12-06-2011 00:37:04 9.7 C 7.38 g/m*3 9.7 C 0 km/h
3135 12-06-2011 00:49:04 9.7 C 7.56 g/m*3 9.7 C 0 km/h
3136 12-06-2011 01:01:04 9.4 C 7.42 g/m*3 9.4 C 0 km/h
3137 12-06-2011 01:13:04 9.6 C 7.6 g/m*3 9.6 C 0 km/h
3138 12-06-2011 01:25:04 9.3 C 7.55 g/m*3 9.3 C 0 km/h
3139 12-06-2011 01:37:04 9.4 C 7.69 g/m*3 9.4 C 0 km/h
3140 12-06-2011 01:49:04 9.1 C 7.54 g/m*3 9.1 C 0 km/h
3141 12-06-2011 02:01:04 8.7 C 7.44 g/m*3 8.7 C 0 km/h
3142 12-06-2011 02:13:04 8.4 C 7.3 g/m*3 8.4 C 0 km/h
3143 12-06-2011 02:25:04 8.8 C 7.57 g/m*3 8.8 C 0 km/h
3144 12-06-2011 02:37:04 8.7 C 7.52 g/m*3 8.7 C 0 km/h
3145 12-06-2011 02:49:04 8.3 C 7.33 g/m*3 8.3 C 0 km/h
3146 12-06-2011 03:01:04 8 C 7.19 g/m*3 8 C 0 km/h
3147 12-06-2011 03:13:04 8.5 C 7.51 g/m*3 8.5 C 0 km/h
3148 12-06-2011 03:25:04 8.2 C 7.37 g/m*3 8.2 C 0 km/h
3149 12-06-2011 03:37:04 7.6 C 7.09 g/m*3 7.6 C 0 km/h
3150 12-06-2011 03:49:05 7.8 C 7.26 g/m*3 7.8 C 0 km/h
Sensor: Nr:Datum:Temp:Abs-Feuchte:Windchill:Wind:
Aussen-T/F 3151 12-06-2011 04:01:05 7.9 C 7.31 g/m*3 7.9 C 0 km/h
3152 12-06-2011 04:13:05 7.9 C 7.39 g/m*3 7.9 C 0 km/h
3153 12-06-2011 04:25:05 7.6 C 7.25 g/m*3 7.6 C 0 km/h
3154 12-06-2011 04:37:05 7.3 C 7.11 g/m*3 7.3 C 0 km/h
3155 12-06-2011 04:49:05 6.9 C 7.01 g/m*3 6.9 C 0 km/h
3156 12-06-2011 05:01:05 7.2 C 7.06 g/m*3 7.2 C 0 km/h
3157 12-06-2011 05:13:05 6.9 C 7.01 g/m*3 6.9 C 0 km/h
3158 12-06-2011 05:25:05 6.7 C 6.91 g/m*3 6.7 C 0 km/h
3159 12-06-2011 05:37:05 7 C 6.97 g/m*3 7 C 0 km/h
3160 12-06-2011 05:49:05 6.7 C 6.91 g/m*3 6.7 C 0 km/h
3161 12-06-2011 06:01:05 7 C 6.97 g/m*3 7 C 0 km/h
3162 12-06-2011 06:13:05 7 C 6.97 g/m*3 7 C 0 km/h
3163 12-06-2011 06:25:05 7 C 6.97 g/m*3 7 C 0 km/h
3164 12-06-2011 06:37:05 7.5 C 7.28 g/m*3 7.5 C 0 km/h
3165 12-06-2011 06:49:05 7.5 C 7.28 g/m*3 7.5 C 0 km/h
3166 12-06-2011 07:01:04 8.1 C 7.49 g/m*3 8.1 C 0 km/h
3167 12-06-2011 07:13:04 8.7 C 7.78 g/m*3 8.7 C 0 km/h
3168 12-06-2011 07:25:03 8.8 C 7.75 g/m*3 8.8 C 0 km/h
3169 12-06-2011 07:37:03 9.2 C 7.86 g/m*3 9.2 C 0 km/h
3170 12-06-2011 07:49:02 9.7 C 8.11 g/m*3 9.7 C 0 km/h
3171 12-06-2011 08:01:02 10.6 C 8.49 g/m*3 10.6 C 0 km/h
3172 12-06-2011 08:13:02 11.6 C 8.52 g/m*3 11.6 C 0 km/h
3173 12-06-2011 08:25:01 12.1 C 7.83 g/m*3 12.1 C 0 km/h
3174 12-06-2011 08:37:02 12.5 C 7.92 g/m*3 12.5 C 0 km/h
3175 12-06-2011 08:49:01 12.6 C 7.74 g/m*3 12.6 C 0 km/h
Sensor: Nr:Datum:Temp:Abs-Feuchte:Windchill:Wind:
Aussen-T/F 3176 12-06-2011 09:01:02 13.1 C 7.76 g/m*3 13.1 C 0 km/h
3177 12-06-2011 09:13:02 13.3 C 7.16 g/m*3 13.3 C 0 km/h
3178 12-06-2011 09:25:01 13.7 C 7.22 g/m*3 13.7 C 0 km/h
3179 12-06-2011 09:37:02 13.9 C 7.43 g/m*3 13.9 C 0 km/h
3180 12-06-2011 09:49:01 14.4 C 7.29 g/m*3 14.4 C 0 km/h
3181 12-06-2011 10:01:02 15.5 C 7.53 g/m*3 15.5 C 0 km/h
3182 12-06-2011 10:13:02 16.5 C 7.3 g/m*3 16.5 C 0 km/h
3183 12-06-2011 10:25:02 16.2 C 7.03 g/m*3 16.2 C 0 km/h
3184 12-06-2011 10:37:01 16 C 6.81 g/m*3 16 C 0 km/h
3185 12-06-2011 10:49:02 16.5 C 7.02 g/m*3 16.5 C 0 km/h
3186 12-06-2011 11:01:01 17 C 6.66 g/m*3 17 C 0 km/h
3187 12-06-2011 11:13:01 17.5 C 6.71 g/m*3 17.5 C 0 km/h
3188 12-06-2011 11:25:02 16.4 C 7.68 g/m*3 16.4 C 0 km/h
3189 12-06-2011 11:37:01 18.3 C 5.63 g/m*3 18.3 C 0 km/h
3190 12-06-2011 11:49:02 18.3 C 5.47 g/m*3 18.3 C 0 km/h
3191 12-06-2011 12:01:02 17.7 C 5.58 g/m*3 17.7 C 0 km/h
3192 12-06-2011 12:13:02 18.3 C 5.94 g/m*3 18.3 C 0 km/h
3193 12-06-2011 12:25:02 17.7 C 6.04 g/m*3 17.7 C 0 km/h
3194 12-06-2011 12:37:02 18.1 C 6.49 g/m*3 18.1 C 0 km/h
3195 12-06-2011 12:49:01 18.9 C 5.99 g/m*3 18.9 C 0 km/h
3196 12-06-2011 13:01:02 18.8 C 5.8 g/m*3 18.8 C 0 km/h
3197 12-06-2011 13:13:02 19.6 C 5.91 g/m*3 19.6 C 0 km/h
3198 12-06-2011 13:25:01 21.9 C 5.79 g/m*3 21.9 C 0 km/h
3199 12-06-2011 13:37:02 24.6 C 4.5 g/m*3 24.6 C 0 km/h
3200 12-06-2011 13:49:02 25.1 C 4.63 g/m*3 25.1 C 0 km/h
Sensor: Nr:Datum:Temp:Abs-Feuchte:Windchill:Wind:
Aussen-T/F 3201 12-06-2011 14:01:02 23.6 C 4.68 g/m*3 23.6 C 0 km/h
3202 12-06-2011 14:13:02 26.1 C 4.9 g/m*3 26.1 C 0 km/h
3203 12-06-2011 14:25:01 26.1 C 4.9 g/m*3 26.1 C 0 km/h
3204 12-06-2011 14:37:02 26.4 C 4.98 g/m*3 26.4 C 0 km/h
3205 12-06-2011 14:49:01 25.9 C 4.84 g/m*3 25.9 C 0 km/h
3206 12-06-2011 15:01:02 23.4 C 4.21 g/m*3 23.4 C 0 km/h
3207 12-06-2011 15:13:02 22.5 C 3.99 g/m*3 22.5 C 0 km/h
3208 12-06-2011 15:25:01 23.3 C 4.18 g/m*3 23.3 C 0 km/h
3209 12-06-2011 15:37:02 23.7 C 4.28 g/m*3 23.7 C 0 km/h
3210 12-06-2011 15:49:01 22.7 C 4.04 g/m*3 22.7 C 0 km/h
3211 12-06-2011 16:01:02 22.8 C 4.27 g/m*3 22.8 C 0 km/h
3212 12-06-2011 16:13:02 24.7 C 4.53 g/m*3 24.7 C 0 km/h
3213 12-06-2011 16:25:02 25.8 C 4.82 g/m*3 25.8 C 0 km/h
3214 12-06-2011 16:37:01 23 C 4.11 g/m*3 23 C 0 km/h
3215 12-06-2011 16:49:02 23.2 C 4.16 g/m*3 23.2 C 0 km/h
3216 12-06-2011 17:01:01 23.5 C 4.23 g/m*3 23.5 C 0 km/h
3217 12-06-2011 17:13:01 23 C 4.11 g/m*3 23 C 0 km/h
3218 12-06-2011 17:25:02 22.2 C 4.52 g/m*3 22.2 C 0 km/h
3219 12-06-2011 17:37:01 23.2 C 4.16 g/m*3 23.2 C 0 km/h
3220 12-06-2011 17:49:02 21.9 C 5.98 g/m*3 21.9 C 0 km/h
3221 12-06-2011 18:01:02 21.9 C 5.79 g/m*3 21.9 C 0 km/h
3222 12-06-2011 18:13:02 23.7 C 4.49 g/m*3 23.7 C 0 km/h
3223 12-06-2011 18:25:02 24.4 C 4.45 g/m*3 24.4 C 0 km/h
3224 12-06-2011 18:37:02 23.3 C 4.39 g/m*3 23.3 C 0 km/h
3225 12-06-2011 18:49:01 22.1 C 4.88 g/m*3 22.1 C 0 km/h
Sensor: Nr:Datum:Temp:Abs-Feuchte:Windchill:Wind:
Aussen-T/F 3226 12-06-2011 19:01:02 21.8 C 6.91 g/m*3 21.8 C 0 km/h
3227